<?xml version="1.0" encoding="UTF-8" standalone="no" ?>
<gpx xmlns="http://www.topografix.com/GPX/1/1" xmlns:xsi="http://www.w3.org/2001/XMLSchema-instance" xsi:schemaLocation="http://www.topografix.com/GPX/1/1 http://www.topografix.com/GPX/1/1/gpx.xsd" version="1.1" creator="VisuGPX - https://www.visugpx.com">
  <metadata>
    <name>Trail des Résistants</name>
  </metadata>
  <trk>
    <name><![CDATA[Trail des Résistants_1]]></name>
    <trkseg>
      <trkpt lat="43.00032" lon="1.33973">
        <ele>403.8</ele>
        <time>2022-03-26T14:02:40Z</time>
      </trkpt>
      <trkpt lat="43.00035" lon="1.33985">
        <ele>403.8</ele>
        <time>2022-03-26T14:02:44Z</time>
      </trkpt>
      <trkpt lat="43.00041" lon="1.3399">
        <ele>403.6</ele>
        <time>2022-03-26T14:02:52Z</time>
      </trkpt>
      <trkpt lat="43.00044" lon="1.33992">
        <ele>403.6</ele>
        <time>2022-03-26T14:02:54Z</time>
      </trkpt>
      <trkpt lat="43.00063" lon="1.33996">
        <ele>403.6</ele>
        <time>2022-03-26T14:03:03Z</time>
      </trkpt>
      <trkpt lat="43.00066" lon="1.33997">
        <ele>403.6</ele>
        <time>2022-03-26T14:03:04Z</time>
      </trkpt>
      <trkpt lat="43.00073" lon="1.3402">
        <ele>403</ele>
        <time>2022-03-26T14:03:13Z</time>
      </trkpt>
      <trkpt lat="43.00073" lon="1.34026">
        <ele>402.8</ele>
        <time>2022-03-26T14:03:15Z</time>
      </trkpt>
      <trkpt lat="43.00076" lon="1.34052">
        <ele>402.2</ele>
        <time>2022-03-26T14:03:23Z</time>
      </trkpt>
      <trkpt lat="43.00076" lon="1.3406">
        <ele>401.8</ele>
        <time>2022-03-26T14:03:25Z</time>
      </trkpt>
      <trkpt lat="43.00078" lon="1.34085">
        <ele>401</ele>
        <time>2022-03-26T14:03:32Z</time>
      </trkpt>
      <trkpt lat="43.00078" lon="1.34095">
        <ele>400.6</ele>
        <time>2022-03-26T14:03:35Z</time>
      </trkpt>
      <trkpt lat="43.00077" lon="1.3412">
        <ele>400.4</ele>
        <time>2022-03-26T14:03:42Z</time>
      </trkpt>
      <trkpt lat="43.00078" lon="1.34134">
        <ele>400.6</ele>
        <time>2022-03-26T14:03:46Z</time>
      </trkpt>
      <trkpt lat="43.0008" lon="1.34162">
        <ele>402.4</ele>
        <time>2022-03-26T14:03:53Z</time>
      </trkpt>
      <trkpt lat="43.0008" lon="1.34173">
        <ele>401.8</ele>
        <time>2022-03-26T14:03:56Z</time>
      </trkpt>
      <trkpt lat="43.00084" lon="1.34182">
        <ele>401.4</ele>
        <time>2022-03-26T14:04:00Z</time>
      </trkpt>
      <trkpt lat="43.00102" lon="1.34185">
        <ele>401</ele>
        <time>2022-03-26T14:04:06Z</time>
      </trkpt>
      <trkpt lat="43.0012" lon="1.34187">
        <ele>399.6</ele>
        <time>2022-03-26T14:04:13Z</time>
      </trkpt>
      <trkpt lat="43.00128" lon="1.34188">
        <ele>399.2</ele>
        <time>2022-03-26T14:04:16Z</time>
      </trkpt>
      <trkpt lat="43.00148" lon="1.34191">
        <ele>398.8</ele>
        <time>2022-03-26T14:04:23Z</time>
      </trkpt>
      <trkpt lat="43.00156" lon="1.34192">
        <ele>397.4</ele>
        <time>2022-03-26T14:04:26Z</time>
      </trkpt>
      <trkpt lat="43.00175" lon="1.34193">
        <ele>398.2</ele>
        <time>2022-03-26T14:04:33Z</time>
      </trkpt>
      <trkpt lat="43.00182" lon="1.34196">
        <ele>397.6</ele>
        <time>2022-03-26T14:04:36Z</time>
      </trkpt>
      <trkpt lat="43.00203" lon="1.34203">
        <ele>400.4</ele>
        <time>2022-03-26T14:04:43Z</time>
      </trkpt>
      <trkpt lat="43.00211" lon="1.34206">
        <ele>400</ele>
        <time>2022-03-26T14:04:46Z</time>
      </trkpt>
      <trkpt lat="43.00229" lon="1.34218">
        <ele>400.8</ele>
        <time>2022-03-26T14:04:53Z</time>
      </trkpt>
      <trkpt lat="43.00235" lon="1.34226">
        <ele>401.8</ele>
        <time>2022-03-26T14:04:56Z</time>
      </trkpt>
      <trkpt lat="43.00249" lon="1.34241">
        <ele>401.8</ele>
        <time>2022-03-26T14:05:03Z</time>
      </trkpt>
      <trkpt lat="43.00257" lon="1.34248">
        <ele>401.8</ele>
        <time>2022-03-26T14:05:06Z</time>
      </trkpt>
      <trkpt lat="43.00272" lon="1.34265">
        <ele>401</ele>
        <time>2022-03-26T14:05:13Z</time>
      </trkpt>
      <trkpt lat="43.00278" lon="1.34272">
        <ele>400.6</ele>
        <time>2022-03-26T14:05:16Z</time>
      </trkpt>
      <trkpt lat="43.00296" lon="1.34283">
        <ele>399.8</ele>
        <time>2022-03-26T14:05:25Z</time>
      </trkpt>
      <trkpt lat="43.00298" lon="1.34283">
        <ele>400.2</ele>
        <time>2022-03-26T14:05:26Z</time>
      </trkpt>
      <trkpt lat="43.00317" lon="1.3428">
        <ele>398.6</ele>
        <time>2022-03-26T14:05:35Z</time>
      </trkpt>
      <trkpt lat="43.00318" lon="1.3428">
        <ele>398.8</ele>
        <time>2022-03-26T14:05:36Z</time>
      </trkpt>
      <trkpt lat="43.00335" lon="1.34276">
        <ele>401.8</ele>
        <time>2022-03-26T14:05:46Z</time>
      </trkpt>
      <trkpt lat="43.00354" lon="1.34271">
        <ele>402.6</ele>
        <time>2022-03-26T14:05:56Z</time>
      </trkpt>
      <trkpt lat="43.00364" lon="1.34252">
        <ele>404.4</ele>
        <time>2022-03-26T14:06:04Z</time>
      </trkpt>
      <trkpt lat="43.00366" lon="1.34246">
        <ele>405.2</ele>
        <time>2022-03-26T14:06:06Z</time>
      </trkpt>
      <trkpt lat="43.00371" lon="1.3422">
        <ele>409.6</ele>
        <time>2022-03-26T14:06:16Z</time>
      </trkpt>
      <trkpt lat="43.00374" lon="1.34197">
        <ele>414.8</ele>
        <time>2022-03-26T14:06:26Z</time>
      </trkpt>
      <trkpt lat="43.00376" lon="1.34177">
        <ele>420</ele>
        <time>2022-03-26T14:06:36Z</time>
      </trkpt>
      <trkpt lat="43.00377" lon="1.34157">
        <ele>424</ele>
        <time>2022-03-26T14:06:46Z</time>
      </trkpt>
      <trkpt lat="43.0038" lon="1.34155">
        <ele>424.6</ele>
        <time>2022-03-26T14:06:48Z</time>
      </trkpt>
      <trkpt lat="43.00384" lon="1.34158">
        <ele>425.4</ele>
        <time>2022-03-26T14:06:51Z</time>
      </trkpt>
      <trkpt lat="43.00386" lon="1.34169">
        <ele>426.6</ele>
        <time>2022-03-26T14:06:56Z</time>
      </trkpt>
      <trkpt lat="43.00392" lon="1.34192">
        <ele>427.4</ele>
        <time>2022-03-26T14:07:06Z</time>
      </trkpt>
      <trkpt lat="43.00399" lon="1.34215">
        <ele>428.2</ele>
        <time>2022-03-26T14:07:16Z</time>
      </trkpt>
      <trkpt lat="43.00407" lon="1.34238">
        <ele>429</ele>
        <time>2022-03-26T14:07:26Z</time>
      </trkpt>
      <trkpt lat="43.00413" lon="1.34258">
        <ele>430.4</ele>
        <time>2022-03-26T14:07:36Z</time>
      </trkpt>
      <trkpt lat="43.00419" lon="1.34282">
        <ele>432.2</ele>
        <time>2022-03-26T14:07:46Z</time>
      </trkpt>
      <trkpt lat="43.00426" lon="1.34303">
        <ele>433.2</ele>
        <time>2022-03-26T14:07:56Z</time>
      </trkpt>
      <trkpt lat="43.00438" lon="1.34325">
        <ele>434.2</ele>
        <time>2022-03-26T14:08:05Z</time>
      </trkpt>
      <trkpt lat="43.0044" lon="1.34327">
        <ele>434.6</ele>
        <time>2022-03-26T14:08:06Z</time>
      </trkpt>
      <trkpt lat="43.00452" lon="1.34348">
        <ele>437.6</ele>
        <time>2022-03-26T14:08:15Z</time>
      </trkpt>
      <trkpt lat="43.00453" lon="1.3435">
        <ele>437.8</ele>
        <time>2022-03-26T14:08:16Z</time>
      </trkpt>
      <trkpt lat="43.00466" lon="1.34368">
        <ele>440.4</ele>
        <time>2022-03-26T14:08:25Z</time>
      </trkpt>
      <trkpt lat="43.00468" lon="1.34371">
        <ele>441</ele>
        <time>2022-03-26T14:08:27Z</time>
      </trkpt>
      <trkpt lat="43.00481" lon="1.34389">
        <ele>442</ele>
        <time>2022-03-26T14:08:36Z</time>
      </trkpt>
      <trkpt lat="43.00483" lon="1.34391">
        <ele>442.2</ele>
        <time>2022-03-26T14:08:37Z</time>
      </trkpt>
      <trkpt lat="43.00498" lon="1.34409">
        <ele>443</ele>
        <time>2022-03-26T14:08:46Z</time>
      </trkpt>
      <trkpt lat="43.005" lon="1.3441">
        <ele>442.8</ele>
        <time>2022-03-26T14:08:47Z</time>
      </trkpt>
      <trkpt lat="43.00501" lon="1.34411">
        <ele>443</ele>
        <time>2022-03-26T14:08:48Z</time>
      </trkpt>
      <trkpt lat="43.00503" lon="1.34409">
        <ele>443.2</ele>
        <time>2022-03-26T14:08:50Z</time>
      </trkpt>
      <trkpt lat="43.00513" lon="1.34395">
        <ele>441</ele>
        <time>2022-03-26T14:08:57Z</time>
      </trkpt>
      <trkpt lat="43.00526" lon="1.34374">
        <ele>435.6</ele>
        <time>2022-03-26T14:09:05Z</time>
      </trkpt>
      <trkpt lat="43.00528" lon="1.34367">
        <ele>433.8</ele>
        <time>2022-03-26T14:09:07Z</time>
      </trkpt>
      <trkpt lat="43.00537" lon="1.34342">
        <ele>429.8</ele>
        <time>2022-03-26T14:09:14Z</time>
      </trkpt>
      <trkpt lat="43.0054" lon="1.34331">
        <ele>428</ele>
        <time>2022-03-26T14:09:17Z</time>
      </trkpt>
      <trkpt lat="43.00549" lon="1.34309">
        <ele>427.4</ele>
        <time>2022-03-26T14:09:23Z</time>
      </trkpt>
      <trkpt lat="43.00555" lon="1.34295">
        <ele>425.4</ele>
        <time>2022-03-26T14:09:27Z</time>
      </trkpt>
      <trkpt lat="43.0056" lon="1.34284">
        <ele>425.8</ele>
        <time>2022-03-26T14:09:30Z</time>
      </trkpt>
      <trkpt lat="43.00569" lon="1.3426">
        <ele>425</ele>
        <time>2022-03-26T14:09:36Z</time>
      </trkpt>
      <trkpt lat="43.00571" lon="1.34256">
        <ele>425</ele>
        <time>2022-03-26T14:09:37Z</time>
      </trkpt>
      <trkpt lat="43.00581" lon="1.34235">
        <ele>426.8</ele>
        <time>2022-03-26T14:09:43Z</time>
      </trkpt>
      <trkpt lat="43.00586" lon="1.34219">
        <ele>426.4</ele>
        <time>2022-03-26T14:09:47Z</time>
      </trkpt>
      <trkpt lat="43.00592" lon="1.34196">
        <ele>425</ele>
        <time>2022-03-26T14:09:53Z</time>
      </trkpt>
      <trkpt lat="43.00596" lon="1.34183">
        <ele>423.4</ele>
        <time>2022-03-26T14:09:57Z</time>
      </trkpt>
      <trkpt lat="43.00608" lon="1.34161">
        <ele>418.6</ele>
        <time>2022-03-26T14:10:04Z</time>
      </trkpt>
      <trkpt lat="43.00614" lon="1.34151">
        <ele>417.4</ele>
        <time>2022-03-26T14:10:07Z</time>
      </trkpt>
      <trkpt lat="43.00627" lon="1.34134">
        <ele>416.2</ele>
        <time>2022-03-26T14:10:13Z</time>
      </trkpt>
      <trkpt lat="43.00635" lon="1.34123">
        <ele>414.6</ele>
        <time>2022-03-26T14:10:17Z</time>
      </trkpt>
      <trkpt lat="43.00651" lon="1.34106">
        <ele>412.4</ele>
        <time>2022-03-26T14:10:24Z</time>
      </trkpt>
      <trkpt lat="43.00657" lon="1.34099">
        <ele>411.4</ele>
        <time>2022-03-26T14:10:27Z</time>
      </trkpt>
      <trkpt lat="43.00671" lon="1.34082">
        <ele>408.8</ele>
        <time>2022-03-26T14:10:34Z</time>
      </trkpt>
      <trkpt lat="43.00677" lon="1.34075">
        <ele>407.4</ele>
        <time>2022-03-26T14:10:37Z</time>
      </trkpt>
      <trkpt lat="43.00691" lon="1.34057">
        <ele>403.4</ele>
        <time>2022-03-26T14:10:44Z</time>
      </trkpt>
      <trkpt lat="43.00697" lon="1.34052">
        <ele>401.4</ele>
        <time>2022-03-26T14:10:47Z</time>
      </trkpt>
      <trkpt lat="43.00714" lon="1.34043">
        <ele>397.4</ele>
        <time>2022-03-26T14:10:54Z</time>
      </trkpt>
      <trkpt lat="43.00722" lon="1.34039">
        <ele>396.8</ele>
        <time>2022-03-26T14:10:57Z</time>
      </trkpt>
      <trkpt lat="43.00739" lon="1.34028">
        <ele>395.8</ele>
        <time>2022-03-26T14:11:04Z</time>
      </trkpt>
      <trkpt lat="43.00745" lon="1.34021">
        <ele>394.8</ele>
        <time>2022-03-26T14:11:07Z</time>
      </trkpt>
      <trkpt lat="43.00752" lon="1.33999">
        <ele>392.4</ele>
        <time>2022-03-26T14:11:14Z</time>
      </trkpt>
      <trkpt lat="43.00755" lon="1.3399">
        <ele>390.2</ele>
        <time>2022-03-26T14:11:17Z</time>
      </trkpt>
      <trkpt lat="43.00759" lon="1.33986">
        <ele>387.8</ele>
        <time>2022-03-26T14:11:20Z</time>
      </trkpt>
      <trkpt lat="43.00761" lon="1.33988">
        <ele>387.6</ele>
        <time>2022-03-26T14:11:22Z</time>
      </trkpt>
      <trkpt lat="43.00765" lon="1.33999">
        <ele>389.8</ele>
        <time>2022-03-26T14:11:27Z</time>
      </trkpt>
      <trkpt lat="43.00775" lon="1.3402">
        <ele>396.8</ele>
        <time>2022-03-26T14:11:36Z</time>
      </trkpt>
      <trkpt lat="43.00776" lon="1.34022">
        <ele>397.2</ele>
        <time>2022-03-26T14:11:37Z</time>
      </trkpt>
      <trkpt lat="43.00786" lon="1.34045">
        <ele>402.8</ele>
        <time>2022-03-26T14:11:48Z</time>
      </trkpt>
      <trkpt lat="43.00794" lon="1.34064">
        <ele>407.4</ele>
        <time>2022-03-26T14:11:58Z</time>
      </trkpt>
      <trkpt lat="43.00804" lon="1.34081">
        <ele>412.2</ele>
        <time>2022-03-26T14:12:08Z</time>
      </trkpt>
      <trkpt lat="43.00811" lon="1.34098">
        <ele>415.2</ele>
        <time>2022-03-26T14:12:18Z</time>
      </trkpt>
      <trkpt lat="43.00817" lon="1.34114">
        <ele>419.8</ele>
        <time>2022-03-26T14:12:28Z</time>
      </trkpt>
      <trkpt lat="43.00823" lon="1.34124">
        <ele>420</ele>
        <time>2022-03-26T14:12:38Z</time>
      </trkpt>
      <trkpt lat="43.00833" lon="1.34131">
        <ele>420.6</ele>
        <time>2022-03-26T14:12:48Z</time>
      </trkpt>
      <trkpt lat="43.00841" lon="1.34142">
        <ele>422</ele>
        <time>2022-03-26T14:12:58Z</time>
      </trkpt>
      <trkpt lat="43.00844" lon="1.34152">
        <ele>423.8</ele>
        <time>2022-03-26T14:13:05Z</time>
      </trkpt>
      <trkpt lat="43.00843" lon="1.34155">
        <ele>424.8</ele>
        <time>2022-03-26T14:13:08Z</time>
      </trkpt>
      <trkpt lat="43.00839" lon="1.3416">
        <ele>427.8</ele>
        <time>2022-03-26T14:13:14Z</time>
      </trkpt>
      <trkpt lat="43.00835" lon="1.34163">
        <ele>429.2</ele>
        <time>2022-03-26T14:13:18Z</time>
      </trkpt>
      <trkpt lat="43.00827" lon="1.34176">
        <ele>431</ele>
        <time>2022-03-26T14:13:28Z</time>
      </trkpt>
      <trkpt lat="43.0082" lon="1.34187">
        <ele>436.4</ele>
        <time>2022-03-26T14:13:38Z</time>
      </trkpt>
      <trkpt lat="43.00818" lon="1.3419">
        <ele>437.6</ele>
        <time>2022-03-26T14:13:41Z</time>
      </trkpt>
      <trkpt lat="43.00818" lon="1.34195">
        <ele>437.2</ele>
        <time>2022-03-26T14:13:44Z</time>
      </trkpt>
      <trkpt lat="43.0082" lon="1.34199">
        <ele>437.2</ele>
        <time>2022-03-26T14:13:48Z</time>
      </trkpt>
      <trkpt lat="43.0082" lon="1.342">
        <ele>437.2</ele>
        <time>2022-03-26T14:13:49Z</time>
      </trkpt>
      <trkpt lat="43.00827" lon="1.34208">
        <ele>436.6</ele>
        <time>2022-03-26T14:13:58Z</time>
      </trkpt>
      <trkpt lat="43.00845" lon="1.3421">
        <ele>435.8</ele>
        <time>2022-03-26T14:14:07Z</time>
      </trkpt>
      <trkpt lat="43.00848" lon="1.34211">
        <ele>436.2</ele>
        <time>2022-03-26T14:14:08Z</time>
      </trkpt>
      <trkpt lat="43.00866" lon="1.34221">
        <ele>436.4</ele>
        <time>2022-03-26T14:14:17Z</time>
      </trkpt>
      <trkpt lat="43.00868" lon="1.34222">
        <ele>436.4</ele>
        <time>2022-03-26T14:14:18Z</time>
      </trkpt>
      <trkpt lat="43.00885" lon="1.34236">
        <ele>435.2</ele>
        <time>2022-03-26T14:14:26Z</time>
      </trkpt>
      <trkpt lat="43.00889" lon="1.34239">
        <ele>435.2</ele>
        <time>2022-03-26T14:14:28Z</time>
      </trkpt>
      <trkpt lat="43.00906" lon="1.34253">
        <ele>434.4</ele>
        <time>2022-03-26T14:14:36Z</time>
      </trkpt>
      <trkpt lat="43.0091" lon="1.34257">
        <ele>434.4</ele>
        <time>2022-03-26T14:14:38Z</time>
      </trkpt>
      <trkpt lat="43.00929" lon="1.34269">
        <ele>434.4</ele>
        <time>2022-03-26T14:14:46Z</time>
      </trkpt>
      <trkpt lat="43.00933" lon="1.34272">
        <ele>434</ele>
        <time>2022-03-26T14:14:48Z</time>
      </trkpt>
      <trkpt lat="43.00952" lon="1.34283">
        <ele>433.8</ele>
        <time>2022-03-26T14:14:56Z</time>
      </trkpt>
      <trkpt lat="43.00956" lon="1.34286">
        <ele>433.2</ele>
        <time>2022-03-26T14:14:58Z</time>
      </trkpt>
      <trkpt lat="43.00974" lon="1.34295">
        <ele>432.4</ele>
        <time>2022-03-26T14:15:06Z</time>
      </trkpt>
      <trkpt lat="43.00978" lon="1.34299">
        <ele>432.8</ele>
        <time>2022-03-26T14:15:08Z</time>
      </trkpt>
      <trkpt lat="43.00995" lon="1.34311">
        <ele>432.4</ele>
        <time>2022-03-26T14:15:15Z</time>
      </trkpt>
      <trkpt lat="43.01002" lon="1.34316">
        <ele>431.8</ele>
        <time>2022-03-26T14:15:18Z</time>
      </trkpt>
      <trkpt lat="43.0102" lon="1.34326">
        <ele>432</ele>
        <time>2022-03-26T14:15:26Z</time>
      </trkpt>
      <trkpt lat="43.01025" lon="1.34328">
        <ele>432.8</ele>
        <time>2022-03-26T14:15:28Z</time>
      </trkpt>
      <trkpt lat="43.01043" lon="1.34337">
        <ele>435.6</ele>
        <time>2022-03-26T14:15:36Z</time>
      </trkpt>
      <trkpt lat="43.01048" lon="1.3434">
        <ele>436.6</ele>
        <time>2022-03-26T14:15:38Z</time>
      </trkpt>
      <trkpt lat="43.01063" lon="1.34356">
        <ele>435.6</ele>
        <time>2022-03-26T14:15:46Z</time>
      </trkpt>
      <trkpt lat="43.01067" lon="1.34361">
        <ele>434.8</ele>
        <time>2022-03-26T14:15:48Z</time>
      </trkpt>
      <trkpt lat="43.01083" lon="1.34374">
        <ele>431</ele>
        <time>2022-03-26T14:15:55Z</time>
      </trkpt>
      <trkpt lat="43.0109" lon="1.34378">
        <ele>430.6</ele>
        <time>2022-03-26T14:15:58Z</time>
      </trkpt>
      <trkpt lat="43.01109" lon="1.34383">
        <ele>430.6</ele>
        <time>2022-03-26T14:16:06Z</time>
      </trkpt>
      <trkpt lat="43.01114" lon="1.34383">
        <ele>430.4</ele>
        <time>2022-03-26T14:16:08Z</time>
      </trkpt>
      <trkpt lat="43.0113" lon="1.34385">
        <ele>431</ele>
        <time>2022-03-26T14:16:15Z</time>
      </trkpt>
      <trkpt lat="43.01131" lon="1.34393">
        <ele>432.2</ele>
        <time>2022-03-26T14:16:18Z</time>
      </trkpt>
      <trkpt lat="43.01118" lon="1.34412">
        <ele>434</ele>
        <time>2022-03-26T14:16:26Z</time>
      </trkpt>
      <trkpt lat="43.01114" lon="1.34416">
        <ele>434.6</ele>
        <time>2022-03-26T14:16:28Z</time>
      </trkpt>
      <trkpt lat="43.01098" lon="1.34431">
        <ele>437.2</ele>
        <time>2022-03-26T14:16:37Z</time>
      </trkpt>
      <trkpt lat="43.01096" lon="1.34432">
        <ele>437.6</ele>
        <time>2022-03-26T14:16:38Z</time>
      </trkpt>
      <trkpt lat="43.0108" lon="1.34446">
        <ele>439.2</ele>
        <time>2022-03-26T14:16:47Z</time>
      </trkpt>
      <trkpt lat="43.01079" lon="1.34448">
        <ele>439</ele>
        <time>2022-03-26T14:16:48Z</time>
      </trkpt>
      <trkpt lat="43.01064" lon="1.34461">
        <ele>441.2</ele>
        <time>2022-03-26T14:16:58Z</time>
      </trkpt>
      <trkpt lat="43.0105" lon="1.34472">
        <ele>445</ele>
        <time>2022-03-26T14:17:08Z</time>
      </trkpt>
      <trkpt lat="43.01036" lon="1.34481">
        <ele>447.6</ele>
        <time>2022-03-26T14:17:18Z</time>
      </trkpt>
      <trkpt lat="43.01021" lon="1.34491">
        <ele>449</ele>
        <time>2022-03-26T14:17:28Z</time>
      </trkpt>
      <trkpt lat="43.01006" lon="1.34502">
        <ele>451</ele>
        <time>2022-03-26T14:17:38Z</time>
      </trkpt>
      <trkpt lat="43.00991" lon="1.34506">
        <ele>451.2</ele>
        <time>2022-03-26T14:17:48Z</time>
      </trkpt>
      <trkpt lat="43.00979" lon="1.34501">
        <ele>452.4</ele>
        <time>2022-03-26T14:17:58Z</time>
      </trkpt>
      <trkpt lat="43.00971" lon="1.34502">
        <ele>455.8</ele>
        <time>2022-03-26T14:18:08Z</time>
      </trkpt>
      <trkpt lat="43.00962" lon="1.34511">
        <ele>458.2</ele>
        <time>2022-03-26T14:18:18Z</time>
      </trkpt>
      <trkpt lat="43.00954" lon="1.34525">
        <ele>459.6</ele>
        <time>2022-03-26T14:18:28Z</time>
      </trkpt>
      <trkpt lat="43.00942" lon="1.34535">
        <ele>460.6</ele>
        <time>2022-03-26T14:18:38Z</time>
      </trkpt>
      <trkpt lat="43.00933" lon="1.34548">
        <ele>461.2</ele>
        <time>2022-03-26T14:18:48Z</time>
      </trkpt>
      <trkpt lat="43.00923" lon="1.34561">
        <ele>465.8</ele>
        <time>2022-03-26T14:18:58Z</time>
      </trkpt>
      <trkpt lat="43.00911" lon="1.34566">
        <ele>468.6</ele>
        <time>2022-03-26T14:19:08Z</time>
      </trkpt>
      <trkpt lat="43.009" lon="1.34574">
        <ele>467.6</ele>
        <time>2022-03-26T14:19:18Z</time>
      </trkpt>
      <trkpt lat="43.00893" lon="1.34596">
        <ele>468</ele>
        <time>2022-03-26T14:19:27Z</time>
      </trkpt>
      <trkpt lat="43.00893" lon="1.34599">
        <ele>468</ele>
        <time>2022-03-26T14:19:28Z</time>
      </trkpt>
      <trkpt lat="43.00889" lon="1.34624">
        <ele>470.2</ele>
        <time>2022-03-26T14:19:36Z</time>
      </trkpt>
      <trkpt lat="43.00889" lon="1.34631">
        <ele>471.2</ele>
        <time>2022-03-26T14:19:38Z</time>
      </trkpt>
      <trkpt lat="43.00883" lon="1.34655">
        <ele>475</ele>
        <time>2022-03-26T14:19:47Z</time>
      </trkpt>
      <trkpt lat="43.00882" lon="1.34658">
        <ele>475.6</ele>
        <time>2022-03-26T14:19:48Z</time>
      </trkpt>
      <trkpt lat="43.00873" lon="1.34682">
        <ele>477.8</ele>
        <time>2022-03-26T14:19:58Z</time>
      </trkpt>
      <trkpt lat="43.00861" lon="1.34701">
        <ele>479.6</ele>
        <time>2022-03-26T14:20:08Z</time>
      </trkpt>
      <trkpt lat="43.00844" lon="1.34712">
        <ele>479.8</ele>
        <time>2022-03-26T14:20:18Z</time>
      </trkpt>
      <trkpt lat="43.00828" lon="1.34721">
        <ele>479.4</ele>
        <time>2022-03-26T14:20:28Z</time>
      </trkpt>
      <trkpt lat="43.00814" lon="1.34739">
        <ele>480.4</ele>
        <time>2022-03-26T14:20:36Z</time>
      </trkpt>
      <trkpt lat="43.00812" lon="1.34741">
        <ele>480.4</ele>
        <time>2022-03-26T14:20:38Z</time>
      </trkpt>
      <trkpt lat="43.00803" lon="1.34763">
        <ele>481</ele>
        <time>2022-03-26T14:20:45Z</time>
      </trkpt>
      <trkpt lat="43.00799" lon="1.34771">
        <ele>481.4</ele>
        <time>2022-03-26T14:20:48Z</time>
      </trkpt>
      <trkpt lat="43.00792" lon="1.34796">
        <ele>482.4</ele>
        <time>2022-03-26T14:20:56Z</time>
      </trkpt>
      <trkpt lat="43.0079" lon="1.34803">
        <ele>482.6</ele>
        <time>2022-03-26T14:20:58Z</time>
      </trkpt>
      <trkpt lat="43.00788" lon="1.34829">
        <ele>485.4</ele>
        <time>2022-03-26T14:21:07Z</time>
      </trkpt>
      <trkpt lat="43.00788" lon="1.34832">
        <ele>485.6</ele>
        <time>2022-03-26T14:21:08Z</time>
      </trkpt>
      <trkpt lat="43.00784" lon="1.34858">
        <ele>486.8</ele>
        <time>2022-03-26T14:21:17Z</time>
      </trkpt>
      <trkpt lat="43.00783" lon="1.34861">
        <ele>487</ele>
        <time>2022-03-26T14:21:18Z</time>
      </trkpt>
      <trkpt lat="43.00783" lon="1.34886">
        <ele>486.4</ele>
        <time>2022-03-26T14:21:27Z</time>
      </trkpt>
      <trkpt lat="43.00783" lon="1.34889">
        <ele>485.8</ele>
        <time>2022-03-26T14:21:28Z</time>
      </trkpt>
      <trkpt lat="43.00789" lon="1.34913">
        <ele>484.6</ele>
        <time>2022-03-26T14:21:36Z</time>
      </trkpt>
      <trkpt lat="43.00791" lon="1.34918">
        <ele>484.4</ele>
        <time>2022-03-26T14:21:37Z</time>
      </trkpt>
      <trkpt lat="43.00791" lon="1.34918">
        <ele>484.4</ele>
        <time>2022-03-26T14:21:38Z</time>
      </trkpt>
      <trkpt lat="43.00793" lon="1.34919">
        <ele>484.8</ele>
        <time>2022-03-26T14:21:39Z</time>
      </trkpt>
      <trkpt lat="43.00811" lon="1.34911">
        <ele>483.8</ele>
        <time>2022-03-26T14:21:48Z</time>
      </trkpt>
      <trkpt lat="43.0083" lon="1.349">
        <ele>480.4</ele>
        <time>2022-03-26T14:21:56Z</time>
      </trkpt>
      <trkpt lat="43.00833" lon="1.34898">
        <ele>479.8</ele>
        <time>2022-03-26T14:21:58Z</time>
      </trkpt>
      <trkpt lat="43.00847" lon="1.34875">
        <ele>477</ele>
        <time>2022-03-26T14:22:06Z</time>
      </trkpt>
      <trkpt lat="43.00849" lon="1.34872">
        <ele>476.8</ele>
        <time>2022-03-26T14:22:08Z</time>
      </trkpt>
      <trkpt lat="43.00852" lon="1.34869">
        <ele>476</ele>
        <time>2022-03-26T14:22:09Z</time>
      </trkpt>
      <trkpt lat="43.00872" lon="1.34868">
        <ele>471.2</ele>
        <time>2022-03-26T14:22:17Z</time>
      </trkpt>
      <trkpt lat="43.00875" lon="1.34868">
        <ele>470.6</ele>
        <time>2022-03-26T14:22:18Z</time>
      </trkpt>
      <trkpt lat="43.00894" lon="1.34863">
        <ele>463.6</ele>
        <time>2022-03-26T14:22:27Z</time>
      </trkpt>
      <trkpt lat="43.00896" lon="1.34863">
        <ele>463</ele>
        <time>2022-03-26T14:22:28Z</time>
      </trkpt>
      <trkpt lat="43.00915" lon="1.34865">
        <ele>458.2</ele>
        <time>2022-03-26T14:22:35Z</time>
      </trkpt>
      <trkpt lat="43.00923" lon="1.34866">
        <ele>455.8</ele>
        <time>2022-03-26T14:22:38Z</time>
      </trkpt>
      <trkpt lat="43.00943" lon="1.3487">
        <ele>451.6</ele>
        <time>2022-03-26T14:22:45Z</time>
      </trkpt>
      <trkpt lat="43.00952" lon="1.34871">
        <ele>450.4</ele>
        <time>2022-03-26T14:22:48Z</time>
      </trkpt>
      <trkpt lat="43.0097" lon="1.34865">
        <ele>448.2</ele>
        <time>2022-03-26T14:22:56Z</time>
      </trkpt>
      <trkpt lat="43.00974" lon="1.3486">
        <ele>447.6</ele>
        <time>2022-03-26T14:22:58Z</time>
      </trkpt>
      <trkpt lat="43.00989" lon="1.34844">
        <ele>446.8</ele>
        <time>2022-03-26T14:23:05Z</time>
      </trkpt>
      <trkpt lat="43.00996" lon="1.34839">
        <ele>445.8</ele>
        <time>2022-03-26T14:23:08Z</time>
      </trkpt>
      <trkpt lat="43.01015" lon="1.34826">
        <ele>443.6</ele>
        <time>2022-03-26T14:23:16Z</time>
      </trkpt>
      <trkpt lat="43.01019" lon="1.34823">
        <ele>442.6</ele>
        <time>2022-03-26T14:23:18Z</time>
      </trkpt>
      <trkpt lat="43.01037" lon="1.34815">
        <ele>440.8</ele>
        <time>2022-03-26T14:23:26Z</time>
      </trkpt>
      <trkpt lat="43.01045" lon="1.34816">
        <ele>439.2</ele>
        <time>2022-03-26T14:23:28Z</time>
      </trkpt>
      <trkpt lat="43.01065" lon="1.34818">
        <ele>438.6</ele>
        <time>2022-03-26T14:23:36Z</time>
      </trkpt>
      <trkpt lat="43.01068" lon="1.34817">
        <ele>438.8</ele>
        <time>2022-03-26T14:23:38Z</time>
      </trkpt>
      <trkpt lat="43.01088" lon="1.34812">
        <ele>439.4</ele>
        <time>2022-03-26T14:23:45Z</time>
      </trkpt>
      <trkpt lat="43.01096" lon="1.34809">
        <ele>440.4</ele>
        <time>2022-03-26T14:23:48Z</time>
      </trkpt>
      <trkpt lat="43.01116" lon="1.34803">
        <ele>438.2</ele>
        <time>2022-03-26T14:23:56Z</time>
      </trkpt>
      <trkpt lat="43.01121" lon="1.34802">
        <ele>437.6</ele>
        <time>2022-03-26T14:23:58Z</time>
      </trkpt>
      <trkpt lat="43.01134" lon="1.34802">
        <ele>437.6</ele>
        <time>2022-03-26T14:24:03Z</time>
      </trkpt>
      <trkpt lat="43.01147" lon="1.34802">
        <ele>436.8</ele>
        <time>2022-03-26T14:24:08Z</time>
      </trkpt>
      <trkpt lat="43.01165" lon="1.34801">
        <ele>436.4</ele>
        <time>2022-03-26T14:24:16Z</time>
      </trkpt>
      <trkpt lat="43.0117" lon="1.34801">
        <ele>436.2</ele>
        <time>2022-03-26T14:24:18Z</time>
      </trkpt>
      <trkpt lat="43.01185" lon="1.34803">
        <ele>436.8</ele>
        <time>2022-03-26T14:24:23Z</time>
      </trkpt>
      <trkpt lat="43.0119" lon="1.3482">
        <ele>436.8</ele>
        <time>2022-03-26T14:24:28Z</time>
      </trkpt>
      <trkpt lat="43.01193" lon="1.34847">
        <ele>440.6</ele>
        <time>2022-03-26T14:24:35Z</time>
      </trkpt>
      <trkpt lat="43.01195" lon="1.34859">
        <ele>441.8</ele>
        <time>2022-03-26T14:24:38Z</time>
      </trkpt>
      <trkpt lat="43.01204" lon="1.34881">
        <ele>443.2</ele>
        <time>2022-03-26T14:24:45Z</time>
      </trkpt>
      <trkpt lat="43.01208" lon="1.3489">
        <ele>443.2</ele>
        <time>2022-03-26T14:24:48Z</time>
      </trkpt>
      <trkpt lat="43.01219" lon="1.34914">
        <ele>442.8</ele>
        <time>2022-03-26T14:24:56Z</time>
      </trkpt>
      <trkpt lat="43.01221" lon="1.34919">
        <ele>443.4</ele>
        <time>2022-03-26T14:24:58Z</time>
      </trkpt>
      <trkpt lat="43.01228" lon="1.34944">
        <ele>444.8</ele>
        <time>2022-03-26T14:25:06Z</time>
      </trkpt>
      <trkpt lat="43.01229" lon="1.34951">
        <ele>445.4</ele>
        <time>2022-03-26T14:25:08Z</time>
      </trkpt>
      <trkpt lat="43.01235" lon="1.34977">
        <ele>444.4</ele>
        <time>2022-03-26T14:25:17Z</time>
      </trkpt>
      <trkpt lat="43.01236" lon="1.3498">
        <ele>444</ele>
        <time>2022-03-26T14:25:18Z</time>
      </trkpt>
      <trkpt lat="43.01246" lon="1.35001">
        <ele>440.8</ele>
        <time>2022-03-26T14:25:25Z</time>
      </trkpt>
      <trkpt lat="43.0125" lon="1.3501">
        <ele>440.6</ele>
        <time>2022-03-26T14:25:28Z</time>
      </trkpt>
      <trkpt lat="43.01261" lon="1.35034">
        <ele>438.8</ele>
        <time>2022-03-26T14:25:36Z</time>
      </trkpt>
      <trkpt lat="43.01263" lon="1.3504">
        <ele>438.6</ele>
        <time>2022-03-26T14:25:38Z</time>
      </trkpt>
      <trkpt lat="43.01272" lon="1.35063">
        <ele>434.8</ele>
        <time>2022-03-26T14:25:46Z</time>
      </trkpt>
      <trkpt lat="43.01275" lon="1.35069">
        <ele>433.2</ele>
        <time>2022-03-26T14:25:48Z</time>
      </trkpt>
      <trkpt lat="43.01286" lon="1.35092">
        <ele>430.6</ele>
        <time>2022-03-26T14:25:55Z</time>
      </trkpt>
      <trkpt lat="43.0129" lon="1.35102">
        <ele>430.2</ele>
        <time>2022-03-26T14:25:58Z</time>
      </trkpt>
      <trkpt lat="43.013" lon="1.35126">
        <ele>430.4</ele>
        <time>2022-03-26T14:26:05Z</time>
      </trkpt>
      <trkpt lat="43.01302" lon="1.35137">
        <ele>431</ele>
        <time>2022-03-26T14:26:08Z</time>
      </trkpt>
      <trkpt lat="43.01313" lon="1.3516">
        <ele>430.2</ele>
        <time>2022-03-26T14:26:16Z</time>
      </trkpt>
      <trkpt lat="43.01316" lon="1.35165">
        <ele>430.2</ele>
        <time>2022-03-26T14:26:18Z</time>
      </trkpt>
      <trkpt lat="43.01332" lon="1.35176">
        <ele>429</ele>
        <time>2022-03-26T14:26:28Z</time>
      </trkpt>
      <trkpt lat="43.01348" lon="1.35168">
        <ele>430.4</ele>
        <time>2022-03-26T14:26:38Z</time>
      </trkpt>
      <trkpt lat="43.01364" lon="1.35156">
        <ele>431.2</ele>
        <time>2022-03-26T14:26:47Z</time>
      </trkpt>
      <trkpt lat="43.01366" lon="1.35155">
        <ele>431.2</ele>
        <time>2022-03-26T14:26:48Z</time>
      </trkpt>
      <trkpt lat="43.01382" lon="1.35144">
        <ele>431.2</ele>
        <time>2022-03-26T14:26:57Z</time>
      </trkpt>
      <trkpt lat="43.01384" lon="1.35142">
        <ele>431.2</ele>
        <time>2022-03-26T14:26:58Z</time>
      </trkpt>
      <trkpt lat="43.01402" lon="1.35129">
        <ele>430.2</ele>
        <time>2022-03-26T14:27:07Z</time>
      </trkpt>
      <trkpt lat="43.01404" lon="1.35128">
        <ele>430.6</ele>
        <time>2022-03-26T14:27:08Z</time>
      </trkpt>
      <trkpt lat="43.01423" lon="1.35133">
        <ele>432.2</ele>
        <time>2022-03-26T14:27:17Z</time>
      </trkpt>
      <trkpt lat="43.01425" lon="1.35135">
        <ele>432.4</ele>
        <time>2022-03-26T14:27:18Z</time>
      </trkpt>
      <trkpt lat="43.01441" lon="1.35146">
        <ele>431.4</ele>
        <time>2022-03-26T14:27:25Z</time>
      </trkpt>
      <trkpt lat="43.01448" lon="1.35151">
        <ele>430.2</ele>
        <time>2022-03-26T14:27:28Z</time>
      </trkpt>
      <trkpt lat="43.01467" lon="1.35162">
        <ele>429.4</ele>
        <time>2022-03-26T14:27:36Z</time>
      </trkpt>
      <trkpt lat="43.01471" lon="1.35164">
        <ele>429</ele>
        <time>2022-03-26T14:27:38Z</time>
      </trkpt>
      <trkpt lat="43.0149" lon="1.3516">
        <ele>427.6</ele>
        <time>2022-03-26T14:27:46Z</time>
      </trkpt>
      <trkpt lat="43.01495" lon="1.35157">
        <ele>426.6</ele>
        <time>2022-03-26T14:27:48Z</time>
      </trkpt>
      <trkpt lat="43.01511" lon="1.35143">
        <ele>428.2</ele>
        <time>2022-03-26T14:27:56Z</time>
      </trkpt>
      <trkpt lat="43.01514" lon="1.35138">
        <ele>428.6</ele>
        <time>2022-03-26T14:27:58Z</time>
      </trkpt>
      <trkpt lat="43.01526" lon="1.3512">
        <ele>429.8</ele>
        <time>2022-03-26T14:28:05Z</time>
      </trkpt>
      <trkpt lat="43.01532" lon="1.35113">
        <ele>429.2</ele>
        <time>2022-03-26T14:28:08Z</time>
      </trkpt>
      <trkpt lat="43.01546" lon="1.35096">
        <ele>424.2</ele>
        <time>2022-03-26T14:28:17Z</time>
      </trkpt>
      <trkpt lat="43.01548" lon="1.35094">
        <ele>423.8</ele>
        <time>2022-03-26T14:28:18Z</time>
      </trkpt>
      <trkpt lat="43.01566" lon="1.35082">
        <ele>419</ele>
        <time>2022-03-26T14:28:26Z</time>
      </trkpt>
      <trkpt lat="43.0157" lon="1.35077">
        <ele>417.4</ele>
        <time>2022-03-26T14:28:28Z</time>
      </trkpt>
      <trkpt lat="43.01587" lon="1.3506">
        <ele>411.4</ele>
        <time>2022-03-26T14:28:36Z</time>
      </trkpt>
      <trkpt lat="43.01591" lon="1.35054">
        <ele>410.4</ele>
        <time>2022-03-26T14:28:38Z</time>
      </trkpt>
      <trkpt lat="43.01604" lon="1.35034">
        <ele>403.8</ele>
        <time>2022-03-26T14:28:45Z</time>
      </trkpt>
      <trkpt lat="43.0161" lon="1.35025">
        <ele>401.6</ele>
        <time>2022-03-26T14:28:48Z</time>
      </trkpt>
      <trkpt lat="43.01626" lon="1.35007">
        <ele>400.8</ele>
        <time>2022-03-26T14:28:55Z</time>
      </trkpt>
      <trkpt lat="43.01632" lon="1.35">
        <ele>400.8</ele>
        <time>2022-03-26T14:28:58Z</time>
      </trkpt>
      <trkpt lat="43.01647" lon="1.34983">
        <ele>401</ele>
        <time>2022-03-26T14:29:06Z</time>
      </trkpt>
      <trkpt lat="43.01652" lon="1.34978">
        <ele>401.6</ele>
        <time>2022-03-26T14:29:08Z</time>
      </trkpt>
      <trkpt lat="43.01667" lon="1.3496">
        <ele>403.4</ele>
        <time>2022-03-26T14:29:15Z</time>
      </trkpt>
      <trkpt lat="43.01674" lon="1.34949">
        <ele>406.2</ele>
        <time>2022-03-26T14:29:18Z</time>
      </trkpt>
      <trkpt lat="43.0169" lon="1.3493">
        <ele>406</ele>
        <time>2022-03-26T14:29:26Z</time>
      </trkpt>
      <trkpt lat="43.01694" lon="1.34926">
        <ele>406.6</ele>
        <time>2022-03-26T14:29:28Z</time>
      </trkpt>
      <trkpt lat="43.01708" lon="1.34906">
        <ele>405.2</ele>
        <time>2022-03-26T14:29:36Z</time>
      </trkpt>
      <trkpt lat="43.01711" lon="1.34901">
        <ele>404.4</ele>
        <time>2022-03-26T14:29:38Z</time>
      </trkpt>
      <trkpt lat="43.01722" lon="1.34881">
        <ele>401</ele>
        <time>2022-03-26T14:29:46Z</time>
      </trkpt>
      <trkpt lat="43.01727" lon="1.34872">
        <ele>399.8</ele>
        <time>2022-03-26T14:29:48Z</time>
      </trkpt>
      <trkpt lat="43.01738" lon="1.34851">
        <ele>400.6</ele>
        <time>2022-03-26T14:29:55Z</time>
      </trkpt>
      <trkpt lat="43.01743" lon="1.34841">
        <ele>400.6</ele>
        <time>2022-03-26T14:29:58Z</time>
      </trkpt>
      <trkpt lat="43.01747" lon="1.34829">
        <ele>399.8</ele>
        <time>2022-03-26T14:30:02Z</time>
      </trkpt>
      <trkpt lat="43.01755" lon="1.34811">
        <ele>396.6</ele>
        <time>2022-03-26T14:30:08Z</time>
      </trkpt>
      <trkpt lat="43.01764" lon="1.34788">
        <ele>390</ele>
        <time>2022-03-26T14:30:16Z</time>
      </trkpt>
      <trkpt lat="43.01765" lon="1.34785">
        <ele>388.8</ele>
        <time>2022-03-26T14:30:18Z</time>
      </trkpt>
      <trkpt lat="43.01777" lon="1.34758">
        <ele>384</ele>
        <time>2022-03-26T14:30:26Z</time>
      </trkpt>
      <trkpt lat="43.01779" lon="1.34755">
        <ele>383.4</ele>
        <time>2022-03-26T14:30:28Z</time>
      </trkpt>
      <trkpt lat="43.01789" lon="1.34734">
        <ele>381.4</ele>
        <time>2022-03-26T14:30:33Z</time>
      </trkpt>
      <trkpt lat="43.01795" lon="1.34722">
        <ele>381.6</ele>
        <time>2022-03-26T14:30:38Z</time>
      </trkpt>
      <trkpt lat="43.0181" lon="1.34701">
        <ele>380.8</ele>
        <time>2022-03-26T14:30:45Z</time>
      </trkpt>
      <trkpt lat="43.01817" lon="1.34693">
        <ele>380.2</ele>
        <time>2022-03-26T14:30:48Z</time>
      </trkpt>
      <trkpt lat="43.01831" lon="1.34678">
        <ele>379.6</ele>
        <time>2022-03-26T14:30:55Z</time>
      </trkpt>
      <trkpt lat="43.01838" lon="1.3467">
        <ele>379.6</ele>
        <time>2022-03-26T14:30:58Z</time>
      </trkpt>
      <trkpt lat="43.01852" lon="1.34654">
        <ele>378</ele>
        <time>2022-03-26T14:31:04Z</time>
      </trkpt>
      <trkpt lat="43.01861" lon="1.34644">
        <ele>376.6</ele>
        <time>2022-03-26T14:31:08Z</time>
      </trkpt>
      <trkpt lat="43.01876" lon="1.34627">
        <ele>376.6</ele>
        <time>2022-03-26T14:31:15Z</time>
      </trkpt>
      <trkpt lat="43.01882" lon="1.34621">
        <ele>375.8</ele>
        <time>2022-03-26T14:31:18Z</time>
      </trkpt>
      <trkpt lat="43.01898" lon="1.34606">
        <ele>372.6</ele>
        <time>2022-03-26T14:31:26Z</time>
      </trkpt>
      <trkpt lat="43.01902" lon="1.34601">
        <ele>371.4</ele>
        <time>2022-03-26T14:31:28Z</time>
      </trkpt>
      <trkpt lat="43.01916" lon="1.34582">
        <ele>369.4</ele>
        <time>2022-03-26T14:31:35Z</time>
      </trkpt>
      <trkpt lat="43.01922" lon="1.34574">
        <ele>369.8</ele>
        <time>2022-03-26T14:31:38Z</time>
      </trkpt>
      <trkpt lat="43.01935" lon="1.34554">
        <ele>365.2</ele>
        <time>2022-03-26T14:31:46Z</time>
      </trkpt>
      <trkpt lat="43.01938" lon="1.34549">
        <ele>363.4</ele>
        <time>2022-03-26T14:31:48Z</time>
      </trkpt>
      <trkpt lat="43.01952" lon="1.34533">
        <ele>360.4</ele>
        <time>2022-03-26T14:31:55Z</time>
      </trkpt>
      <trkpt lat="43.01957" lon="1.34525">
        <ele>358.8</ele>
        <time>2022-03-26T14:31:58Z</time>
      </trkpt>
      <trkpt lat="43.01971" lon="1.34506">
        <ele>355</ele>
        <time>2022-03-26T14:32:06Z</time>
      </trkpt>
      <trkpt lat="43.01975" lon="1.34501">
        <ele>354.4</ele>
        <time>2022-03-26T14:32:08Z</time>
      </trkpt>
      <trkpt lat="43.01994" lon="1.34498">
        <ele>352.6</ele>
        <time>2022-03-26T14:32:16Z</time>
      </trkpt>
      <trkpt lat="43.01999" lon="1.34502">
        <ele>352.8</ele>
        <time>2022-03-26T14:32:18Z</time>
      </trkpt>
      <trkpt lat="43.02012" lon="1.34522">
        <ele>352.4</ele>
        <time>2022-03-26T14:32:25Z</time>
      </trkpt>
      <trkpt lat="43.02018" lon="1.3453">
        <ele>353.2</ele>
        <time>2022-03-26T14:32:28Z</time>
      </trkpt>
      <trkpt lat="43.02031" lon="1.34549">
        <ele>354.6</ele>
        <time>2022-03-26T14:32:34Z</time>
      </trkpt>
      <trkpt lat="43.02039" lon="1.34559">
        <ele>354.6</ele>
        <time>2022-03-26T14:32:38Z</time>
      </trkpt>
      <trkpt lat="43.02052" lon="1.34579">
        <ele>355.6</ele>
        <time>2022-03-26T14:32:46Z</time>
      </trkpt>
      <trkpt lat="43.02056" lon="1.34584">
        <ele>355.2</ele>
        <time>2022-03-26T14:32:48Z</time>
      </trkpt>
      <trkpt lat="43.02067" lon="1.34604">
        <ele>353</ele>
        <time>2022-03-26T14:32:55Z</time>
      </trkpt>
      <trkpt lat="43.02071" lon="1.34612">
        <ele>351.2</ele>
        <time>2022-03-26T14:32:58Z</time>
      </trkpt>
      <trkpt lat="43.02084" lon="1.34631">
        <ele>348</ele>
        <time>2022-03-26T14:33:05Z</time>
      </trkpt>
      <trkpt lat="43.0209" lon="1.34639">
        <ele>346.6</ele>
        <time>2022-03-26T14:33:08Z</time>
      </trkpt>
      <trkpt lat="43.02101" lon="1.34658">
        <ele>343</ele>
        <time>2022-03-26T14:33:15Z</time>
      </trkpt>
      <trkpt lat="43.02107" lon="1.34666">
        <ele>342.2</ele>
        <time>2022-03-26T14:33:18Z</time>
      </trkpt>
      <trkpt lat="43.02121" lon="1.34684">
        <ele>338.8</ele>
        <time>2022-03-26T14:33:26Z</time>
      </trkpt>
      <trkpt lat="43.02125" lon="1.34685">
        <ele>337.2</ele>
        <time>2022-03-26T14:33:28Z</time>
      </trkpt>
      <trkpt lat="43.02131" lon="1.34686">
        <ele>336.4</ele>
        <time>2022-03-26T14:33:33Z</time>
      </trkpt>
      <trkpt lat="43.02126" lon="1.3468">
        <ele>338.6</ele>
        <time>2022-03-26T14:33:38Z</time>
      </trkpt>
      <trkpt lat="43.02123" lon="1.34678">
        <ele>339</ele>
        <time>2022-03-26T14:33:41Z</time>
      </trkpt>
      <trkpt lat="43.02114" lon="1.34665">
        <ele>337.6</ele>
        <time>2022-03-26T14:33:48Z</time>
      </trkpt>
      <trkpt lat="43.02102" lon="1.34642">
        <ele>335.8</ele>
        <time>2022-03-26T14:33:58Z</time>
      </trkpt>
      <trkpt lat="43.02092" lon="1.34618">
        <ele>334.8</ele>
        <time>2022-03-26T14:34:07Z</time>
      </trkpt>
      <trkpt lat="43.02091" lon="1.34615">
        <ele>334.8</ele>
        <time>2022-03-26T14:34:08Z</time>
      </trkpt>
      <trkpt lat="43.02081" lon="1.34595">
        <ele>334.2</ele>
        <time>2022-03-26T14:34:15Z</time>
      </trkpt>
      <trkpt lat="43.02076" lon="1.34585">
        <ele>333.8</ele>
        <time>2022-03-26T14:34:18Z</time>
      </trkpt>
      <trkpt lat="43.02068" lon="1.3456">
        <ele>332.2</ele>
        <time>2022-03-26T14:34:26Z</time>
      </trkpt>
      <trkpt lat="43.02066" lon="1.34553">
        <ele>331.4</ele>
        <time>2022-03-26T14:34:28Z</time>
      </trkpt>
      <trkpt lat="43.0206" lon="1.3454">
        <ele>330.2</ele>
        <time>2022-03-26T14:34:33Z</time>
      </trkpt>
      <trkpt lat="43.02054" lon="1.34527">
        <ele>328.6</ele>
        <time>2022-03-26T14:34:38Z</time>
      </trkpt>
      <trkpt lat="43.02046" lon="1.34503">
        <ele>327.4</ele>
        <time>2022-03-26T14:34:47Z</time>
      </trkpt>
      <trkpt lat="43.02046" lon="1.34499">
        <ele>327</ele>
        <time>2022-03-26T14:34:48Z</time>
      </trkpt>
      <trkpt lat="43.02043" lon="1.34485">
        <ele>328</ele>
        <time>2022-03-26T14:34:52Z</time>
      </trkpt>
      <trkpt lat="43.02041" lon="1.34464">
        <ele>327.6</ele>
        <time>2022-03-26T14:34:58Z</time>
      </trkpt>
      <trkpt lat="43.02036" lon="1.34438">
        <ele>329.2</ele>
        <time>2022-03-26T14:35:05Z</time>
      </trkpt>
      <trkpt lat="43.02034" lon="1.34428">
        <ele>329.4</ele>
        <time>2022-03-26T14:35:08Z</time>
      </trkpt>
      <trkpt lat="43.02029" lon="1.34404">
        <ele>329.6</ele>
        <time>2022-03-26T14:35:15Z</time>
      </trkpt>
      <trkpt lat="43.02027" lon="1.34394">
        <ele>329.4</ele>
        <time>2022-03-26T14:35:18Z</time>
      </trkpt>
      <trkpt lat="43.02017" lon="1.34371">
        <ele>338.6</ele>
        <time>2022-03-26T14:35:26Z</time>
      </trkpt>
      <trkpt lat="43.02014" lon="1.34369">
        <ele>340.8</ele>
        <time>2022-03-26T14:35:28Z</time>
      </trkpt>
      <trkpt lat="43.02001" lon="1.3437">
        <ele>349.2</ele>
        <time>2022-03-26T14:35:38Z</time>
      </trkpt>
      <trkpt lat="43.02016" lon="1.34357">
        <ele>346.4</ele>
        <time>2022-03-26T14:35:47Z</time>
      </trkpt>
      <trkpt lat="43.02018" lon="1.34356">
        <ele>346</ele>
        <time>2022-03-26T14:35:48Z</time>
      </trkpt>
      <trkpt lat="43.02036" lon="1.3435">
        <ele>345.8</ele>
        <time>2022-03-26T14:35:55Z</time>
      </trkpt>
      <trkpt lat="43.02043" lon="1.34348">
        <ele>346</ele>
        <time>2022-03-26T14:35:58Z</time>
      </trkpt>
      <trkpt lat="43.0206" lon="1.34343">
        <ele>346.2</ele>
        <time>2022-03-26T14:36:05Z</time>
      </trkpt>
      <trkpt lat="43.02068" lon="1.3434">
        <ele>345.2</ele>
        <time>2022-03-26T14:36:08Z</time>
      </trkpt>
      <trkpt lat="43.02086" lon="1.34331">
        <ele>342.6</ele>
        <time>2022-03-26T14:36:16Z</time>
      </trkpt>
      <trkpt lat="43.02089" lon="1.34326">
        <ele>341.6</ele>
        <time>2022-03-26T14:36:18Z</time>
      </trkpt>
      <trkpt lat="43.02095" lon="1.34305">
        <ele>340</ele>
        <time>2022-03-26T14:36:26Z</time>
      </trkpt>
      <trkpt lat="43.02099" lon="1.34302">
        <ele>339.6</ele>
        <time>2022-03-26T14:36:28Z</time>
      </trkpt>
      <trkpt lat="43.02112" lon="1.34296">
        <ele>338.8</ele>
        <time>2022-03-26T14:36:38Z</time>
      </trkpt>
      <trkpt lat="43.02115" lon="1.34289">
        <ele>339.6</ele>
        <time>2022-03-26T14:36:42Z</time>
      </trkpt>
      <trkpt lat="43.02117" lon="1.34276">
        <ele>338.2</ele>
        <time>2022-03-26T14:36:48Z</time>
      </trkpt>
      <trkpt lat="43.02125" lon="1.34259">
        <ele>339</ele>
        <time>2022-03-26T14:36:58Z</time>
      </trkpt>
      <trkpt lat="43.02132" lon="1.3424">
        <ele>350</ele>
        <time>2022-03-26T14:37:08Z</time>
      </trkpt>
      <trkpt lat="43.02132" lon="1.3423">
        <ele>355.2</ele>
        <time>2022-03-26T14:37:15Z</time>
      </trkpt>
      <trkpt lat="43.02133" lon="1.34226">
        <ele>357.2</ele>
        <time>2022-03-26T14:37:18Z</time>
      </trkpt>
      <trkpt lat="43.02132" lon="1.34214">
        <ele>362.2</ele>
        <time>2022-03-26T14:37:28Z</time>
      </trkpt>
      <trkpt lat="43.02135" lon="1.34199">
        <ele>366.4</ele>
        <time>2022-03-26T14:37:38Z</time>
      </trkpt>
      <trkpt lat="43.02139" lon="1.34195">
        <ele>365.8</ele>
        <time>2022-03-26T14:37:43Z</time>
      </trkpt>
      <trkpt lat="43.02142" lon="1.34193">
        <ele>365.2</ele>
        <time>2022-03-26T14:37:46Z</time>
      </trkpt>
      <trkpt lat="43.02143" lon="1.34191">
        <ele>364.4</ele>
        <time>2022-03-26T14:37:48Z</time>
      </trkpt>
      <trkpt lat="43.02151" lon="1.34181">
        <ele>362.2</ele>
        <time>2022-03-26T14:37:58Z</time>
      </trkpt>
      <trkpt lat="43.02157" lon="1.3417">
        <ele>363.2</ele>
        <time>2022-03-26T14:38:08Z</time>
      </trkpt>
      <trkpt lat="43.02164" lon="1.34155">
        <ele>365.4</ele>
        <time>2022-03-26T14:38:18Z</time>
      </trkpt>
      <trkpt lat="43.0217" lon="1.34143">
        <ele>370.2</ele>
        <time>2022-03-26T14:38:28Z</time>
      </trkpt>
      <trkpt lat="43.02171" lon="1.34141">
        <ele>371.2</ele>
        <time>2022-03-26T14:38:31Z</time>
      </trkpt>
      <trkpt lat="43.02172" lon="1.34141">
        <ele>372.2</ele>
        <time>2022-03-26T14:38:33Z</time>
      </trkpt>
      <trkpt lat="43.02175" lon="1.34142">
        <ele>372.4</ele>
        <time>2022-03-26T14:38:38Z</time>
      </trkpt>
      <trkpt lat="43.02177" lon="1.34144">
        <ele>372.4</ele>
        <time>2022-03-26T14:38:41Z</time>
      </trkpt>
      <trkpt lat="43.02182" lon="1.34145">
        <ele>373.4</ele>
        <time>2022-03-26T14:38:48Z</time>
      </trkpt>
      <trkpt lat="43.02189" lon="1.34143">
        <ele>375.6</ele>
        <time>2022-03-26T14:38:55Z</time>
      </trkpt>
      <trkpt lat="43.0219" lon="1.34142">
        <ele>376</ele>
        <time>2022-03-26T14:38:57Z</time>
      </trkpt>
      <trkpt lat="43.02191" lon="1.34142">
        <ele>376.2</ele>
        <time>2022-03-26T14:38:58Z</time>
      </trkpt>
      <trkpt lat="43.02192" lon="1.34142">
        <ele>376.4</ele>
        <time>2022-03-26T14:38:59Z</time>
      </trkpt>
      <trkpt lat="43.02194" lon="1.34142">
        <ele>376.6</ele>
        <time>2022-03-26T14:39:03Z</time>
      </trkpt>
      <trkpt lat="43.02198" lon="1.34143">
        <ele>377.2</ele>
        <time>2022-03-26T14:39:08Z</time>
      </trkpt>
      <trkpt lat="43.02201" lon="1.34143">
        <ele>376.8</ele>
        <time>2022-03-26T14:39:11Z</time>
      </trkpt>
      <trkpt lat="43.02204" lon="1.34145">
        <ele>380.2</ele>
        <time>2022-03-26T14:39:13Z</time>
      </trkpt>
      <trkpt lat="43.0221" lon="1.34144">
        <ele>381.4</ele>
        <time>2022-03-26T14:39:18Z</time>
      </trkpt>
      <trkpt lat="43.0222" lon="1.34143">
        <ele>385.2</ele>
        <time>2022-03-26T14:39:28Z</time>
      </trkpt>
      <trkpt lat="43.02231" lon="1.34145">
        <ele>384.6</ele>
        <time>2022-03-26T14:39:38Z</time>
      </trkpt>
      <trkpt lat="43.02242" lon="1.34146">
        <ele>384.6</ele>
        <time>2022-03-26T14:39:48Z</time>
      </trkpt>
      <trkpt lat="43.02252" lon="1.34143">
        <ele>386</ele>
        <time>2022-03-26T14:39:58Z</time>
      </trkpt>
      <trkpt lat="43.0226" lon="1.34137">
        <ele>388</ele>
        <time>2022-03-26T14:40:08Z</time>
      </trkpt>
      <trkpt lat="43.02267" lon="1.3413">
        <ele>390.4</ele>
        <time>2022-03-26T14:40:18Z</time>
      </trkpt>
      <trkpt lat="43.02274" lon="1.34121">
        <ele>391.4</ele>
        <time>2022-03-26T14:40:28Z</time>
      </trkpt>
      <trkpt lat="43.02278" lon="1.34117">
        <ele>391.8</ele>
        <time>2022-03-26T14:40:35Z</time>
      </trkpt>
      <trkpt lat="43.0228" lon="1.34119">
        <ele>390.4</ele>
        <time>2022-03-26T14:40:38Z</time>
      </trkpt>
      <trkpt lat="43.02294" lon="1.34118">
        <ele>390</ele>
        <time>2022-03-26T14:40:48Z</time>
      </trkpt>
      <trkpt lat="43.02295" lon="1.34115">
        <ele>391.4</ele>
        <time>2022-03-26T14:40:50Z</time>
      </trkpt>
      <trkpt lat="43.02304" lon="1.34106">
        <ele>397.2</ele>
        <time>2022-03-26T14:40:58Z</time>
      </trkpt>
      <trkpt lat="43.02315" lon="1.34095">
        <ele>404.6</ele>
        <time>2022-03-26T14:41:08Z</time>
      </trkpt>
      <trkpt lat="43.02321" lon="1.34082">
        <ele>408.8</ele>
        <time>2022-03-26T14:41:18Z</time>
      </trkpt>
      <trkpt lat="43.02328" lon="1.34068">
        <ele>411.2</ele>
        <time>2022-03-26T14:41:28Z</time>
      </trkpt>
      <trkpt lat="43.02335" lon="1.34053">
        <ele>414.4</ele>
        <time>2022-03-26T14:41:38Z</time>
      </trkpt>
      <trkpt lat="43.02345" lon="1.34042">
        <ele>417</ele>
        <time>2022-03-26T14:41:48Z</time>
      </trkpt>
      <trkpt lat="43.02356" lon="1.34032">
        <ele>413.6</ele>
        <time>2022-03-26T14:41:58Z</time>
      </trkpt>
      <trkpt lat="43.02366" lon="1.34019">
        <ele>415</ele>
        <time>2022-03-26T14:42:08Z</time>
      </trkpt>
      <trkpt lat="43.02374" lon="1.34005">
        <ele>414.8</ele>
        <time>2022-03-26T14:42:18Z</time>
      </trkpt>
      <trkpt lat="43.02375" lon="1.34001">
        <ele>413.8</ele>
        <time>2022-03-26T14:42:21Z</time>
      </trkpt>
      <trkpt lat="43.02378" lon="1.33988">
        <ele>414.6</ele>
        <time>2022-03-26T14:42:28Z</time>
      </trkpt>
      <trkpt lat="43.0239" lon="1.33982">
        <ele>416.2</ele>
        <time>2022-03-26T14:42:38Z</time>
      </trkpt>
      <trkpt lat="43.02399" lon="1.33976">
        <ele>420.8</ele>
        <time>2022-03-26T14:42:48Z</time>
      </trkpt>
      <trkpt lat="43.02402" lon="1.33976">
        <ele>422</ele>
        <time>2022-03-26T14:42:49Z</time>
      </trkpt>
      <trkpt lat="43.02414" lon="1.33981">
        <ele>424.2</ele>
        <time>2022-03-26T14:42:58Z</time>
      </trkpt>
      <trkpt lat="43.0243" lon="1.33991">
        <ele>427.6</ele>
        <time>2022-03-26T14:43:08Z</time>
      </trkpt>
      <trkpt lat="43.02447" lon="1.33989">
        <ele>426.4</ele>
        <time>2022-03-26T14:43:18Z</time>
      </trkpt>
      <trkpt lat="43.02465" lon="1.33983">
        <ele>426.8</ele>
        <time>2022-03-26T14:43:28Z</time>
      </trkpt>
      <trkpt lat="43.0248" lon="1.33978">
        <ele>426.4</ele>
        <time>2022-03-26T14:43:38Z</time>
      </trkpt>
      <trkpt lat="43.02493" lon="1.33974">
        <ele>428.8</ele>
        <time>2022-03-26T14:43:48Z</time>
      </trkpt>
      <trkpt lat="43.02504" lon="1.33972">
        <ele>429.2</ele>
        <time>2022-03-26T14:43:58Z</time>
      </trkpt>
      <trkpt lat="43.02514" lon="1.33967">
        <ele>430.8</ele>
        <time>2022-03-26T14:44:08Z</time>
      </trkpt>
      <trkpt lat="43.02523" lon="1.33963">
        <ele>430.6</ele>
        <time>2022-03-26T14:44:18Z</time>
      </trkpt>
      <trkpt lat="43.02531" lon="1.33955">
        <ele>430.4</ele>
        <time>2022-03-26T14:44:28Z</time>
      </trkpt>
      <trkpt lat="43.02538" lon="1.33947">
        <ele>429.6</ele>
        <time>2022-03-26T14:44:38Z</time>
      </trkpt>
      <trkpt lat="43.02545" lon="1.33939">
        <ele>429.2</ele>
        <time>2022-03-26T14:44:48Z</time>
      </trkpt>
      <trkpt lat="43.02549" lon="1.3393">
        <ele>430.6</ele>
        <time>2022-03-26T14:44:58Z</time>
      </trkpt>
      <trkpt lat="43.02555" lon="1.33925">
        <ele>432.8</ele>
        <time>2022-03-26T14:45:06Z</time>
      </trkpt>
      <trkpt lat="43.02557" lon="1.33923">
        <ele>432.8</ele>
        <time>2022-03-26T14:45:08Z</time>
      </trkpt>
      <trkpt lat="43.02559" lon="1.33921">
        <ele>433.4</ele>
        <time>2022-03-26T14:45:11Z</time>
      </trkpt>
      <trkpt lat="43.0256" lon="1.33918">
        <ele>434.4</ele>
        <time>2022-03-26T14:45:14Z</time>
      </trkpt>
      <trkpt lat="43.0256" lon="1.3391">
        <ele>440.8</ele>
        <time>2022-03-26T14:45:16Z</time>
      </trkpt>
      <trkpt lat="43.02562" lon="1.33908">
        <ele>441.2</ele>
        <time>2022-03-26T14:45:18Z</time>
      </trkpt>
      <trkpt lat="43.02566" lon="1.33895">
        <ele>450.2</ele>
        <time>2022-03-26T14:45:28Z</time>
      </trkpt>
      <trkpt lat="43.02566" lon="1.33882">
        <ele>459</ele>
        <time>2022-03-26T14:45:38Z</time>
      </trkpt>
      <trkpt lat="43.02567" lon="1.33872">
        <ele>465.4</ele>
        <time>2022-03-26T14:45:48Z</time>
      </trkpt>
      <trkpt lat="43.0257" lon="1.33864">
        <ele>469.4</ele>
        <time>2022-03-26T14:45:54Z</time>
      </trkpt>
      <trkpt lat="43.02572" lon="1.33859">
        <ele>471</ele>
        <time>2022-03-26T14:45:58Z</time>
      </trkpt>
      <trkpt lat="43.02574" lon="1.33844">
        <ele>474.4</ele>
        <time>2022-03-26T14:46:08Z</time>
      </trkpt>
      <trkpt lat="43.02581" lon="1.3383">
        <ele>474.2</ele>
        <time>2022-03-26T14:46:18Z</time>
      </trkpt>
      <trkpt lat="43.02588" lon="1.33815">
        <ele>475.6</ele>
        <time>2022-03-26T14:46:28Z</time>
      </trkpt>
      <trkpt lat="43.02595" lon="1.33801">
        <ele>475.8</ele>
        <time>2022-03-26T14:46:38Z</time>
      </trkpt>
      <trkpt lat="43.02603" lon="1.33789">
        <ele>477</ele>
        <time>2022-03-26T14:46:48Z</time>
      </trkpt>
      <trkpt lat="43.0261" lon="1.3378">
        <ele>479.4</ele>
        <time>2022-03-26T14:46:58Z</time>
      </trkpt>
      <trkpt lat="43.02619" lon="1.33765">
        <ele>478.2</ele>
        <time>2022-03-26T14:47:08Z</time>
      </trkpt>
      <trkpt lat="43.02631" lon="1.33747">
        <ele>474</ele>
        <time>2022-03-26T14:47:18Z</time>
      </trkpt>
      <trkpt lat="43.0264" lon="1.33731">
        <ele>471.8</ele>
        <time>2022-03-26T14:47:28Z</time>
      </trkpt>
      <trkpt lat="43.02647" lon="1.33712">
        <ele>472.6</ele>
        <time>2022-03-26T14:47:38Z</time>
      </trkpt>
      <trkpt lat="43.02656" lon="1.33694">
        <ele>476.2</ele>
        <time>2022-03-26T14:47:48Z</time>
      </trkpt>
      <trkpt lat="43.02664" lon="1.33679">
        <ele>477.8</ele>
        <time>2022-03-26T14:47:58Z</time>
      </trkpt>
      <trkpt lat="43.02675" lon="1.33664">
        <ele>475.2</ele>
        <time>2022-03-26T14:48:08Z</time>
      </trkpt>
      <trkpt lat="43.02682" lon="1.33651">
        <ele>474.8</ele>
        <time>2022-03-26T14:48:15Z</time>
      </trkpt>
      <trkpt lat="43.02685" lon="1.33645">
        <ele>476.6</ele>
        <time>2022-03-26T14:48:18Z</time>
      </trkpt>
      <trkpt lat="43.02696" lon="1.33631">
        <ele>480</ele>
        <time>2022-03-26T14:48:28Z</time>
      </trkpt>
      <trkpt lat="43.02708" lon="1.33619">
        <ele>481.4</ele>
        <time>2022-03-26T14:48:38Z</time>
      </trkpt>
      <trkpt lat="43.02717" lon="1.33605">
        <ele>479.4</ele>
        <time>2022-03-26T14:48:48Z</time>
      </trkpt>
      <trkpt lat="43.02723" lon="1.33589">
        <ele>478</ele>
        <time>2022-03-26T14:48:58Z</time>
      </trkpt>
      <trkpt lat="43.02728" lon="1.33571">
        <ele>479</ele>
        <time>2022-03-26T14:49:08Z</time>
      </trkpt>
      <trkpt lat="43.02729" lon="1.3356">
        <ele>479.6</ele>
        <time>2022-03-26T14:49:14Z</time>
      </trkpt>
      <trkpt lat="43.02732" lon="1.33551">
        <ele>479.2</ele>
        <time>2022-03-26T14:49:18Z</time>
      </trkpt>
      <trkpt lat="43.02743" lon="1.33533">
        <ele>476.8</ele>
        <time>2022-03-26T14:49:28Z</time>
      </trkpt>
      <trkpt lat="43.02757" lon="1.33517">
        <ele>476.6</ele>
        <time>2022-03-26T14:49:38Z</time>
      </trkpt>
      <trkpt lat="43.02774" lon="1.33512">
        <ele>477.8</ele>
        <time>2022-03-26T14:49:48Z</time>
      </trkpt>
      <trkpt lat="43.02793" lon="1.33502">
        <ele>477.8</ele>
        <time>2022-03-26T14:49:57Z</time>
      </trkpt>
      <trkpt lat="43.02795" lon="1.33501">
        <ele>477.8</ele>
        <time>2022-03-26T14:49:58Z</time>
      </trkpt>
      <trkpt lat="43.02811" lon="1.33487">
        <ele>478.2</ele>
        <time>2022-03-26T14:50:06Z</time>
      </trkpt>
      <trkpt lat="43.02814" lon="1.33482">
        <ele>478.4</ele>
        <time>2022-03-26T14:50:08Z</time>
      </trkpt>
      <trkpt lat="43.02826" lon="1.33463">
        <ele>476.8</ele>
        <time>2022-03-26T14:50:15Z</time>
      </trkpt>
      <trkpt lat="43.0283" lon="1.33455">
        <ele>476.2</ele>
        <time>2022-03-26T14:50:18Z</time>
      </trkpt>
      <trkpt lat="43.02847" lon="1.33441">
        <ele>475</ele>
        <time>2022-03-26T14:50:27Z</time>
      </trkpt>
      <trkpt lat="43.02848" lon="1.3344">
        <ele>475</ele>
        <time>2022-03-26T14:50:28Z</time>
      </trkpt>
      <trkpt lat="43.02859" lon="1.33421">
        <ele>477.6</ele>
        <time>2022-03-26T14:50:38Z</time>
      </trkpt>
      <trkpt lat="43.02864" lon="1.33396">
        <ele>478</ele>
        <time>2022-03-26T14:50:48Z</time>
      </trkpt>
      <trkpt lat="43.02872" lon="1.33381">
        <ele>479.4</ele>
        <time>2022-03-26T14:50:58Z</time>
      </trkpt>
      <trkpt lat="43.02874" lon="1.33374">
        <ele>483.2</ele>
        <time>2022-03-26T14:51:04Z</time>
      </trkpt>
      <trkpt lat="43.02879" lon="1.33366">
        <ele>484.6</ele>
        <time>2022-03-26T14:51:08Z</time>
      </trkpt>
      <trkpt lat="43.02893" lon="1.33353">
        <ele>489</ele>
        <time>2022-03-26T14:51:18Z</time>
      </trkpt>
      <trkpt lat="43.02906" lon="1.33348">
        <ele>491.4</ele>
        <time>2022-03-26T14:51:28Z</time>
      </trkpt>
      <trkpt lat="43.02909" lon="1.33349">
        <ele>492.2</ele>
        <time>2022-03-26T14:51:31Z</time>
      </trkpt>
      <trkpt lat="43.02917" lon="1.33351">
        <ele>493.4</ele>
        <time>2022-03-26T14:51:38Z</time>
      </trkpt>
      <trkpt lat="43.02922" lon="1.33348">
        <ele>492.4</ele>
        <time>2022-03-26T14:51:45Z</time>
      </trkpt>
      <trkpt lat="43.02924" lon="1.33347">
        <ele>492</ele>
        <time>2022-03-26T14:51:47Z</time>
      </trkpt>
      <trkpt lat="43.02926" lon="1.33347">
        <ele>492.4</ele>
        <time>2022-03-26T14:51:48Z</time>
      </trkpt>
      <trkpt lat="43.02932" lon="1.33344">
        <ele>494.6</ele>
        <time>2022-03-26T14:51:52Z</time>
      </trkpt>
      <trkpt lat="43.02943" lon="1.33346">
        <ele>495.4</ele>
        <time>2022-03-26T14:51:58Z</time>
      </trkpt>
      <trkpt lat="43.02961" lon="1.33352">
        <ele>495</ele>
        <time>2022-03-26T14:52:06Z</time>
      </trkpt>
      <trkpt lat="43.02963" lon="1.33357">
        <ele>495.4</ele>
        <time>2022-03-26T14:52:08Z</time>
      </trkpt>
      <trkpt lat="43.02969" lon="1.33366">
        <ele>495.6</ele>
        <time>2022-03-26T14:52:13Z</time>
      </trkpt>
      <trkpt lat="43.02978" lon="1.33367">
        <ele>493.6</ele>
        <time>2022-03-26T14:52:18Z</time>
      </trkpt>
      <trkpt lat="43.02995" lon="1.33374">
        <ele>488.8</ele>
        <time>2022-03-26T14:52:27Z</time>
      </trkpt>
      <trkpt lat="43.02997" lon="1.33375">
        <ele>488.6</ele>
        <time>2022-03-26T14:52:28Z</time>
      </trkpt>
      <trkpt lat="43.03006" lon="1.33388">
        <ele>485.8</ele>
        <time>2022-03-26T14:52:38Z</time>
      </trkpt>
      <trkpt lat="43.03008" lon="1.33391">
        <ele>485.4</ele>
        <time>2022-03-26T14:52:40Z</time>
      </trkpt>
      <trkpt lat="43.03011" lon="1.33397">
        <ele>485.6</ele>
        <time>2022-03-26T14:52:43Z</time>
      </trkpt>
      <trkpt lat="43.03016" lon="1.33407">
        <ele>483.4</ele>
        <time>2022-03-26T14:52:48Z</time>
      </trkpt>
      <trkpt lat="43.03018" lon="1.33413">
        <ele>482.8</ele>
        <time>2022-03-26T14:52:52Z</time>
      </trkpt>
      <trkpt lat="43.03026" lon="1.33421">
        <ele>485.6</ele>
        <time>2022-03-26T14:52:58Z</time>
      </trkpt>
      <trkpt lat="43.03031" lon="1.33422">
        <ele>486.8</ele>
        <time>2022-03-26T14:53:02Z</time>
      </trkpt>
      <trkpt lat="43.03044" lon="1.33424">
        <ele>489.2</ele>
        <time>2022-03-26T14:53:08Z</time>
      </trkpt>
      <trkpt lat="43.03062" lon="1.3342">
        <ele>487.6</ele>
        <time>2022-03-26T14:53:16Z</time>
      </trkpt>
      <trkpt lat="43.03068" lon="1.33418">
        <ele>487.6</ele>
        <time>2022-03-26T14:53:18Z</time>
      </trkpt>
      <trkpt lat="43.03087" lon="1.33413">
        <ele>484.8</ele>
        <time>2022-03-26T14:53:27Z</time>
      </trkpt>
      <trkpt lat="43.03089" lon="1.33412">
        <ele>484.2</ele>
        <time>2022-03-26T14:53:28Z</time>
      </trkpt>
      <trkpt lat="43.03105" lon="1.33399">
        <ele>480</ele>
        <time>2022-03-26T14:53:38Z</time>
      </trkpt>
      <trkpt lat="43.03118" lon="1.33387">
        <ele>481.6</ele>
        <time>2022-03-26T14:53:48Z</time>
      </trkpt>
      <trkpt lat="43.03132" lon="1.3337">
        <ele>485</ele>
        <time>2022-03-26T14:53:58Z</time>
      </trkpt>
      <trkpt lat="43.03147" lon="1.33363">
        <ele>487.4</ele>
        <time>2022-03-26T14:54:08Z</time>
      </trkpt>
      <trkpt lat="43.03153" lon="1.33364">
        <ele>486.2</ele>
        <time>2022-03-26T14:54:13Z</time>
      </trkpt>
      <trkpt lat="43.03158" lon="1.33362">
        <ele>483.6</ele>
        <time>2022-03-26T14:54:18Z</time>
      </trkpt>
      <trkpt lat="43.03172" lon="1.33349">
        <ele>480.8</ele>
        <time>2022-03-26T14:54:28Z</time>
      </trkpt>
      <trkpt lat="43.03177" lon="1.33341">
        <ele>477.2</ele>
        <time>2022-03-26T14:54:35Z</time>
      </trkpt>
      <trkpt lat="43.0318" lon="1.33336">
        <ele>475.4</ele>
        <time>2022-03-26T14:54:38Z</time>
      </trkpt>
      <trkpt lat="43.03192" lon="1.33322">
        <ele>472.2</ele>
        <time>2022-03-26T14:54:48Z</time>
      </trkpt>
      <trkpt lat="43.03203" lon="1.33302">
        <ele>467.4</ele>
        <time>2022-03-26T14:54:58Z</time>
      </trkpt>
      <trkpt lat="43.03215" lon="1.33281">
        <ele>464.4</ele>
        <time>2022-03-26T14:55:07Z</time>
      </trkpt>
      <trkpt lat="43.03217" lon="1.33278">
        <ele>464.4</ele>
        <time>2022-03-26T14:55:08Z</time>
      </trkpt>
      <trkpt lat="43.03232" lon="1.33262">
        <ele>464.2</ele>
        <time>2022-03-26T14:55:17Z</time>
      </trkpt>
      <trkpt lat="43.03234" lon="1.3326">
        <ele>464</ele>
        <time>2022-03-26T14:55:18Z</time>
      </trkpt>
      <trkpt lat="43.03247" lon="1.33244">
        <ele>461.6</ele>
        <time>2022-03-26T14:55:28Z</time>
      </trkpt>
      <trkpt lat="43.03257" lon="1.33244">
        <ele>461</ele>
        <time>2022-03-26T14:55:34Z</time>
      </trkpt>
      <trkpt lat="43.03265" lon="1.33247">
        <ele>460.6</ele>
        <time>2022-03-26T14:55:38Z</time>
      </trkpt>
      <trkpt lat="43.03285" lon="1.3325">
        <ele>459.4</ele>
        <time>2022-03-26T14:55:48Z</time>
      </trkpt>
      <trkpt lat="43.03302" lon="1.33241">
        <ele>457.4</ele>
        <time>2022-03-26T14:55:57Z</time>
      </trkpt>
      <trkpt lat="43.03303" lon="1.3324">
        <ele>456.8</ele>
        <time>2022-03-26T14:55:58Z</time>
      </trkpt>
      <trkpt lat="43.03319" lon="1.33225">
        <ele>453.6</ele>
        <time>2022-03-26T14:56:08Z</time>
      </trkpt>
      <trkpt lat="43.03335" lon="1.33212">
        <ele>450.8</ele>
        <time>2022-03-26T14:56:16Z</time>
      </trkpt>
      <trkpt lat="43.0334" lon="1.33215">
        <ele>450.4</ele>
        <time>2022-03-26T14:56:18Z</time>
      </trkpt>
      <trkpt lat="43.03355" lon="1.33229">
        <ele>447.4</ele>
        <time>2022-03-26T14:56:26Z</time>
      </trkpt>
      <trkpt lat="43.03359" lon="1.33233">
        <ele>446.6</ele>
        <time>2022-03-26T14:56:28Z</time>
      </trkpt>
      <trkpt lat="43.03367" lon="1.33257">
        <ele>446.8</ele>
        <time>2022-03-26T14:56:37Z</time>
      </trkpt>
      <trkpt lat="43.03368" lon="1.3326">
        <ele>447</ele>
        <time>2022-03-26T14:56:38Z</time>
      </trkpt>
      <trkpt lat="43.03371" lon="1.33272">
        <ele>446.2</ele>
        <time>2022-03-26T14:56:42Z</time>
      </trkpt>
      <trkpt lat="43.03378" lon="1.33288">
        <ele>444.6</ele>
        <time>2022-03-26T14:56:48Z</time>
      </trkpt>
      <trkpt lat="43.03379" lon="1.33312">
        <ele>442.2</ele>
        <time>2022-03-26T14:56:55Z</time>
      </trkpt>
      <trkpt lat="43.03377" lon="1.33323">
        <ele>442</ele>
        <time>2022-03-26T14:56:58Z</time>
      </trkpt>
      <trkpt lat="43.03377" lon="1.33349">
        <ele>442</ele>
        <time>2022-03-26T14:57:06Z</time>
      </trkpt>
      <trkpt lat="43.03377" lon="1.33355">
        <ele>442.2</ele>
        <time>2022-03-26T14:57:08Z</time>
      </trkpt>
      <trkpt lat="43.03376" lon="1.33381">
        <ele>443.4</ele>
        <time>2022-03-26T14:57:17Z</time>
      </trkpt>
      <trkpt lat="43.03375" lon="1.33383">
        <ele>443.4</ele>
        <time>2022-03-26T14:57:18Z</time>
      </trkpt>
      <trkpt lat="43.03379" lon="1.33396">
        <ele>441.2</ele>
        <time>2022-03-26T14:57:25Z</time>
      </trkpt>
      <trkpt lat="43.03381" lon="1.33405">
        <ele>439</ele>
        <time>2022-03-26T14:57:28Z</time>
      </trkpt>
      <trkpt lat="43.03391" lon="1.33427">
        <ele>432.6</ele>
        <time>2022-03-26T14:57:36Z</time>
      </trkpt>
      <trkpt lat="43.03395" lon="1.3343">
        <ele>430.6</ele>
        <time>2022-03-26T14:57:38Z</time>
      </trkpt>
      <trkpt lat="43.03413" lon="1.33438">
        <ele>425.6</ele>
        <time>2022-03-26T14:57:45Z</time>
      </trkpt>
      <trkpt lat="43.03421" lon="1.3344">
        <ele>425.6</ele>
        <time>2022-03-26T14:57:48Z</time>
      </trkpt>
      <trkpt lat="43.03439" lon="1.33445">
        <ele>422.6</ele>
        <time>2022-03-26T14:57:55Z</time>
      </trkpt>
      <trkpt lat="43.03447" lon="1.33447">
        <ele>421.6</ele>
        <time>2022-03-26T14:57:58Z</time>
      </trkpt>
      <trkpt lat="43.03465" lon="1.33454">
        <ele>420.4</ele>
        <time>2022-03-26T14:58:05Z</time>
      </trkpt>
      <trkpt lat="43.03471" lon="1.33461">
        <ele>420.4</ele>
        <time>2022-03-26T14:58:08Z</time>
      </trkpt>
      <trkpt lat="43.03474" lon="1.33474">
        <ele>421.8</ele>
        <time>2022-03-26T14:58:13Z</time>
      </trkpt>
      <trkpt lat="43.03472" lon="1.33486">
        <ele>424.8</ele>
        <time>2022-03-26T14:58:18Z</time>
      </trkpt>
      <trkpt lat="43.0347" lon="1.33502">
        <ele>426.8</ele>
        <time>2022-03-26T14:58:28Z</time>
      </trkpt>
      <trkpt lat="43.03468" lon="1.33516">
        <ele>427.4</ele>
        <time>2022-03-26T14:58:38Z</time>
      </trkpt>
      <trkpt lat="43.03467" lon="1.3353">
        <ele>427.8</ele>
        <time>2022-03-26T14:58:48Z</time>
      </trkpt>
      <trkpt lat="43.03466" lon="1.33545">
        <ele>427.6</ele>
        <time>2022-03-26T14:58:58Z</time>
      </trkpt>
      <trkpt lat="43.03466" lon="1.33559">
        <ele>431.2</ele>
        <time>2022-03-26T14:59:08Z</time>
      </trkpt>
      <trkpt lat="43.03463" lon="1.33574">
        <ele>434.6</ele>
        <time>2022-03-26T14:59:18Z</time>
      </trkpt>
      <trkpt lat="43.03463" lon="1.33589">
        <ele>436.8</ele>
        <time>2022-03-26T14:59:28Z</time>
      </trkpt>
      <trkpt lat="43.03461" lon="1.33605">
        <ele>439.6</ele>
        <time>2022-03-26T14:59:38Z</time>
      </trkpt>
      <trkpt lat="43.0346" lon="1.33619">
        <ele>441.8</ele>
        <time>2022-03-26T14:59:48Z</time>
      </trkpt>
      <trkpt lat="43.0346" lon="1.33635">
        <ele>444.6</ele>
        <time>2022-03-26T14:59:58Z</time>
      </trkpt>
      <trkpt lat="43.0346" lon="1.33652">
        <ele>446</ele>
        <time>2022-03-26T15:00:08Z</time>
      </trkpt>
      <trkpt lat="43.03456" lon="1.33669">
        <ele>447</ele>
        <time>2022-03-26T15:00:18Z</time>
      </trkpt>
      <trkpt lat="43.03447" lon="1.33691">
        <ele>449</ele>
        <time>2022-03-26T15:00:28Z</time>
      </trkpt>
      <trkpt lat="43.03431" lon="1.33704">
        <ele>448.6</ele>
        <time>2022-03-26T15:00:37Z</time>
      </trkpt>
      <trkpt lat="43.0343" lon="1.33705">
        <ele>448.6</ele>
        <time>2022-03-26T15:00:38Z</time>
      </trkpt>
      <trkpt lat="43.03415" lon="1.33722">
        <ele>449</ele>
        <time>2022-03-26T15:00:47Z</time>
      </trkpt>
      <trkpt lat="43.03413" lon="1.33725">
        <ele>449.2</ele>
        <time>2022-03-26T15:00:48Z</time>
      </trkpt>
      <trkpt lat="43.03404" lon="1.33749">
        <ele>449.4</ele>
        <time>2022-03-26T15:00:57Z</time>
      </trkpt>
      <trkpt lat="43.03403" lon="1.33752">
        <ele>449.6</ele>
        <time>2022-03-26T15:00:58Z</time>
      </trkpt>
      <trkpt lat="43.03399" lon="1.33776">
        <ele>451.8</ele>
        <time>2022-03-26T15:01:06Z</time>
      </trkpt>
      <trkpt lat="43.03397" lon="1.33781">
        <ele>452.2</ele>
        <time>2022-03-26T15:01:08Z</time>
      </trkpt>
      <trkpt lat="43.03397" lon="1.33784">
        <ele>452.6</ele>
        <time>2022-03-26T15:01:10Z</time>
      </trkpt>
      <trkpt lat="43.0339" lon="1.33802">
        <ele>452.4</ele>
        <time>2022-03-26T15:01:18Z</time>
      </trkpt>
      <trkpt lat="43.03381" lon="1.3382">
        <ele>449.8</ele>
        <time>2022-03-26T15:01:28Z</time>
      </trkpt>
      <trkpt lat="43.03371" lon="1.33841">
        <ele>443.8</ele>
        <time>2022-03-26T15:01:37Z</time>
      </trkpt>
      <trkpt lat="43.0337" lon="1.33844">
        <ele>443.6</ele>
        <time>2022-03-26T15:01:38Z</time>
      </trkpt>
      <trkpt lat="43.03368" lon="1.33854">
        <ele>441.2</ele>
        <time>2022-03-26T15:01:42Z</time>
      </trkpt>
      <trkpt lat="43.03371" lon="1.3387">
        <ele>444</ele>
        <time>2022-03-26T15:01:48Z</time>
      </trkpt>
      <trkpt lat="43.03373" lon="1.33897">
        <ele>448.6</ele>
        <time>2022-03-26T15:01:58Z</time>
      </trkpt>
      <trkpt lat="43.03374" lon="1.33918">
        <ele>451.4</ele>
        <time>2022-03-26T15:02:08Z</time>
      </trkpt>
      <trkpt lat="43.03381" lon="1.33938">
        <ele>458.6</ele>
        <time>2022-03-26T15:02:18Z</time>
      </trkpt>
      <trkpt lat="43.03389" lon="1.33955">
        <ele>460</ele>
        <time>2022-03-26T15:02:28Z</time>
      </trkpt>
      <trkpt lat="43.03392" lon="1.33973">
        <ele>460.2</ele>
        <time>2022-03-26T15:02:38Z</time>
      </trkpt>
      <trkpt lat="43.03397" lon="1.33991">
        <ele>459.8</ele>
        <time>2022-03-26T15:02:48Z</time>
      </trkpt>
      <trkpt lat="43.03405" lon="1.34012">
        <ele>460.2</ele>
        <time>2022-03-26T15:02:58Z</time>
      </trkpt>
      <trkpt lat="43.03408" lon="1.3403">
        <ele>458</ele>
        <time>2022-03-26T15:03:06Z</time>
      </trkpt>
      <trkpt lat="43.03407" lon="1.34034">
        <ele>457.6</ele>
        <time>2022-03-26T15:03:08Z</time>
      </trkpt>
      <trkpt lat="43.03398" lon="1.34051">
        <ele>457</ele>
        <time>2022-03-26T15:03:18Z</time>
      </trkpt>
      <trkpt lat="43.03395" lon="1.34071">
        <ele>459.6</ele>
        <time>2022-03-26T15:03:28Z</time>
      </trkpt>
      <trkpt lat="43.03391" lon="1.34089">
        <ele>461.4</ele>
        <time>2022-03-26T15:03:38Z</time>
      </trkpt>
      <trkpt lat="43.03385" lon="1.34105">
        <ele>464.4</ele>
        <time>2022-03-26T15:03:48Z</time>
      </trkpt>
      <trkpt lat="43.03384" lon="1.34123">
        <ele>465.8</ele>
        <time>2022-03-26T15:03:58Z</time>
      </trkpt>
      <trkpt lat="43.03386" lon="1.34147">
        <ele>468</ele>
        <time>2022-03-26T15:04:08Z</time>
      </trkpt>
      <trkpt lat="43.03389" lon="1.34173">
        <ele>471.6</ele>
        <time>2022-03-26T15:04:17Z</time>
      </trkpt>
      <trkpt lat="43.0339" lon="1.34175">
        <ele>472.2</ele>
        <time>2022-03-26T15:04:18Z</time>
      </trkpt>
      <trkpt lat="43.03394" lon="1.34201">
        <ele>472.8</ele>
        <time>2022-03-26T15:04:27Z</time>
      </trkpt>
      <trkpt lat="43.03395" lon="1.34204">
        <ele>473.2</ele>
        <time>2022-03-26T15:04:28Z</time>
      </trkpt>
      <trkpt lat="43.034" lon="1.34228">
        <ele>470.8</ele>
        <time>2022-03-26T15:04:37Z</time>
      </trkpt>
      <trkpt lat="43.03401" lon="1.34231">
        <ele>470.4</ele>
        <time>2022-03-26T15:04:38Z</time>
      </trkpt>
      <trkpt lat="43.03402" lon="1.34257">
        <ele>465.4</ele>
        <time>2022-03-26T15:04:48Z</time>
      </trkpt>
      <trkpt lat="43.03406" lon="1.34282">
        <ele>464.4</ele>
        <time>2022-03-26T15:04:58Z</time>
      </trkpt>
      <trkpt lat="43.03408" lon="1.34305">
        <ele>462.4</ele>
        <time>2022-03-26T15:05:08Z</time>
      </trkpt>
      <trkpt lat="43.03419" lon="1.34325">
        <ele>464</ele>
        <time>2022-03-26T15:05:18Z</time>
      </trkpt>
      <trkpt lat="43.03423" lon="1.34329">
        <ele>464.2</ele>
        <time>2022-03-26T15:05:20Z</time>
      </trkpt>
      <trkpt lat="43.03441" lon="1.34342">
        <ele>462</ele>
        <time>2022-03-26T15:05:28Z</time>
      </trkpt>
      <trkpt lat="43.03452" lon="1.34363">
        <ele>460</ele>
        <time>2022-03-26T15:05:36Z</time>
      </trkpt>
      <trkpt lat="43.03454" lon="1.34368">
        <ele>458.8</ele>
        <time>2022-03-26T15:05:38Z</time>
      </trkpt>
      <trkpt lat="43.03462" lon="1.34391">
        <ele>460</ele>
        <time>2022-03-26T15:05:47Z</time>
      </trkpt>
      <trkpt lat="43.03462" lon="1.34393">
        <ele>460.6</ele>
        <time>2022-03-26T15:05:48Z</time>
      </trkpt>
      <trkpt lat="43.03467" lon="1.34413">
        <ele>466.2</ele>
        <time>2022-03-26T15:05:58Z</time>
      </trkpt>
      <trkpt lat="43.03468" lon="1.34428">
        <ele>469.6</ele>
        <time>2022-03-26T15:06:08Z</time>
      </trkpt>
      <trkpt lat="43.03469" lon="1.34432">
        <ele>469.8</ele>
        <time>2022-03-26T15:06:11Z</time>
      </trkpt>
      <trkpt lat="43.03469" lon="1.34435">
        <ele>470.8</ele>
        <time>2022-03-26T15:06:13Z</time>
      </trkpt>
      <trkpt lat="43.03471" lon="1.34442">
        <ele>472.6</ele>
        <time>2022-03-26T15:06:18Z</time>
      </trkpt>
      <trkpt lat="43.03473" lon="1.34446">
        <ele>472</ele>
        <time>2022-03-26T15:06:22Z</time>
      </trkpt>
      <trkpt lat="43.03474" lon="1.34452">
        <ele>472.4</ele>
        <time>2022-03-26T15:06:26Z</time>
      </trkpt>
      <trkpt lat="43.03475" lon="1.34455">
        <ele>473</ele>
        <time>2022-03-26T15:06:28Z</time>
      </trkpt>
      <trkpt lat="43.03477" lon="1.3446">
        <ele>474</ele>
        <time>2022-03-26T15:06:32Z</time>
      </trkpt>
      <trkpt lat="43.03477" lon="1.34463">
        <ele>474.8</ele>
        <time>2022-03-26T15:06:34Z</time>
      </trkpt>
      <trkpt lat="43.03481" lon="1.34467">
        <ele>476</ele>
        <time>2022-03-26T15:06:38Z</time>
      </trkpt>
      <trkpt lat="43.03481" lon="1.34469">
        <ele>476.6</ele>
        <time>2022-03-26T15:06:39Z</time>
      </trkpt>
      <trkpt lat="43.03485" lon="1.34477">
        <ele>476.2</ele>
        <time>2022-03-26T15:06:46Z</time>
      </trkpt>
      <trkpt lat="43.03485" lon="1.3448">
        <ele>476.8</ele>
        <time>2022-03-26T15:06:48Z</time>
      </trkpt>
      <trkpt lat="43.03485" lon="1.34481">
        <ele>476.6</ele>
        <time>2022-03-26T15:06:49Z</time>
      </trkpt>
      <trkpt lat="43.03488" lon="1.34492">
        <ele>477.4</ele>
        <time>2022-03-26T15:06:58Z</time>
      </trkpt>
      <trkpt lat="43.0349" lon="1.34498">
        <ele>480.6</ele>
        <time>2022-03-26T15:07:02Z</time>
      </trkpt>
      <trkpt lat="43.03491" lon="1.34506">
        <ele>480.2</ele>
        <time>2022-03-26T15:07:08Z</time>
      </trkpt>
      <trkpt lat="43.03493" lon="1.34516">
        <ele>479</ele>
        <time>2022-03-26T15:07:15Z</time>
      </trkpt>
      <trkpt lat="43.03494" lon="1.34521">
        <ele>478.8</ele>
        <time>2022-03-26T15:07:18Z</time>
      </trkpt>
      <trkpt lat="43.03498" lon="1.34536">
        <ele>479.8</ele>
        <time>2022-03-26T15:07:28Z</time>
      </trkpt>
      <trkpt lat="43.03503" lon="1.34551">
        <ele>480.8</ele>
        <time>2022-03-26T15:07:38Z</time>
      </trkpt>
      <trkpt lat="43.03502" lon="1.34567">
        <ele>482.8</ele>
        <time>2022-03-26T15:07:48Z</time>
      </trkpt>
      <trkpt lat="43.03501" lon="1.34586">
        <ele>484</ele>
        <time>2022-03-26T15:07:58Z</time>
      </trkpt>
      <trkpt lat="43.03496" lon="1.3461">
        <ele>484.2</ele>
        <time>2022-03-26T15:08:08Z</time>
      </trkpt>
      <trkpt lat="43.03488" lon="1.3463">
        <ele>483.4</ele>
        <time>2022-03-26T15:08:18Z</time>
      </trkpt>
      <trkpt lat="43.0348" lon="1.34648">
        <ele>484.6</ele>
        <time>2022-03-26T15:08:28Z</time>
      </trkpt>
      <trkpt lat="43.03476" lon="1.34673">
        <ele>490.4</ele>
        <time>2022-03-26T15:08:38Z</time>
      </trkpt>
      <trkpt lat="43.03481" lon="1.34695">
        <ele>493.8</ele>
        <time>2022-03-26T15:08:48Z</time>
      </trkpt>
      <trkpt lat="43.0349" lon="1.34717">
        <ele>493.4</ele>
        <time>2022-03-26T15:08:58Z</time>
      </trkpt>
      <trkpt lat="43.03494" lon="1.34738">
        <ele>494.8</ele>
        <time>2022-03-26T15:09:08Z</time>
      </trkpt>
      <trkpt lat="43.03494" lon="1.34762">
        <ele>491.6</ele>
        <time>2022-03-26T15:09:18Z</time>
      </trkpt>
      <trkpt lat="43.03497" lon="1.34782">
        <ele>489</ele>
        <time>2022-03-26T15:09:24Z</time>
      </trkpt>
      <trkpt lat="43.03498" lon="1.34797">
        <ele>490.6</ele>
        <time>2022-03-26T15:09:28Z</time>
      </trkpt>
      <trkpt lat="43.03499" lon="1.34824">
        <ele>494.6</ele>
        <time>2022-03-26T15:09:37Z</time>
      </trkpt>
      <trkpt lat="43.03499" lon="1.34827">
        <ele>494.8</ele>
        <time>2022-03-26T15:09:38Z</time>
      </trkpt>
      <trkpt lat="43.03493" lon="1.34849">
        <ele>497.6</ele>
        <time>2022-03-26T15:09:48Z</time>
      </trkpt>
      <trkpt lat="43.03489" lon="1.34873">
        <ele>501</ele>
        <time>2022-03-26T15:09:58Z</time>
      </trkpt>
      <trkpt lat="43.03489" lon="1.34897">
        <ele>503.2</ele>
        <time>2022-03-26T15:10:08Z</time>
      </trkpt>
      <trkpt lat="43.03483" lon="1.3492">
        <ele>507.2</ele>
        <time>2022-03-26T15:10:18Z</time>
      </trkpt>
      <trkpt lat="43.03479" lon="1.34943">
        <ele>507.6</ele>
        <time>2022-03-26T15:10:28Z</time>
      </trkpt>
      <trkpt lat="43.03475" lon="1.34955">
        <ele>507</ele>
        <time>2022-03-26T15:10:33Z</time>
      </trkpt>
      <trkpt lat="43.03474" lon="1.34959">
        <ele>507</ele>
        <time>2022-03-26T15:10:35Z</time>
      </trkpt>
      <trkpt lat="43.03473" lon="1.34968">
        <ele>508</ele>
        <time>2022-03-26T15:10:38Z</time>
      </trkpt>
      <trkpt lat="43.03469" lon="1.34993">
        <ele>510</ele>
        <time>2022-03-26T15:10:47Z</time>
      </trkpt>
      <trkpt lat="43.03468" lon="1.34996">
        <ele>509.8</ele>
        <time>2022-03-26T15:10:48Z</time>
      </trkpt>
      <trkpt lat="43.03466" lon="1.35022">
        <ele>510.6</ele>
        <time>2022-03-26T15:10:56Z</time>
      </trkpt>
      <trkpt lat="43.03466" lon="1.35028">
        <ele>510.4</ele>
        <time>2022-03-26T15:10:58Z</time>
      </trkpt>
      <trkpt lat="43.03465" lon="1.35038">
        <ele>511.2</ele>
        <time>2022-03-26T15:11:02Z</time>
      </trkpt>
      <trkpt lat="43.03466" lon="1.35055">
        <ele>510.2</ele>
        <time>2022-03-26T15:11:08Z</time>
      </trkpt>
      <trkpt lat="43.03463" lon="1.35081">
        <ele>509.6</ele>
        <time>2022-03-26T15:11:17Z</time>
      </trkpt>
      <trkpt lat="43.03463" lon="1.35083">
        <ele>510</ele>
        <time>2022-03-26T15:11:18Z</time>
      </trkpt>
      <trkpt lat="43.03462" lon="1.3511">
        <ele>512.2</ele>
        <time>2022-03-26T15:11:28Z</time>
      </trkpt>
      <trkpt lat="43.03458" lon="1.35136">
        <ele>512.8</ele>
        <time>2022-03-26T15:11:38Z</time>
      </trkpt>
      <trkpt lat="43.0345" lon="1.3516">
        <ele>512.6</ele>
        <time>2022-03-26T15:11:48Z</time>
      </trkpt>
      <trkpt lat="43.03445" lon="1.35174">
        <ele>511.8</ele>
        <time>2022-03-26T15:11:55Z</time>
      </trkpt>
      <trkpt lat="43.03445" lon="1.35181">
        <ele>512.6</ele>
        <time>2022-03-26T15:11:58Z</time>
      </trkpt>
      <trkpt lat="43.03441" lon="1.35205">
        <ele>514</ele>
        <time>2022-03-26T15:12:07Z</time>
      </trkpt>
      <trkpt lat="43.03441" lon="1.35208">
        <ele>514</ele>
        <time>2022-03-26T15:12:08Z</time>
      </trkpt>
      <trkpt lat="43.03439" lon="1.35233">
        <ele>516.2</ele>
        <time>2022-03-26T15:12:16Z</time>
      </trkpt>
      <trkpt lat="43.03439" lon="1.3524">
        <ele>516.6</ele>
        <time>2022-03-26T15:12:18Z</time>
      </trkpt>
      <trkpt lat="43.0344" lon="1.35267">
        <ele>516</ele>
        <time>2022-03-26T15:12:27Z</time>
      </trkpt>
      <trkpt lat="43.0344" lon="1.3527">
        <ele>515.8</ele>
        <time>2022-03-26T15:12:28Z</time>
      </trkpt>
      <trkpt lat="43.03443" lon="1.35296">
        <ele>514.2</ele>
        <time>2022-03-26T15:12:37Z</time>
      </trkpt>
      <trkpt lat="43.03445" lon="1.35298">
        <ele>514</ele>
        <time>2022-03-26T15:12:38Z</time>
      </trkpt>
      <trkpt lat="43.03464" lon="1.35304">
        <ele>512.8</ele>
        <time>2022-03-26T15:12:47Z</time>
      </trkpt>
      <trkpt lat="43.03466" lon="1.35305">
        <ele>512.8</ele>
        <time>2022-03-26T15:12:48Z</time>
      </trkpt>
      <trkpt lat="43.03478" lon="1.35322">
        <ele>512.2</ele>
        <time>2022-03-26T15:12:57Z</time>
      </trkpt>
      <trkpt lat="43.03479" lon="1.35324">
        <ele>512.2</ele>
        <time>2022-03-26T15:12:58Z</time>
      </trkpt>
      <trkpt lat="43.03486" lon="1.35348">
        <ele>512.4</ele>
        <time>2022-03-26T15:13:07Z</time>
      </trkpt>
      <trkpt lat="43.03486" lon="1.35351">
        <ele>512.2</ele>
        <time>2022-03-26T15:13:08Z</time>
      </trkpt>
      <trkpt lat="43.03493" lon="1.35375">
        <ele>511.8</ele>
        <time>2022-03-26T15:13:16Z</time>
      </trkpt>
      <trkpt lat="43.03494" lon="1.35381">
        <ele>511.8</ele>
        <time>2022-03-26T15:13:18Z</time>
      </trkpt>
      <trkpt lat="43.03502" lon="1.35403">
        <ele>511.4</ele>
        <time>2022-03-26T15:13:26Z</time>
      </trkpt>
      <trkpt lat="43.03505" lon="1.35408">
        <ele>511.6</ele>
        <time>2022-03-26T15:13:28Z</time>
      </trkpt>
      <trkpt lat="43.03515" lon="1.35429">
        <ele>510.8</ele>
        <time>2022-03-26T15:13:36Z</time>
      </trkpt>
      <trkpt lat="43.03517" lon="1.35434">
        <ele>510.8</ele>
        <time>2022-03-26T15:13:38Z</time>
      </trkpt>
      <trkpt lat="43.03525" lon="1.3545">
        <ele>511.6</ele>
        <time>2022-03-26T15:13:44Z</time>
      </trkpt>
      <trkpt lat="43.03528" lon="1.35461">
        <ele>512.2</ele>
        <time>2022-03-26T15:13:48Z</time>
      </trkpt>
      <trkpt lat="43.03529" lon="1.35489">
        <ele>514.2</ele>
        <time>2022-03-26T15:13:57Z</time>
      </trkpt>
      <trkpt lat="43.03529" lon="1.35492">
        <ele>514.6</ele>
        <time>2022-03-26T15:13:58Z</time>
      </trkpt>
      <trkpt lat="43.03532" lon="1.35516">
        <ele>516.8</ele>
        <time>2022-03-26T15:14:07Z</time>
      </trkpt>
      <trkpt lat="43.03532" lon="1.35519">
        <ele>517</ele>
        <time>2022-03-26T15:14:08Z</time>
      </trkpt>
      <trkpt lat="43.03537" lon="1.35544">
        <ele>518.2</ele>
        <time>2022-03-26T15:14:18Z</time>
      </trkpt>
      <trkpt lat="43.03539" lon="1.35568">
        <ele>519.6</ele>
        <time>2022-03-26T15:14:28Z</time>
      </trkpt>
      <trkpt lat="43.03533" lon="1.35588">
        <ele>519.2</ele>
        <time>2022-03-26T15:14:38Z</time>
      </trkpt>
      <trkpt lat="43.03526" lon="1.35613">
        <ele>514.6</ele>
        <time>2022-03-26T15:14:48Z</time>
      </trkpt>
      <trkpt lat="43.0351" lon="1.35626">
        <ele>508.2</ele>
        <time>2022-03-26T15:14:56Z</time>
      </trkpt>
      <trkpt lat="43.03506" lon="1.3563">
        <ele>507.4</ele>
        <time>2022-03-26T15:14:58Z</time>
      </trkpt>
      <trkpt lat="43.03491" lon="1.35646">
        <ele>503.6</ele>
        <time>2022-03-26T15:15:05Z</time>
      </trkpt>
      <trkpt lat="43.03484" lon="1.35653">
        <ele>502</ele>
        <time>2022-03-26T15:15:08Z</time>
      </trkpt>
      <trkpt lat="43.03468" lon="1.35666">
        <ele>499.6</ele>
        <time>2022-03-26T15:15:15Z</time>
      </trkpt>
      <trkpt lat="43.03461" lon="1.35672">
        <ele>500.2</ele>
        <time>2022-03-26T15:15:18Z</time>
      </trkpt>
      <trkpt lat="43.03446" lon="1.35691">
        <ele>499.6</ele>
        <time>2022-03-26T15:15:26Z</time>
      </trkpt>
      <trkpt lat="43.03444" lon="1.35698">
        <ele>499.6</ele>
        <time>2022-03-26T15:15:28Z</time>
      </trkpt>
      <trkpt lat="43.03438" lon="1.35722">
        <ele>499.4</ele>
        <time>2022-03-26T15:15:35Z</time>
      </trkpt>
      <trkpt lat="43.03438" lon="1.35733">
        <ele>499.8</ele>
        <time>2022-03-26T15:15:38Z</time>
      </trkpt>
      <trkpt lat="43.03437" lon="1.35742">
        <ele>500</ele>
        <time>2022-03-26T15:15:41Z</time>
      </trkpt>
      <trkpt lat="43.03434" lon="1.35742">
        <ele>499</ele>
        <time>2022-03-26T15:15:43Z</time>
      </trkpt>
      <trkpt lat="43.03426" lon="1.35729">
        <ele>495.8</ele>
        <time>2022-03-26T15:15:48Z</time>
      </trkpt>
      <trkpt lat="43.03417" lon="1.35719">
        <ele>493.6</ele>
        <time>2022-03-26T15:15:53Z</time>
      </trkpt>
      <trkpt lat="43.03412" lon="1.35735">
        <ele>491.4</ele>
        <time>2022-03-26T15:15:58Z</time>
      </trkpt>
      <trkpt lat="43.03411" lon="1.3576">
        <ele>490</ele>
        <time>2022-03-26T15:16:05Z</time>
      </trkpt>
      <trkpt lat="43.03412" lon="1.3577">
        <ele>489</ele>
        <time>2022-03-26T15:16:08Z</time>
      </trkpt>
      <trkpt lat="43.03418" lon="1.35791">
        <ele>484.4</ele>
        <time>2022-03-26T15:16:15Z</time>
      </trkpt>
      <trkpt lat="43.03415" lon="1.35795">
        <ele>483</ele>
        <time>2022-03-26T15:16:17Z</time>
      </trkpt>
      <trkpt lat="43.03413" lon="1.35795">
        <ele>482</ele>
        <time>2022-03-26T15:16:18Z</time>
      </trkpt>
      <trkpt lat="43.03411" lon="1.35794">
        <ele>481.2</ele>
        <time>2022-03-26T15:16:19Z</time>
      </trkpt>
      <trkpt lat="43.03399" lon="1.35782">
        <ele>475.6</ele>
        <time>2022-03-26T15:16:26Z</time>
      </trkpt>
      <trkpt lat="43.03397" lon="1.35786">
        <ele>474.8</ele>
        <time>2022-03-26T15:16:28Z</time>
      </trkpt>
      <trkpt lat="43.03401" lon="1.35807">
        <ele>471.6</ele>
        <time>2022-03-26T15:16:35Z</time>
      </trkpt>
      <trkpt lat="43.03394" lon="1.35813">
        <ele>470.8</ele>
        <time>2022-03-26T15:16:38Z</time>
      </trkpt>
      <trkpt lat="43.03376" lon="1.3582">
        <ele>466.8</ele>
        <time>2022-03-26T15:16:46Z</time>
      </trkpt>
      <trkpt lat="43.03372" lon="1.3582">
        <ele>465.6</ele>
        <time>2022-03-26T15:16:48Z</time>
      </trkpt>
      <trkpt lat="43.03351" lon="1.35825">
        <ele>463.4</ele>
        <time>2022-03-26T15:16:55Z</time>
      </trkpt>
      <trkpt lat="43.03342" lon="1.35827">
        <ele>463.8</ele>
        <time>2022-03-26T15:16:58Z</time>
      </trkpt>
      <trkpt lat="43.03321" lon="1.35829">
        <ele>463.8</ele>
        <time>2022-03-26T15:17:05Z</time>
      </trkpt>
      <trkpt lat="43.03312" lon="1.35829">
        <ele>464.8</ele>
        <time>2022-03-26T15:17:08Z</time>
      </trkpt>
      <trkpt lat="43.03292" lon="1.35825">
        <ele>463.8</ele>
        <time>2022-03-26T15:17:15Z</time>
      </trkpt>
      <trkpt lat="43.03284" lon="1.35822">
        <ele>462.2</ele>
        <time>2022-03-26T15:17:18Z</time>
      </trkpt>
      <trkpt lat="43.03266" lon="1.35808">
        <ele>460.8</ele>
        <time>2022-03-26T15:17:25Z</time>
      </trkpt>
      <trkpt lat="43.03259" lon="1.35801">
        <ele>460.2</ele>
        <time>2022-03-26T15:17:28Z</time>
      </trkpt>
      <trkpt lat="43.03243" lon="1.35789">
        <ele>457.8</ele>
        <time>2022-03-26T15:17:35Z</time>
      </trkpt>
      <trkpt lat="43.03236" lon="1.35784">
        <ele>457.2</ele>
        <time>2022-03-26T15:17:38Z</time>
      </trkpt>
      <trkpt lat="43.03217" lon="1.35776">
        <ele>454</ele>
        <time>2022-03-26T15:17:46Z</time>
      </trkpt>
      <trkpt lat="43.03212" lon="1.35776">
        <ele>453.8</ele>
        <time>2022-03-26T15:17:48Z</time>
      </trkpt>
      <trkpt lat="43.03192" lon="1.35774">
        <ele>451.8</ele>
        <time>2022-03-26T15:17:56Z</time>
      </trkpt>
      <trkpt lat="43.03188" lon="1.35774">
        <ele>451.2</ele>
        <time>2022-03-26T15:17:58Z</time>
      </trkpt>
      <trkpt lat="43.03169" lon="1.35772">
        <ele>452.4</ele>
        <time>2022-03-26T15:18:06Z</time>
      </trkpt>
      <trkpt lat="43.03164" lon="1.3577">
        <ele>452.8</ele>
        <time>2022-03-26T15:18:08Z</time>
      </trkpt>
      <trkpt lat="43.03146" lon="1.35761">
        <ele>453.4</ele>
        <time>2022-03-26T15:18:16Z</time>
      </trkpt>
      <trkpt lat="43.03142" lon="1.3576">
        <ele>453.4</ele>
        <time>2022-03-26T15:18:18Z</time>
      </trkpt>
      <trkpt lat="43.03124" lon="1.3575">
        <ele>454.4</ele>
        <time>2022-03-26T15:18:26Z</time>
      </trkpt>
      <trkpt lat="43.0312" lon="1.35747">
        <ele>454.2</ele>
        <time>2022-03-26T15:18:28Z</time>
      </trkpt>
      <trkpt lat="43.03103" lon="1.35736">
        <ele>454.4</ele>
        <time>2022-03-26T15:18:36Z</time>
      </trkpt>
      <trkpt lat="43.03099" lon="1.35734">
        <ele>454.6</ele>
        <time>2022-03-26T15:18:38Z</time>
      </trkpt>
      <trkpt lat="43.0308" lon="1.35725">
        <ele>454.8</ele>
        <time>2022-03-26T15:18:47Z</time>
      </trkpt>
      <trkpt lat="43.03078" lon="1.35724">
        <ele>454.6</ele>
        <time>2022-03-26T15:18:48Z</time>
      </trkpt>
      <trkpt lat="43.03061" lon="1.35715">
        <ele>455.2</ele>
        <time>2022-03-26T15:18:56Z</time>
      </trkpt>
      <trkpt lat="43.03056" lon="1.35713">
        <ele>455.2</ele>
        <time>2022-03-26T15:18:58Z</time>
      </trkpt>
      <trkpt lat="43.03041" lon="1.35701">
        <ele>454.6</ele>
        <time>2022-03-26T15:19:07Z</time>
      </trkpt>
      <trkpt lat="43.03039" lon="1.35699">
        <ele>454.8</ele>
        <time>2022-03-26T15:19:08Z</time>
      </trkpt>
      <trkpt lat="43.03025" lon="1.35684">
        <ele>454.4</ele>
        <time>2022-03-26T15:19:17Z</time>
      </trkpt>
      <trkpt lat="43.03023" lon="1.35683">
        <ele>454.8</ele>
        <time>2022-03-26T15:19:18Z</time>
      </trkpt>
      <trkpt lat="43.03007" lon="1.35666">
        <ele>455.6</ele>
        <time>2022-03-26T15:19:28Z</time>
      </trkpt>
      <trkpt lat="43.02989" lon="1.35654">
        <ele>454.8</ele>
        <time>2022-03-26T15:19:38Z</time>
      </trkpt>
      <trkpt lat="43.02971" lon="1.35642">
        <ele>455</ele>
        <time>2022-03-26T15:19:47Z</time>
      </trkpt>
      <trkpt lat="43.02969" lon="1.3564">
        <ele>455.2</ele>
        <time>2022-03-26T15:19:48Z</time>
      </trkpt>
      <trkpt lat="43.02952" lon="1.35627">
        <ele>458.2</ele>
        <time>2022-03-26T15:19:56Z</time>
      </trkpt>
      <trkpt lat="43.02947" lon="1.35624">
        <ele>458.4</ele>
        <time>2022-03-26T15:19:58Z</time>
      </trkpt>
      <trkpt lat="43.02932" lon="1.35612">
        <ele>458.4</ele>
        <time>2022-03-26T15:20:05Z</time>
      </trkpt>
      <trkpt lat="43.02926" lon="1.35607">
        <ele>458.6</ele>
        <time>2022-03-26T15:20:08Z</time>
      </trkpt>
      <trkpt lat="43.02911" lon="1.35595">
        <ele>459</ele>
        <time>2022-03-26T15:20:16Z</time>
      </trkpt>
      <trkpt lat="43.02906" lon="1.35593">
        <ele>459.8</ele>
        <time>2022-03-26T15:20:18Z</time>
      </trkpt>
      <trkpt lat="43.02889" lon="1.35582">
        <ele>460</ele>
        <time>2022-03-26T15:20:26Z</time>
      </trkpt>
      <trkpt lat="43.02884" lon="1.3558">
        <ele>460.2</ele>
        <time>2022-03-26T15:20:28Z</time>
      </trkpt>
      <trkpt lat="43.02865" lon="1.3557">
        <ele>459.8</ele>
        <time>2022-03-26T15:20:36Z</time>
      </trkpt>
      <trkpt lat="43.0286" lon="1.35567">
        <ele>460.6</ele>
        <time>2022-03-26T15:20:38Z</time>
      </trkpt>
      <trkpt lat="43.02843" lon="1.35553">
        <ele>461.6</ele>
        <time>2022-03-26T15:20:46Z</time>
      </trkpt>
      <trkpt lat="43.02839" lon="1.35549">
        <ele>462</ele>
        <time>2022-03-26T15:20:48Z</time>
      </trkpt>
      <trkpt lat="43.02824" lon="1.35533">
        <ele>463.4</ele>
        <time>2022-03-26T15:20:56Z</time>
      </trkpt>
      <trkpt lat="43.0282" lon="1.3553">
        <ele>462.8</ele>
        <time>2022-03-26T15:20:58Z</time>
      </trkpt>
      <trkpt lat="43.02805" lon="1.35514">
        <ele>461.4</ele>
        <time>2022-03-26T15:21:08Z</time>
      </trkpt>
      <trkpt lat="43.02788" lon="1.35502">
        <ele>460</ele>
        <time>2022-03-26T15:21:17Z</time>
      </trkpt>
      <trkpt lat="43.02787" lon="1.355">
        <ele>459.8</ele>
        <time>2022-03-26T15:21:18Z</time>
      </trkpt>
      <trkpt lat="43.02786" lon="1.35499">
        <ele>459.2</ele>
        <time>2022-03-26T15:21:19Z</time>
      </trkpt>
      <trkpt lat="43.02783" lon="1.35497">
        <ele>459</ele>
        <time>2022-03-26T15:21:21Z</time>
      </trkpt>
      <trkpt lat="43.02775" lon="1.35481">
        <ele>458.6</ele>
        <time>2022-03-26T15:21:28Z</time>
      </trkpt>
      <trkpt lat="43.02772" lon="1.35474">
        <ele>458.4</ele>
        <time>2022-03-26T15:21:31Z</time>
      </trkpt>
      <trkpt lat="43.02764" lon="1.35462">
        <ele>455.6</ele>
        <time>2022-03-26T15:21:37Z</time>
      </trkpt>
      <trkpt lat="43.02764" lon="1.3546">
        <ele>455.2</ele>
        <time>2022-03-26T15:21:38Z</time>
      </trkpt>
      <trkpt lat="43.02762" lon="1.35457">
        <ele>455.2</ele>
        <time>2022-03-26T15:21:40Z</time>
      </trkpt>
      <trkpt lat="43.02756" lon="1.35441">
        <ele>454.8</ele>
        <time>2022-03-26T15:21:48Z</time>
      </trkpt>
      <trkpt lat="43.02752" lon="1.35426">
        <ele>455.8</ele>
        <time>2022-03-26T15:21:55Z</time>
      </trkpt>
      <trkpt lat="43.02749" lon="1.35421">
        <ele>455.6</ele>
        <time>2022-03-26T15:21:58Z</time>
      </trkpt>
      <trkpt lat="43.02749" lon="1.35419">
        <ele>455.4</ele>
        <time>2022-03-26T15:21:59Z</time>
      </trkpt>
      <trkpt lat="43.02743" lon="1.35396">
        <ele>457</ele>
        <time>2022-03-26T15:22:08Z</time>
      </trkpt>
      <trkpt lat="43.02735" lon="1.35373">
        <ele>457.2</ele>
        <time>2022-03-26T15:22:17Z</time>
      </trkpt>
      <trkpt lat="43.02734" lon="1.35371">
        <ele>456.8</ele>
        <time>2022-03-26T15:22:18Z</time>
      </trkpt>
      <trkpt lat="43.02728" lon="1.35345">
        <ele>456.8</ele>
        <time>2022-03-26T15:22:27Z</time>
      </trkpt>
      <trkpt lat="43.02727" lon="1.35342">
        <ele>457.6</ele>
        <time>2022-03-26T15:22:28Z</time>
      </trkpt>
      <trkpt lat="43.02716" lon="1.3532">
        <ele>462</ele>
        <time>2022-03-26T15:22:36Z</time>
      </trkpt>
      <trkpt lat="43.02712" lon="1.35317">
        <ele>461.6</ele>
        <time>2022-03-26T15:22:38Z</time>
      </trkpt>
      <trkpt lat="43.02695" lon="1.35302">
        <ele>460</ele>
        <time>2022-03-26T15:22:46Z</time>
      </trkpt>
      <trkpt lat="43.0269" lon="1.35299">
        <ele>459.6</ele>
        <time>2022-03-26T15:22:48Z</time>
      </trkpt>
      <trkpt lat="43.02676" lon="1.35281">
        <ele>458.4</ele>
        <time>2022-03-26T15:22:56Z</time>
      </trkpt>
      <trkpt lat="43.02674" lon="1.35276">
        <ele>458.8</ele>
        <time>2022-03-26T15:22:58Z</time>
      </trkpt>
      <trkpt lat="43.02663" lon="1.35255">
        <ele>455.4</ele>
        <time>2022-03-26T15:23:07Z</time>
      </trkpt>
      <trkpt lat="43.02661" lon="1.35253">
        <ele>454.8</ele>
        <time>2022-03-26T15:23:08Z</time>
      </trkpt>
      <trkpt lat="43.0265" lon="1.35232">
        <ele>452.8</ele>
        <time>2022-03-26T15:23:16Z</time>
      </trkpt>
      <trkpt lat="43.02648" lon="1.35227">
        <ele>452</ele>
        <time>2022-03-26T15:23:18Z</time>
      </trkpt>
      <trkpt lat="43.02637" lon="1.35206">
        <ele>448.6</ele>
        <time>2022-03-26T15:23:25Z</time>
      </trkpt>
      <trkpt lat="43.02632" lon="1.35199">
        <ele>448.4</ele>
        <time>2022-03-26T15:23:28Z</time>
      </trkpt>
      <trkpt lat="43.02624" lon="1.35175">
        <ele>446.2</ele>
        <time>2022-03-26T15:23:36Z</time>
      </trkpt>
      <trkpt lat="43.02622" lon="1.35168">
        <ele>445.8</ele>
        <time>2022-03-26T15:23:38Z</time>
      </trkpt>
      <trkpt lat="43.02618" lon="1.35144">
        <ele>445.8</ele>
        <time>2022-03-26T15:23:46Z</time>
      </trkpt>
      <trkpt lat="43.02617" lon="1.35138">
        <ele>445.8</ele>
        <time>2022-03-26T15:23:48Z</time>
      </trkpt>
      <trkpt lat="43.02612" lon="1.35112">
        <ele>447.4</ele>
        <time>2022-03-26T15:23:57Z</time>
      </trkpt>
      <trkpt lat="43.02611" lon="1.35109">
        <ele>447.4</ele>
        <time>2022-03-26T15:23:58Z</time>
      </trkpt>
      <trkpt lat="43.02603" lon="1.35084">
        <ele>452.6</ele>
        <time>2022-03-26T15:24:07Z</time>
      </trkpt>
      <trkpt lat="43.02602" lon="1.35081">
        <ele>452</ele>
        <time>2022-03-26T15:24:08Z</time>
      </trkpt>
      <trkpt lat="43.02596" lon="1.35056">
        <ele>454.6</ele>
        <time>2022-03-26T15:24:17Z</time>
      </trkpt>
      <trkpt lat="43.02596" lon="1.35053">
        <ele>454.8</ele>
        <time>2022-03-26T15:24:18Z</time>
      </trkpt>
      <trkpt lat="43.02593" lon="1.35027">
        <ele>453.4</ele>
        <time>2022-03-26T15:24:28Z</time>
      </trkpt>
      <trkpt lat="43.02585" lon="1.35002">
        <ele>454.4</ele>
        <time>2022-03-26T15:24:36Z</time>
      </trkpt>
      <trkpt lat="43.02584" lon="1.34995">
        <ele>454.6</ele>
        <time>2022-03-26T15:24:38Z</time>
      </trkpt>
      <trkpt lat="43.02573" lon="1.34972">
        <ele>456</ele>
        <time>2022-03-26T15:24:46Z</time>
      </trkpt>
      <trkpt lat="43.02571" lon="1.34966">
        <ele>456.4</ele>
        <time>2022-03-26T15:24:48Z</time>
      </trkpt>
      <trkpt lat="43.02564" lon="1.34945">
        <ele>454.8</ele>
        <time>2022-03-26T15:24:58Z</time>
      </trkpt>
      <trkpt lat="43.02559" lon="1.34923">
        <ele>456.4</ele>
        <time>2022-03-26T15:25:08Z</time>
      </trkpt>
      <trkpt lat="43.02557" lon="1.34911">
        <ele>456</ele>
        <time>2022-03-26T15:25:14Z</time>
      </trkpt>
      <trkpt lat="43.02554" lon="1.34906">
        <ele>453.2</ele>
        <time>2022-03-26T15:25:18Z</time>
      </trkpt>
      <trkpt lat="43.02544" lon="1.3489">
        <ele>451.8</ele>
        <time>2022-03-26T15:25:28Z</time>
      </trkpt>
      <trkpt lat="43.02538" lon="1.3487">
        <ele>454.4</ele>
        <time>2022-03-26T15:25:38Z</time>
      </trkpt>
      <trkpt lat="43.0253" lon="1.3485">
        <ele>456.6</ele>
        <time>2022-03-26T15:25:48Z</time>
      </trkpt>
      <trkpt lat="43.02518" lon="1.34835">
        <ele>455.4</ele>
        <time>2022-03-26T15:25:57Z</time>
      </trkpt>
      <trkpt lat="43.02517" lon="1.34832">
        <ele>454.8</ele>
        <time>2022-03-26T15:25:58Z</time>
      </trkpt>
      <trkpt lat="43.02514" lon="1.34807">
        <ele>453.4</ele>
        <time>2022-03-26T15:26:08Z</time>
      </trkpt>
      <trkpt lat="43.02505" lon="1.34784">
        <ele>454.6</ele>
        <time>2022-03-26T15:26:18Z</time>
      </trkpt>
      <trkpt lat="43.02505" lon="1.34758">
        <ele>452.2</ele>
        <time>2022-03-26T15:26:28Z</time>
      </trkpt>
      <trkpt lat="43.02508" lon="1.34734">
        <ele>446.2</ele>
        <time>2022-03-26T15:26:38Z</time>
      </trkpt>
      <trkpt lat="43.02509" lon="1.3473">
        <ele>444.4</ele>
        <time>2022-03-26T15:26:40Z</time>
      </trkpt>
      <trkpt lat="43.02513" lon="1.34711">
        <ele>437.2</ele>
        <time>2022-03-26T15:26:48Z</time>
      </trkpt>
      <trkpt lat="43.02515" lon="1.34688">
        <ele>428.8</ele>
        <time>2022-03-26T15:26:58Z</time>
      </trkpt>
      <trkpt lat="43.02514" lon="1.34663">
        <ele>422.6</ele>
        <time>2022-03-26T15:27:07Z</time>
      </trkpt>
      <trkpt lat="43.02514" lon="1.3466">
        <ele>421.8</ele>
        <time>2022-03-26T15:27:08Z</time>
      </trkpt>
      <trkpt lat="43.02508" lon="1.34637">
        <ele>420.6</ele>
        <time>2022-03-26T15:27:16Z</time>
      </trkpt>
      <trkpt lat="43.02506" lon="1.34631">
        <ele>420.6</ele>
        <time>2022-03-26T15:27:18Z</time>
      </trkpt>
      <trkpt lat="43.02497" lon="1.34609">
        <ele>421.6</ele>
        <time>2022-03-26T15:27:26Z</time>
      </trkpt>
      <trkpt lat="43.02495" lon="1.34604">
        <ele>421.6</ele>
        <time>2022-03-26T15:27:28Z</time>
      </trkpt>
      <trkpt lat="43.02485" lon="1.3458">
        <ele>422.6</ele>
        <time>2022-03-26T15:27:36Z</time>
      </trkpt>
      <trkpt lat="43.02483" lon="1.34574">
        <ele>422.4</ele>
        <time>2022-03-26T15:27:38Z</time>
      </trkpt>
      <trkpt lat="43.02475" lon="1.34552">
        <ele>419.6</ele>
        <time>2022-03-26T15:27:45Z</time>
      </trkpt>
      <trkpt lat="43.02471" lon="1.34542">
        <ele>419</ele>
        <time>2022-03-26T15:27:48Z</time>
      </trkpt>
      <trkpt lat="43.0246" lon="1.34522">
        <ele>415.6</ele>
        <time>2022-03-26T15:27:56Z</time>
      </trkpt>
      <trkpt lat="43.02457" lon="1.34517">
        <ele>414.4</ele>
        <time>2022-03-26T15:27:58Z</time>
      </trkpt>
      <trkpt lat="43.02441" lon="1.34504">
        <ele>408.6</ele>
        <time>2022-03-26T15:28:06Z</time>
      </trkpt>
      <trkpt lat="43.02438" lon="1.34501">
        <ele>407.4</ele>
        <time>2022-03-26T15:28:08Z</time>
      </trkpt>
      <trkpt lat="43.0242" lon="1.34488">
        <ele>405.4</ele>
        <time>2022-03-26T15:28:17Z</time>
      </trkpt>
      <trkpt lat="43.02418" lon="1.34487">
        <ele>404.8</ele>
        <time>2022-03-26T15:28:18Z</time>
      </trkpt>
      <trkpt lat="43.02401" lon="1.34478">
        <ele>398.6</ele>
        <time>2022-03-26T15:28:27Z</time>
      </trkpt>
      <trkpt lat="43.02398" lon="1.34478">
        <ele>398</ele>
        <time>2022-03-26T15:28:28Z</time>
      </trkpt>
      <trkpt lat="43.02381" lon="1.34466">
        <ele>395.6</ele>
        <time>2022-03-26T15:28:36Z</time>
      </trkpt>
      <trkpt lat="43.02377" lon="1.34465">
        <ele>394.8</ele>
        <time>2022-03-26T15:28:38Z</time>
      </trkpt>
      <trkpt lat="43.02359" lon="1.34467">
        <ele>390</ele>
        <time>2022-03-26T15:28:46Z</time>
      </trkpt>
      <trkpt lat="43.02355" lon="1.34469">
        <ele>389</ele>
        <time>2022-03-26T15:28:48Z</time>
      </trkpt>
      <trkpt lat="43.02336" lon="1.34478">
        <ele>383.6</ele>
        <time>2022-03-26T15:28:57Z</time>
      </trkpt>
      <trkpt lat="43.02334" lon="1.34478">
        <ele>382.8</ele>
        <time>2022-03-26T15:28:58Z</time>
      </trkpt>
      <trkpt lat="43.02316" lon="1.34488">
        <ele>380.8</ele>
        <time>2022-03-26T15:29:06Z</time>
      </trkpt>
      <trkpt lat="43.02312" lon="1.34491">
        <ele>380.2</ele>
        <time>2022-03-26T15:29:08Z</time>
      </trkpt>
      <trkpt lat="43.02292" lon="1.34498">
        <ele>380.4</ele>
        <time>2022-03-26T15:29:16Z</time>
      </trkpt>
      <trkpt lat="43.02287" lon="1.34499">
        <ele>380.8</ele>
        <time>2022-03-26T15:29:18Z</time>
      </trkpt>
      <trkpt lat="43.02268" lon="1.34504">
        <ele>381.8</ele>
        <time>2022-03-26T15:29:26Z</time>
      </trkpt>
      <trkpt lat="43.02266" lon="1.34504">
        <ele>381.4</ele>
        <time>2022-03-26T15:29:27Z</time>
      </trkpt>
      <trkpt lat="43.02264" lon="1.34504">
        <ele>381</ele>
        <time>2022-03-26T15:29:28Z</time>
      </trkpt>
      <trkpt lat="43.02246" lon="1.34495">
        <ele>375.4</ele>
        <time>2022-03-26T15:29:36Z</time>
      </trkpt>
      <trkpt lat="43.02242" lon="1.34492">
        <ele>374.2</ele>
        <time>2022-03-26T15:29:38Z</time>
      </trkpt>
      <trkpt lat="43.02223" lon="1.34488">
        <ele>367.2</ele>
        <time>2022-03-26T15:29:47Z</time>
      </trkpt>
      <trkpt lat="43.02221" lon="1.34489">
        <ele>366.2</ele>
        <time>2022-03-26T15:29:48Z</time>
      </trkpt>
      <trkpt lat="43.02202" lon="1.34492">
        <ele>358.4</ele>
        <time>2022-03-26T15:29:58Z</time>
      </trkpt>
      <trkpt lat="43.02186" lon="1.34483">
        <ele>353.2</ele>
        <time>2022-03-26T15:30:07Z</time>
      </trkpt>
      <trkpt lat="43.02185" lon="1.3448">
        <ele>353</ele>
        <time>2022-03-26T15:30:08Z</time>
      </trkpt>
      <trkpt lat="43.02181" lon="1.34454">
        <ele>350.2</ele>
        <time>2022-03-26T15:30:17Z</time>
      </trkpt>
      <trkpt lat="43.02181" lon="1.34452">
        <ele>349.6</ele>
        <time>2022-03-26T15:30:18Z</time>
      </trkpt>
      <trkpt lat="43.0218" lon="1.34446">
        <ele>349</ele>
        <time>2022-03-26T15:30:21Z</time>
      </trkpt>
      <trkpt lat="43.02177" lon="1.34429">
        <ele>351.8</ele>
        <time>2022-03-26T15:30:28Z</time>
      </trkpt>
      <trkpt lat="43.02173" lon="1.34403">
        <ele>353.8</ele>
        <time>2022-03-26T15:30:37Z</time>
      </trkpt>
      <trkpt lat="43.02173" lon="1.344">
        <ele>354.2</ele>
        <time>2022-03-26T15:30:38Z</time>
      </trkpt>
      <trkpt lat="43.02171" lon="1.34375">
        <ele>356.8</ele>
        <time>2022-03-26T15:30:47Z</time>
      </trkpt>
      <trkpt lat="43.02171" lon="1.34372">
        <ele>357.2</ele>
        <time>2022-03-26T15:30:48Z</time>
      </trkpt>
      <trkpt lat="43.02167" lon="1.34346">
        <ele>357.4</ele>
        <time>2022-03-26T15:30:57Z</time>
      </trkpt>
      <trkpt lat="43.02167" lon="1.34343">
        <ele>357.2</ele>
        <time>2022-03-26T15:30:58Z</time>
      </trkpt>
      <trkpt lat="43.02164" lon="1.34318">
        <ele>359.2</ele>
        <time>2022-03-26T15:31:05Z</time>
      </trkpt>
      <trkpt lat="43.02164" lon="1.3431">
        <ele>359</ele>
        <time>2022-03-26T15:31:08Z</time>
      </trkpt>
      <trkpt lat="43.02158" lon="1.34286">
        <ele>358.4</ele>
        <time>2022-03-26T15:31:16Z</time>
      </trkpt>
      <trkpt lat="43.02156" lon="1.3428">
        <ele>357.6</ele>
        <time>2022-03-26T15:31:18Z</time>
      </trkpt>
      <trkpt lat="43.02149" lon="1.34255">
        <ele>353.4</ele>
        <time>2022-03-26T15:31:27Z</time>
      </trkpt>
      <trkpt lat="43.02148" lon="1.34252">
        <ele>353.2</ele>
        <time>2022-03-26T15:31:28Z</time>
      </trkpt>
      <trkpt lat="43.02142" lon="1.34242">
        <ele>349.6</ele>
        <time>2022-03-26T15:31:34Z</time>
      </trkpt>
      <trkpt lat="43.02135" lon="1.34248">
        <ele>346.2</ele>
        <time>2022-03-26T15:31:38Z</time>
      </trkpt>
      <trkpt lat="43.02126" lon="1.34271">
        <ele>343.2</ele>
        <time>2022-03-26T15:31:46Z</time>
      </trkpt>
      <trkpt lat="43.02125" lon="1.34279">
        <ele>343.4</ele>
        <time>2022-03-26T15:31:48Z</time>
      </trkpt>
      <trkpt lat="43.02114" lon="1.34298">
        <ele>340.8</ele>
        <time>2022-03-26T15:31:56Z</time>
      </trkpt>
      <trkpt lat="43.02109" lon="1.343">
        <ele>340</ele>
        <time>2022-03-26T15:31:58Z</time>
      </trkpt>
      <trkpt lat="43.0209" lon="1.34305">
        <ele>341</ele>
        <time>2022-03-26T15:32:05Z</time>
      </trkpt>
      <trkpt lat="43.02082" lon="1.34298">
        <ele>342.8</ele>
        <time>2022-03-26T15:32:08Z</time>
      </trkpt>
      <trkpt lat="43.0207" lon="1.34278">
        <ele>344.2</ele>
        <time>2022-03-26T15:32:15Z</time>
      </trkpt>
      <trkpt lat="43.02066" lon="1.34269">
        <ele>344.4</ele>
        <time>2022-03-26T15:32:18Z</time>
      </trkpt>
      <trkpt lat="43.02059" lon="1.34244">
        <ele>346.8</ele>
        <time>2022-03-26T15:32:26Z</time>
      </trkpt>
      <trkpt lat="43.02058" lon="1.34237">
        <ele>346.8</ele>
        <time>2022-03-26T15:32:28Z</time>
      </trkpt>
      <trkpt lat="43.0205" lon="1.34214">
        <ele>345.2</ele>
        <time>2022-03-26T15:32:36Z</time>
      </trkpt>
      <trkpt lat="43.02047" lon="1.34209">
        <ele>344.2</ele>
        <time>2022-03-26T15:32:38Z</time>
      </trkpt>
      <trkpt lat="43.02041" lon="1.34184">
        <ele>340.6</ele>
        <time>2022-03-26T15:32:47Z</time>
      </trkpt>
      <trkpt lat="43.0204" lon="1.34181">
        <ele>340.8</ele>
        <time>2022-03-26T15:32:48Z</time>
      </trkpt>
      <trkpt lat="43.02034" lon="1.34157">
        <ele>341</ele>
        <time>2022-03-26T15:32:56Z</time>
      </trkpt>
      <trkpt lat="43.02033" lon="1.34152">
        <ele>340</ele>
        <time>2022-03-26T15:32:58Z</time>
      </trkpt>
      <trkpt lat="43.02032" lon="1.34132">
        <ele>337.4</ele>
        <time>2022-03-26T15:33:06Z</time>
      </trkpt>
      <trkpt lat="43.02032" lon="1.34127">
        <ele>337.6</ele>
        <time>2022-03-26T15:33:08Z</time>
      </trkpt>
      <trkpt lat="43.0203" lon="1.341">
        <ele>338.6</ele>
        <time>2022-03-26T15:33:17Z</time>
      </trkpt>
      <trkpt lat="43.02031" lon="1.34097">
        <ele>338.6</ele>
        <time>2022-03-26T15:33:18Z</time>
      </trkpt>
      <trkpt lat="43.02032" lon="1.3408">
        <ele>337.4</ele>
        <time>2022-03-26T15:33:24Z</time>
      </trkpt>
      <trkpt lat="43.02035" lon="1.34069">
        <ele>338.4</ele>
        <time>2022-03-26T15:33:28Z</time>
      </trkpt>
      <trkpt lat="43.02037" lon="1.34044">
        <ele>337.6</ele>
        <time>2022-03-26T15:33:36Z</time>
      </trkpt>
      <trkpt lat="43.02038" lon="1.34037">
        <ele>337.2</ele>
        <time>2022-03-26T15:33:38Z</time>
      </trkpt>
      <trkpt lat="43.02037" lon="1.34011">
        <ele>337.4</ele>
        <time>2022-03-26T15:33:46Z</time>
      </trkpt>
      <trkpt lat="43.02037" lon="1.34004">
        <ele>338</ele>
        <time>2022-03-26T15:33:48Z</time>
      </trkpt>
      <trkpt lat="43.02038" lon="1.33989">
        <ele>338.6</ele>
        <time>2022-03-26T15:33:53Z</time>
      </trkpt>
      <trkpt lat="43.02039" lon="1.33975">
        <ele>339.4</ele>
        <time>2022-03-26T15:33:58Z</time>
      </trkpt>
      <trkpt lat="43.02036" lon="1.3395">
        <ele>338.4</ele>
        <time>2022-03-26T15:34:07Z</time>
      </trkpt>
      <trkpt lat="43.02036" lon="1.33947">
        <ele>338.4</ele>
        <time>2022-03-26T15:34:08Z</time>
      </trkpt>
      <trkpt lat="43.02032" lon="1.33922">
        <ele>335.4</ele>
        <time>2022-03-26T15:34:17Z</time>
      </trkpt>
      <trkpt lat="43.02032" lon="1.33919">
        <ele>335</ele>
        <time>2022-03-26T15:34:18Z</time>
      </trkpt>
      <trkpt lat="43.02029" lon="1.33893">
        <ele>336.8</ele>
        <time>2022-03-26T15:34:27Z</time>
      </trkpt>
      <trkpt lat="43.02029" lon="1.33891">
        <ele>337.4</ele>
        <time>2022-03-26T15:34:28Z</time>
      </trkpt>
      <trkpt lat="43.02022" lon="1.33867">
        <ele>336.8</ele>
        <time>2022-03-26T15:34:36Z</time>
      </trkpt>
      <trkpt lat="43.02019" lon="1.33862">
        <ele>336.2</ele>
        <time>2022-03-26T15:34:38Z</time>
      </trkpt>
      <trkpt lat="43.02008" lon="1.33841">
        <ele>340.2</ele>
        <time>2022-03-26T15:34:48Z</time>
      </trkpt>
      <trkpt lat="43.01997" lon="1.33819">
        <ele>343.2</ele>
        <time>2022-03-26T15:34:57Z</time>
      </trkpt>
      <trkpt lat="43.01996" lon="1.33817">
        <ele>343.6</ele>
        <time>2022-03-26T15:34:58Z</time>
      </trkpt>
      <trkpt lat="43.01985" lon="1.33795">
        <ele>344</ele>
        <time>2022-03-26T15:35:07Z</time>
      </trkpt>
      <trkpt lat="43.01984" lon="1.33792">
        <ele>344</ele>
        <time>2022-03-26T15:35:08Z</time>
      </trkpt>
      <trkpt lat="43.01972" lon="1.33771">
        <ele>345.4</ele>
        <time>2022-03-26T15:35:17Z</time>
      </trkpt>
      <trkpt lat="43.01971" lon="1.33768">
        <ele>345.8</ele>
        <time>2022-03-26T15:35:18Z</time>
      </trkpt>
      <trkpt lat="43.01959" lon="1.33748">
        <ele>347.6</ele>
        <time>2022-03-26T15:35:27Z</time>
      </trkpt>
      <trkpt lat="43.01958" lon="1.33746">
        <ele>347.6</ele>
        <time>2022-03-26T15:35:28Z</time>
      </trkpt>
      <trkpt lat="43.01945" lon="1.33726">
        <ele>348.2</ele>
        <time>2022-03-26T15:35:37Z</time>
      </trkpt>
      <trkpt lat="43.01943" lon="1.33724">
        <ele>348.2</ele>
        <time>2022-03-26T15:35:38Z</time>
      </trkpt>
      <trkpt lat="43.01929" lon="1.33704">
        <ele>348.6</ele>
        <time>2022-03-26T15:35:47Z</time>
      </trkpt>
      <trkpt lat="43.01928" lon="1.33702">
        <ele>348.8</ele>
        <time>2022-03-26T15:35:48Z</time>
      </trkpt>
      <trkpt lat="43.01919" lon="1.33682">
        <ele>346.4</ele>
        <time>2022-03-26T15:35:56Z</time>
      </trkpt>
      <trkpt lat="43.0192" lon="1.33677">
        <ele>345.8</ele>
        <time>2022-03-26T15:35:58Z</time>
      </trkpt>
      <trkpt lat="43.01922" lon="1.33667">
        <ele>342</ele>
        <time>2022-03-26T15:36:03Z</time>
      </trkpt>
      <trkpt lat="43.01923" lon="1.33659">
        <ele>342.2</ele>
        <time>2022-03-26T15:36:08Z</time>
      </trkpt>
      <trkpt lat="43.01922" lon="1.33659">
        <ele>342</ele>
        <time>2022-03-26T15:36:09Z</time>
      </trkpt>
      <trkpt lat="43.0192" lon="1.33662">
        <ele>341.8</ele>
        <time>2022-03-26T15:36:12Z</time>
      </trkpt>
      <trkpt lat="43.01908" lon="1.33669">
        <ele>342.2</ele>
        <time>2022-03-26T15:36:18Z</time>
      </trkpt>
      <trkpt lat="43.01893" lon="1.33686">
        <ele>340.4</ele>
        <time>2022-03-26T15:36:27Z</time>
      </trkpt>
      <trkpt lat="43.01892" lon="1.33688">
        <ele>340</ele>
        <time>2022-03-26T15:36:28Z</time>
      </trkpt>
      <trkpt lat="43.01889" lon="1.33713">
        <ele>342.8</ele>
        <time>2022-03-26T15:36:37Z</time>
      </trkpt>
      <trkpt lat="43.01889" lon="1.33716">
        <ele>342.8</ele>
        <time>2022-03-26T15:36:38Z</time>
      </trkpt>
      <trkpt lat="43.01894" lon="1.33742">
        <ele>345.8</ele>
        <time>2022-03-26T15:36:47Z</time>
      </trkpt>
      <trkpt lat="43.01893" lon="1.33744">
        <ele>346.8</ele>
        <time>2022-03-26T15:36:48Z</time>
      </trkpt>
      <trkpt lat="43.01887" lon="1.33768">
        <ele>348.2</ele>
        <time>2022-03-26T15:36:56Z</time>
      </trkpt>
      <trkpt lat="43.01885" lon="1.33774">
        <ele>348.4</ele>
        <time>2022-03-26T15:36:58Z</time>
      </trkpt>
      <trkpt lat="43.01873" lon="1.33791">
        <ele>353.6</ele>
        <time>2022-03-26T15:37:08Z</time>
      </trkpt>
      <trkpt lat="43.01856" lon="1.33804">
        <ele>354</ele>
        <time>2022-03-26T15:37:18Z</time>
      </trkpt>
      <trkpt lat="43.01841" lon="1.33816">
        <ele>351</ele>
        <time>2022-03-26T15:37:28Z</time>
      </trkpt>
      <trkpt lat="43.01828" lon="1.33831">
        <ele>350.8</ele>
        <time>2022-03-26T15:37:38Z</time>
      </trkpt>
      <trkpt lat="43.01811" lon="1.33841">
        <ele>352.4</ele>
        <time>2022-03-26T15:37:48Z</time>
      </trkpt>
      <trkpt lat="43.01799" lon="1.33846">
        <ele>352.6</ele>
        <time>2022-03-26T15:37:56Z</time>
      </trkpt>
      <trkpt lat="43.01796" lon="1.33849">
        <ele>352.8</ele>
        <time>2022-03-26T15:37:58Z</time>
      </trkpt>
      <trkpt lat="43.01787" lon="1.33866">
        <ele>354.4</ele>
        <time>2022-03-26T15:38:07Z</time>
      </trkpt>
      <trkpt lat="43.01786" lon="1.33868">
        <ele>356</ele>
        <time>2022-03-26T15:38:08Z</time>
      </trkpt>
      <trkpt lat="43.01774" lon="1.33881">
        <ele>360.2</ele>
        <time>2022-03-26T15:38:18Z</time>
      </trkpt>
      <trkpt lat="43.0177" lon="1.33884">
        <ele>362</ele>
        <time>2022-03-26T15:38:22Z</time>
      </trkpt>
      <trkpt lat="43.01764" lon="1.33897">
        <ele>362.4</ele>
        <time>2022-03-26T15:38:28Z</time>
      </trkpt>
      <trkpt lat="43.01763" lon="1.33901">
        <ele>362</ele>
        <time>2022-03-26T15:38:30Z</time>
      </trkpt>
      <trkpt lat="43.01761" lon="1.3391">
        <ele>363.6</ele>
        <time>2022-03-26T15:38:34Z</time>
      </trkpt>
      <trkpt lat="43.01758" lon="1.33917">
        <ele>364.2</ele>
        <time>2022-03-26T15:38:38Z</time>
      </trkpt>
      <trkpt lat="43.01757" lon="1.33919">
        <ele>364.6</ele>
        <time>2022-03-26T15:38:39Z</time>
      </trkpt>
      <trkpt lat="43.01753" lon="1.33923">
        <ele>366.8</ele>
        <time>2022-03-26T15:38:42Z</time>
      </trkpt>
      <trkpt lat="43.01745" lon="1.3393">
        <ele>365.6</ele>
        <time>2022-03-26T15:38:48Z</time>
      </trkpt>
      <trkpt lat="43.01733" lon="1.33944">
        <ele>364.8</ele>
        <time>2022-03-26T15:38:58Z</time>
      </trkpt>
      <trkpt lat="43.01728" lon="1.3395">
        <ele>363.2</ele>
        <time>2022-03-26T15:39:03Z</time>
      </trkpt>
      <trkpt lat="43.01722" lon="1.3396">
        <ele>362.8</ele>
        <time>2022-03-26T15:39:08Z</time>
      </trkpt>
      <trkpt lat="43.01706" lon="1.33972">
        <ele>358.2</ele>
        <time>2022-03-26T15:39:18Z</time>
      </trkpt>
      <trkpt lat="43.01697" lon="1.33977">
        <ele>359.2</ele>
        <time>2022-03-26T15:39:27Z</time>
      </trkpt>
      <trkpt lat="43.01696" lon="1.33977">
        <ele>359.6</ele>
        <time>2022-03-26T15:39:28Z</time>
      </trkpt>
      <trkpt lat="43.01695" lon="1.33975">
        <ele>360.8</ele>
        <time>2022-03-26T15:39:30Z</time>
      </trkpt>
      <trkpt lat="43.01694" lon="1.33962">
        <ele>362.4</ele>
        <time>2022-03-26T15:39:36Z</time>
      </trkpt>
      <trkpt lat="43.01696" lon="1.33959">
        <ele>362.8</ele>
        <time>2022-03-26T15:39:38Z</time>
      </trkpt>
      <trkpt lat="43.01702" lon="1.33949">
        <ele>362.2</ele>
        <time>2022-03-26T15:39:44Z</time>
      </trkpt>
      <trkpt lat="43.01706" lon="1.33942">
        <ele>360.6</ele>
        <time>2022-03-26T15:39:48Z</time>
      </trkpt>
      <trkpt lat="43.01709" lon="1.33935">
        <ele>359.8</ele>
        <time>2022-03-26T15:39:52Z</time>
      </trkpt>
      <trkpt lat="43.01712" lon="1.33925">
        <ele>358.8</ele>
        <time>2022-03-26T15:39:58Z</time>
      </trkpt>
      <trkpt lat="43.01717" lon="1.33909">
        <ele>359</ele>
        <time>2022-03-26T15:40:08Z</time>
      </trkpt>
      <trkpt lat="43.01718" lon="1.33901">
        <ele>358.6</ele>
        <time>2022-03-26T15:40:13Z</time>
      </trkpt>
      <trkpt lat="43.01718" lon="1.33898">
        <ele>359.4</ele>
        <time>2022-03-26T15:40:16Z</time>
      </trkpt>
      <trkpt lat="43.01718" lon="1.33895">
        <ele>360.8</ele>
        <time>2022-03-26T15:40:18Z</time>
      </trkpt>
      <trkpt lat="43.01717" lon="1.33888">
        <ele>363.4</ele>
        <time>2022-03-26T15:40:22Z</time>
      </trkpt>
      <trkpt lat="43.01714" lon="1.33881">
        <ele>365</ele>
        <time>2022-03-26T15:40:26Z</time>
      </trkpt>
      <trkpt lat="43.01713" lon="1.3388">
        <ele>365.8</ele>
        <time>2022-03-26T15:40:28Z</time>
      </trkpt>
      <trkpt lat="43.01712" lon="1.33879">
        <ele>366.6</ele>
        <time>2022-03-26T15:40:29Z</time>
      </trkpt>
      <trkpt lat="43.01709" lon="1.33879">
        <ele>367.2</ele>
        <time>2022-03-26T15:40:32Z</time>
      </trkpt>
      <trkpt lat="43.01702" lon="1.33883">
        <ele>371.4</ele>
        <time>2022-03-26T15:40:38Z</time>
      </trkpt>
      <trkpt lat="43.01696" lon="1.33886">
        <ele>378.4</ele>
        <time>2022-03-26T15:40:46Z</time>
      </trkpt>
      <trkpt lat="43.01695" lon="1.33887">
        <ele>380.4</ele>
        <time>2022-03-26T15:40:48Z</time>
      </trkpt>
      <trkpt lat="43.01691" lon="1.33887">
        <ele>383.2</ele>
        <time>2022-03-26T15:40:52Z</time>
      </trkpt>
      <trkpt lat="43.01689" lon="1.33885">
        <ele>384</ele>
        <time>2022-03-26T15:40:55Z</time>
      </trkpt>
      <trkpt lat="43.01687" lon="1.33883">
        <ele>384.8</ele>
        <time>2022-03-26T15:40:58Z</time>
      </trkpt>
      <trkpt lat="43.01684" lon="1.33874">
        <ele>385.4</ele>
        <time>2022-03-26T15:41:08Z</time>
      </trkpt>
      <trkpt lat="43.01681" lon="1.33864">
        <ele>385.6</ele>
        <time>2022-03-26T15:41:18Z</time>
      </trkpt>
      <trkpt lat="43.01676" lon="1.33855">
        <ele>390.6</ele>
        <time>2022-03-26T15:41:28Z</time>
      </trkpt>
      <trkpt lat="43.01672" lon="1.33848">
        <ele>393.6</ele>
        <time>2022-03-26T15:41:38Z</time>
      </trkpt>
      <trkpt lat="43.0167" lon="1.33838">
        <ele>395.8</ele>
        <time>2022-03-26T15:41:48Z</time>
      </trkpt>
      <trkpt lat="43.01668" lon="1.33825">
        <ele>392</ele>
        <time>2022-03-26T15:41:58Z</time>
      </trkpt>
      <trkpt lat="43.01668" lon="1.33817">
        <ele>389.8</ele>
        <time>2022-03-26T15:42:03Z</time>
      </trkpt>
      <trkpt lat="43.01668" lon="1.33815">
        <ele>389.4</ele>
        <time>2022-03-26T15:42:05Z</time>
      </trkpt>
      <trkpt lat="43.01668" lon="1.33811">
        <ele>389.2</ele>
        <time>2022-03-26T15:42:08Z</time>
      </trkpt>
      <trkpt lat="43.01669" lon="1.338">
        <ele>389.8</ele>
        <time>2022-03-26T15:42:18Z</time>
      </trkpt>
      <trkpt lat="43.01667" lon="1.33788">
        <ele>391.2</ele>
        <time>2022-03-26T15:42:28Z</time>
      </trkpt>
      <trkpt lat="43.01666" lon="1.33783">
        <ele>392.2</ele>
        <time>2022-03-26T15:42:32Z</time>
      </trkpt>
      <trkpt lat="43.01666" lon="1.33778">
        <ele>393.2</ele>
        <time>2022-03-26T15:42:38Z</time>
      </trkpt>
      <trkpt lat="43.01665" lon="1.33768">
        <ele>394.4</ele>
        <time>2022-03-26T15:42:48Z</time>
      </trkpt>
      <trkpt lat="43.01664" lon="1.33755">
        <ele>396.6</ele>
        <time>2022-03-26T15:42:58Z</time>
      </trkpt>
      <trkpt lat="43.01664" lon="1.33753">
        <ele>396.8</ele>
        <time>2022-03-26T15:43:00Z</time>
      </trkpt>
      <trkpt lat="43.01661" lon="1.33742">
        <ele>397.2</ele>
        <time>2022-03-26T15:43:08Z</time>
      </trkpt>
      <trkpt lat="43.01658" lon="1.33735">
        <ele>398.6</ele>
        <time>2022-03-26T15:43:14Z</time>
      </trkpt>
      <trkpt lat="43.01657" lon="1.33733">
        <ele>399.6</ele>
        <time>2022-03-26T15:43:16Z</time>
      </trkpt>
      <trkpt lat="43.01657" lon="1.33731">
        <ele>400</ele>
        <time>2022-03-26T15:43:18Z</time>
      </trkpt>
      <trkpt lat="43.01652" lon="1.33718">
        <ele>400.4</ele>
        <time>2022-03-26T15:43:28Z</time>
      </trkpt>
      <trkpt lat="43.01645" lon="1.33706">
        <ele>404.6</ele>
        <time>2022-03-26T15:43:38Z</time>
      </trkpt>
      <trkpt lat="43.01638" lon="1.33698">
        <ele>410.2</ele>
        <time>2022-03-26T15:43:48Z</time>
      </trkpt>
      <trkpt lat="43.01633" lon="1.33689">
        <ele>414.6</ele>
        <time>2022-03-26T15:43:58Z</time>
      </trkpt>
      <trkpt lat="43.01632" lon="1.33687">
        <ele>415</ele>
        <time>2022-03-26T15:44:00Z</time>
      </trkpt>
      <trkpt lat="43.01631" lon="1.33683">
        <ele>415</ele>
        <time>2022-03-26T15:44:02Z</time>
      </trkpt>
      <trkpt lat="43.01629" lon="1.33673">
        <ele>415.2</ele>
        <time>2022-03-26T15:44:08Z</time>
      </trkpt>
      <trkpt lat="43.01628" lon="1.33659">
        <ele>414.6</ele>
        <time>2022-03-26T15:44:18Z</time>
      </trkpt>
      <trkpt lat="43.01627" lon="1.33644">
        <ele>415.2</ele>
        <time>2022-03-26T15:44:28Z</time>
      </trkpt>
      <trkpt lat="43.01627" lon="1.33631">
        <ele>416.6</ele>
        <time>2022-03-26T15:44:38Z</time>
      </trkpt>
      <trkpt lat="43.01624" lon="1.33615">
        <ele>418.6</ele>
        <time>2022-03-26T15:44:48Z</time>
      </trkpt>
      <trkpt lat="43.01622" lon="1.33599">
        <ele>419.8</ele>
        <time>2022-03-26T15:44:58Z</time>
      </trkpt>
      <trkpt lat="43.01621" lon="1.33583">
        <ele>422.6</ele>
        <time>2022-03-26T15:45:08Z</time>
      </trkpt>
      <trkpt lat="43.01619" lon="1.3357">
        <ele>424.6</ele>
        <time>2022-03-26T15:45:18Z</time>
      </trkpt>
      <trkpt lat="43.01615" lon="1.33555">
        <ele>424.6</ele>
        <time>2022-03-26T15:45:28Z</time>
      </trkpt>
      <trkpt lat="43.01612" lon="1.3354">
        <ele>426.6</ele>
        <time>2022-03-26T15:45:38Z</time>
      </trkpt>
      <trkpt lat="43.01613" lon="1.33522">
        <ele>427.2</ele>
        <time>2022-03-26T15:45:48Z</time>
      </trkpt>
      <trkpt lat="43.01612" lon="1.33502">
        <ele>430</ele>
        <time>2022-03-26T15:45:58Z</time>
      </trkpt>
      <trkpt lat="43.01612" lon="1.33487">
        <ele>431.8</ele>
        <time>2022-03-26T15:46:08Z</time>
      </trkpt>
      <trkpt lat="43.0161" lon="1.33472">
        <ele>435.2</ele>
        <time>2022-03-26T15:46:18Z</time>
      </trkpt>
      <trkpt lat="43.01606" lon="1.33456">
        <ele>438.6</ele>
        <time>2022-03-26T15:46:28Z</time>
      </trkpt>
      <trkpt lat="43.016" lon="1.33441">
        <ele>437.8</ele>
        <time>2022-03-26T15:46:38Z</time>
      </trkpt>
      <trkpt lat="43.01594" lon="1.33427">
        <ele>439.2</ele>
        <time>2022-03-26T15:46:48Z</time>
      </trkpt>
      <trkpt lat="43.01587" lon="1.33414">
        <ele>442.2</ele>
        <time>2022-03-26T15:46:58Z</time>
      </trkpt>
      <trkpt lat="43.01579" lon="1.334">
        <ele>443.8</ele>
        <time>2022-03-26T15:47:08Z</time>
      </trkpt>
      <trkpt lat="43.01573" lon="1.33384">
        <ele>442.8</ele>
        <time>2022-03-26T15:47:18Z</time>
      </trkpt>
      <trkpt lat="43.01565" lon="1.33373">
        <ele>444</ele>
        <time>2022-03-26T15:47:28Z</time>
      </trkpt>
      <trkpt lat="43.01555" lon="1.33361">
        <ele>447.4</ele>
        <time>2022-03-26T15:47:38Z</time>
      </trkpt>
      <trkpt lat="43.01546" lon="1.33351">
        <ele>452.2</ele>
        <time>2022-03-26T15:47:48Z</time>
      </trkpt>
      <trkpt lat="43.01538" lon="1.33337">
        <ele>456.8</ele>
        <time>2022-03-26T15:47:58Z</time>
      </trkpt>
      <trkpt lat="43.01531" lon="1.33318">
        <ele>455.4</ele>
        <time>2022-03-26T15:48:08Z</time>
      </trkpt>
      <trkpt lat="43.01525" lon="1.33304">
        <ele>456.4</ele>
        <time>2022-03-26T15:48:18Z</time>
      </trkpt>
      <trkpt lat="43.01521" lon="1.3329">
        <ele>457</ele>
        <time>2022-03-26T15:48:28Z</time>
      </trkpt>
      <trkpt lat="43.01517" lon="1.33282">
        <ele>458.4</ele>
        <time>2022-03-26T15:48:35Z</time>
      </trkpt>
      <trkpt lat="43.01516" lon="1.33278">
        <ele>458.8</ele>
        <time>2022-03-26T15:48:38Z</time>
      </trkpt>
      <trkpt lat="43.01511" lon="1.33265">
        <ele>457.8</ele>
        <time>2022-03-26T15:48:48Z</time>
      </trkpt>
      <trkpt lat="43.01507" lon="1.33248">
        <ele>460.8</ele>
        <time>2022-03-26T15:48:58Z</time>
      </trkpt>
      <trkpt lat="43.01503" lon="1.3323">
        <ele>461.8</ele>
        <time>2022-03-26T15:49:08Z</time>
      </trkpt>
      <trkpt lat="43.01496" lon="1.3321">
        <ele>461</ele>
        <time>2022-03-26T15:49:18Z</time>
      </trkpt>
      <trkpt lat="43.01487" lon="1.33191">
        <ele>462.4</ele>
        <time>2022-03-26T15:49:28Z</time>
      </trkpt>
      <trkpt lat="43.01479" lon="1.33175">
        <ele>464.2</ele>
        <time>2022-03-26T15:49:38Z</time>
      </trkpt>
      <trkpt lat="43.01468" lon="1.33162">
        <ele>464.6</ele>
        <time>2022-03-26T15:49:48Z</time>
      </trkpt>
      <trkpt lat="43.01463" lon="1.33143">
        <ele>465</ele>
        <time>2022-03-26T15:49:58Z</time>
      </trkpt>
      <trkpt lat="43.01459" lon="1.33124">
        <ele>465.2</ele>
        <time>2022-03-26T15:50:08Z</time>
      </trkpt>
      <trkpt lat="43.01454" lon="1.33105">
        <ele>466.4</ele>
        <time>2022-03-26T15:50:18Z</time>
      </trkpt>
      <trkpt lat="43.01448" lon="1.33086">
        <ele>468.4</ele>
        <time>2022-03-26T15:50:28Z</time>
      </trkpt>
      <trkpt lat="43.01442" lon="1.3307">
        <ele>470.4</ele>
        <time>2022-03-26T15:50:38Z</time>
      </trkpt>
      <trkpt lat="43.01437" lon="1.33056">
        <ele>471.6</ele>
        <time>2022-03-26T15:50:48Z</time>
      </trkpt>
      <trkpt lat="43.01434" lon="1.33044">
        <ele>472.6</ele>
        <time>2022-03-26T15:50:58Z</time>
      </trkpt>
      <trkpt lat="43.0144" lon="1.33046">
        <ele>473.8</ele>
        <time>2022-03-26T15:51:05Z</time>
      </trkpt>
      <trkpt lat="43.01443" lon="1.33047">
        <ele>474.6</ele>
        <time>2022-03-26T15:51:08Z</time>
      </trkpt>
      <trkpt lat="43.01455" lon="1.33045">
        <ele>476.8</ele>
        <time>2022-03-26T15:51:18Z</time>
      </trkpt>
      <trkpt lat="43.01465" lon="1.33047">
        <ele>480.8</ele>
        <time>2022-03-26T15:51:28Z</time>
      </trkpt>
      <trkpt lat="43.01476" lon="1.33048">
        <ele>483.2</ele>
        <time>2022-03-26T15:51:38Z</time>
      </trkpt>
      <trkpt lat="43.01484" lon="1.33049">
        <ele>484.4</ele>
        <time>2022-03-26T15:51:48Z</time>
      </trkpt>
      <trkpt lat="43.01497" lon="1.33054">
        <ele>487.8</ele>
        <time>2022-03-26T15:51:58Z</time>
      </trkpt>
      <trkpt lat="43.0151" lon="1.33066">
        <ele>489.2</ele>
        <time>2022-03-26T15:52:08Z</time>
      </trkpt>
      <trkpt lat="43.01527" lon="1.33078">
        <ele>491</ele>
        <time>2022-03-26T15:52:18Z</time>
      </trkpt>
      <trkpt lat="43.01543" lon="1.33087">
        <ele>491.4</ele>
        <time>2022-03-26T15:52:28Z</time>
      </trkpt>
      <trkpt lat="43.01561" lon="1.33093">
        <ele>492.8</ele>
        <time>2022-03-26T15:52:38Z</time>
      </trkpt>
      <trkpt lat="43.0158" lon="1.33098">
        <ele>494.2</ele>
        <time>2022-03-26T15:52:48Z</time>
      </trkpt>
      <trkpt lat="43.01599" lon="1.33097">
        <ele>495</ele>
        <time>2022-03-26T15:52:58Z</time>
      </trkpt>
      <trkpt lat="43.01618" lon="1.33095">
        <ele>495.4</ele>
        <time>2022-03-26T15:53:07Z</time>
      </trkpt>
      <trkpt lat="43.0162" lon="1.33095">
        <ele>495.4</ele>
        <time>2022-03-26T15:53:08Z</time>
      </trkpt>
      <trkpt lat="43.01638" lon="1.33098">
        <ele>492.8</ele>
        <time>2022-03-26T15:53:18Z</time>
      </trkpt>
      <trkpt lat="43.01654" lon="1.3311">
        <ele>488.4</ele>
        <time>2022-03-26T15:53:28Z</time>
      </trkpt>
      <trkpt lat="43.01664" lon="1.33134">
        <ele>488.8</ele>
        <time>2022-03-26T15:53:38Z</time>
      </trkpt>
      <trkpt lat="43.01679" lon="1.33133">
        <ele>491.4</ele>
        <time>2022-03-26T15:53:48Z</time>
      </trkpt>
      <trkpt lat="43.01691" lon="1.33121">
        <ele>490.4</ele>
        <time>2022-03-26T15:53:58Z</time>
      </trkpt>
      <trkpt lat="43.01694" lon="1.33118">
        <ele>490.6</ele>
        <time>2022-03-26T15:54:01Z</time>
      </trkpt>
      <trkpt lat="43.01696" lon="1.33115">
        <ele>489.8</ele>
        <time>2022-03-26T15:54:03Z</time>
      </trkpt>
      <trkpt lat="43.017" lon="1.33107">
        <ele>490</ele>
        <time>2022-03-26T15:54:08Z</time>
      </trkpt>
      <trkpt lat="43.01703" lon="1.33091">
        <ele>489.4</ele>
        <time>2022-03-26T15:54:18Z</time>
      </trkpt>
      <trkpt lat="43.01701" lon="1.33082">
        <ele>491.4</ele>
        <time>2022-03-26T15:54:28Z</time>
      </trkpt>
      <trkpt lat="43.01698" lon="1.33075">
        <ele>492.8</ele>
        <time>2022-03-26T15:54:38Z</time>
      </trkpt>
      <trkpt lat="43.01696" lon="1.33069">
        <ele>499.2</ele>
        <time>2022-03-26T15:54:48Z</time>
      </trkpt>
      <trkpt lat="43.01689" lon="1.33063">
        <ele>503.4</ele>
        <time>2022-03-26T15:54:58Z</time>
      </trkpt>
      <trkpt lat="43.01682" lon="1.33058">
        <ele>509.4</ele>
        <time>2022-03-26T15:55:08Z</time>
      </trkpt>
      <trkpt lat="43.01681" lon="1.33054">
        <ele>510.2</ele>
        <time>2022-03-26T15:55:11Z</time>
      </trkpt>
      <trkpt lat="43.01681" lon="1.33046">
        <ele>511.8</ele>
        <time>2022-03-26T15:55:18Z</time>
      </trkpt>
      <trkpt lat="43.0168" lon="1.33043">
        <ele>512.6</ele>
        <time>2022-03-26T15:55:20Z</time>
      </trkpt>
      <trkpt lat="43.0168" lon="1.33039">
        <ele>513</ele>
        <time>2022-03-26T15:55:24Z</time>
      </trkpt>
      <trkpt lat="43.01679" lon="1.33036">
        <ele>513.4</ele>
        <time>2022-03-26T15:55:26Z</time>
      </trkpt>
      <trkpt lat="43.01679" lon="1.33032">
        <ele>514</ele>
        <time>2022-03-26T15:55:28Z</time>
      </trkpt>
      <trkpt lat="43.01679" lon="1.33019">
        <ele>515.6</ele>
        <time>2022-03-26T15:55:38Z</time>
      </trkpt>
      <trkpt lat="43.01679" lon="1.33016">
        <ele>516</ele>
        <time>2022-03-26T15:55:40Z</time>
      </trkpt>
      <trkpt lat="43.01683" lon="1.33002">
        <ele>516.2</ele>
        <time>2022-03-26T15:55:48Z</time>
      </trkpt>
      <trkpt lat="43.01687" lon="1.32978">
        <ele>516.8</ele>
        <time>2022-03-26T15:55:58Z</time>
      </trkpt>
      <trkpt lat="43.01689" lon="1.32967">
        <ele>516.8</ele>
        <time>2022-03-26T15:56:03Z</time>
      </trkpt>
      <trkpt lat="43.01688" lon="1.32963">
        <ele>516.4</ele>
        <time>2022-03-26T15:56:05Z</time>
      </trkpt>
      <trkpt lat="43.01687" lon="1.32957">
        <ele>515.8</ele>
        <time>2022-03-26T15:56:08Z</time>
      </trkpt>
      <trkpt lat="43.01688" lon="1.3294">
        <ele>515.8</ele>
        <time>2022-03-26T15:56:15Z</time>
      </trkpt>
      <trkpt lat="43.01691" lon="1.32937">
        <ele>516</ele>
        <time>2022-03-26T15:56:17Z</time>
      </trkpt>
      <trkpt lat="43.01692" lon="1.32935">
        <ele>516</ele>
        <time>2022-03-26T15:56:18Z</time>
      </trkpt>
      <trkpt lat="43.01698" lon="1.32915">
        <ele>514.8</ele>
        <time>2022-03-26T15:56:28Z</time>
      </trkpt>
      <trkpt lat="43.01702" lon="1.329">
        <ele>515</ele>
        <time>2022-03-26T15:56:38Z</time>
      </trkpt>
      <trkpt lat="43.01703" lon="1.32896">
        <ele>515</ele>
        <time>2022-03-26T15:56:41Z</time>
      </trkpt>
      <trkpt lat="43.01708" lon="1.32881">
        <ele>514.4</ele>
        <time>2022-03-26T15:56:48Z</time>
      </trkpt>
      <trkpt lat="43.01715" lon="1.32857">
        <ele>515.8</ele>
        <time>2022-03-26T15:56:58Z</time>
      </trkpt>
      <trkpt lat="43.01718" lon="1.32834">
        <ele>515.6</ele>
        <time>2022-03-26T15:57:08Z</time>
      </trkpt>
      <trkpt lat="43.01727" lon="1.32821">
        <ele>510.8</ele>
        <time>2022-03-26T15:57:18Z</time>
      </trkpt>
      <trkpt lat="43.01738" lon="1.32799">
        <ele>505.6</ele>
        <time>2022-03-26T15:57:27Z</time>
      </trkpt>
      <trkpt lat="43.0174" lon="1.32797">
        <ele>504.8</ele>
        <time>2022-03-26T15:57:28Z</time>
      </trkpt>
      <trkpt lat="43.01754" lon="1.32777">
        <ele>500</ele>
        <time>2022-03-26T15:57:36Z</time>
      </trkpt>
      <trkpt lat="43.01758" lon="1.32774">
        <ele>499.2</ele>
        <time>2022-03-26T15:57:38Z</time>
      </trkpt>
      <trkpt lat="43.01772" lon="1.32761">
        <ele>493</ele>
        <time>2022-03-26T15:57:48Z</time>
      </trkpt>
      <trkpt lat="43.01778" lon="1.32745">
        <ele>493.2</ele>
        <time>2022-03-26T15:57:54Z</time>
      </trkpt>
      <trkpt lat="43.01774" lon="1.32732">
        <ele>494.6</ele>
        <time>2022-03-26T15:57:58Z</time>
      </trkpt>
      <trkpt lat="43.01771" lon="1.32718">
        <ele>495.4</ele>
        <time>2022-03-26T15:58:03Z</time>
      </trkpt>
      <trkpt lat="43.01779" lon="1.32711">
        <ele>494</ele>
        <time>2022-03-26T15:58:08Z</time>
      </trkpt>
      <trkpt lat="43.01795" lon="1.32697">
        <ele>490.8</ele>
        <time>2022-03-26T15:58:17Z</time>
      </trkpt>
      <trkpt lat="43.01797" lon="1.32695">
        <ele>489.8</ele>
        <time>2022-03-26T15:58:18Z</time>
      </trkpt>
      <trkpt lat="43.01808" lon="1.32675">
        <ele>482.4</ele>
        <time>2022-03-26T15:58:27Z</time>
      </trkpt>
      <trkpt lat="43.01808" lon="1.32672">
        <ele>482.2</ele>
        <time>2022-03-26T15:58:28Z</time>
      </trkpt>
      <trkpt lat="43.01815" lon="1.32649">
        <ele>477</ele>
        <time>2022-03-26T15:58:35Z</time>
      </trkpt>
      <trkpt lat="43.0182" lon="1.32642">
        <ele>474.8</ele>
        <time>2022-03-26T15:58:38Z</time>
      </trkpt>
      <trkpt lat="43.01827" lon="1.32617">
        <ele>471.8</ele>
        <time>2022-03-26T15:58:46Z</time>
      </trkpt>
      <trkpt lat="43.01826" lon="1.32609">
        <ele>472</ele>
        <time>2022-03-26T15:58:48Z</time>
      </trkpt>
      <trkpt lat="43.01827" lon="1.32581">
        <ele>472</ele>
        <time>2022-03-26T15:58:55Z</time>
      </trkpt>
      <trkpt lat="43.01826" lon="1.32569">
        <ele>471.4</ele>
        <time>2022-03-26T15:58:58Z</time>
      </trkpt>
      <trkpt lat="43.01828" lon="1.32544">
        <ele>471.2</ele>
        <time>2022-03-26T15:59:05Z</time>
      </trkpt>
      <trkpt lat="43.01829" lon="1.32534">
        <ele>470.8</ele>
        <time>2022-03-26T15:59:08Z</time>
      </trkpt>
      <trkpt lat="43.01829" lon="1.32509">
        <ele>470.2</ele>
        <time>2022-03-26T15:59:16Z</time>
      </trkpt>
      <trkpt lat="43.01828" lon="1.32502">
        <ele>470.8</ele>
        <time>2022-03-26T15:59:18Z</time>
      </trkpt>
      <trkpt lat="43.01825" lon="1.32474">
        <ele>473.6</ele>
        <time>2022-03-26T15:59:26Z</time>
      </trkpt>
      <trkpt lat="43.01824" lon="1.32468">
        <ele>473.8</ele>
        <time>2022-03-26T15:59:28Z</time>
      </trkpt>
      <trkpt lat="43.01821" lon="1.32443">
        <ele>476</ele>
        <time>2022-03-26T15:59:36Z</time>
      </trkpt>
      <trkpt lat="43.0182" lon="1.32437">
        <ele>475.6</ele>
        <time>2022-03-26T15:59:38Z</time>
      </trkpt>
      <trkpt lat="43.01824" lon="1.32411">
        <ele>475</ele>
        <time>2022-03-26T15:59:47Z</time>
      </trkpt>
      <trkpt lat="43.01825" lon="1.32408">
        <ele>475.2</ele>
        <time>2022-03-26T15:59:48Z</time>
      </trkpt>
      <trkpt lat="43.01829" lon="1.32393">
        <ele>475.2</ele>
        <time>2022-03-26T15:59:54Z</time>
      </trkpt>
      <trkpt lat="43.01824" lon="1.32386">
        <ele>476.6</ele>
        <time>2022-03-26T15:59:58Z</time>
      </trkpt>
      <trkpt lat="43.01812" lon="1.32366">
        <ele>478</ele>
        <time>2022-03-26T16:00:08Z</time>
      </trkpt>
      <trkpt lat="43.018" lon="1.32347">
        <ele>479.8</ele>
        <time>2022-03-26T16:00:18Z</time>
      </trkpt>
      <trkpt lat="43.01783" lon="1.32334">
        <ele>481</ele>
        <time>2022-03-26T16:00:28Z</time>
      </trkpt>
      <trkpt lat="43.01773" lon="1.32324">
        <ele>484.2</ele>
        <time>2022-03-26T16:00:38Z</time>
      </trkpt>
      <trkpt lat="43.01765" lon="1.32318">
        <ele>486</ele>
        <time>2022-03-26T16:00:45Z</time>
      </trkpt>
      <trkpt lat="43.01762" lon="1.32314">
        <ele>486.6</ele>
        <time>2022-03-26T16:00:48Z</time>
      </trkpt>
      <trkpt lat="43.01752" lon="1.32305">
        <ele>492.4</ele>
        <time>2022-03-26T16:00:58Z</time>
      </trkpt>
      <trkpt lat="43.01741" lon="1.32295">
        <ele>499</ele>
        <time>2022-03-26T16:01:08Z</time>
      </trkpt>
      <trkpt lat="43.01727" lon="1.32278">
        <ele>499.4</ele>
        <time>2022-03-26T16:01:17Z</time>
      </trkpt>
      <trkpt lat="43.01726" lon="1.32276">
        <ele>499.2</ele>
        <time>2022-03-26T16:01:18Z</time>
      </trkpt>
      <trkpt lat="43.0171" lon="1.32263">
        <ele>494</ele>
        <time>2022-03-26T16:01:27Z</time>
      </trkpt>
      <trkpt lat="43.01707" lon="1.32262">
        <ele>493.2</ele>
        <time>2022-03-26T16:01:28Z</time>
      </trkpt>
      <trkpt lat="43.01688" lon="1.32258">
        <ele>490.4</ele>
        <time>2022-03-26T16:01:37Z</time>
      </trkpt>
      <trkpt lat="43.01685" lon="1.32258">
        <ele>490</ele>
        <time>2022-03-26T16:01:38Z</time>
      </trkpt>
      <trkpt lat="43.01667" lon="1.32252">
        <ele>489.6</ele>
        <time>2022-03-26T16:01:47Z</time>
      </trkpt>
      <trkpt lat="43.01665" lon="1.32252">
        <ele>489.2</ele>
        <time>2022-03-26T16:01:48Z</time>
      </trkpt>
      <trkpt lat="43.01647" lon="1.32246">
        <ele>490.4</ele>
        <time>2022-03-26T16:01:57Z</time>
      </trkpt>
      <trkpt lat="43.01645" lon="1.32246">
        <ele>491.2</ele>
        <time>2022-03-26T16:01:58Z</time>
      </trkpt>
      <trkpt lat="43.01629" lon="1.32242">
        <ele>494</ele>
        <time>2022-03-26T16:02:08Z</time>
      </trkpt>
      <trkpt lat="43.01616" lon="1.32241">
        <ele>498.2</ele>
        <time>2022-03-26T16:02:18Z</time>
      </trkpt>
      <trkpt lat="43.01604" lon="1.32245">
        <ele>502</ele>
        <time>2022-03-26T16:02:28Z</time>
      </trkpt>
      <trkpt lat="43.01595" lon="1.32251">
        <ele>504.2</ele>
        <time>2022-03-26T16:02:38Z</time>
      </trkpt>
      <trkpt lat="43.01586" lon="1.32256">
        <ele>504.4</ele>
        <time>2022-03-26T16:02:48Z</time>
      </trkpt>
      <trkpt lat="43.01576" lon="1.32256">
        <ele>504.8</ele>
        <time>2022-03-26T16:02:58Z</time>
      </trkpt>
      <trkpt lat="43.01566" lon="1.32259">
        <ele>504.8</ele>
        <time>2022-03-26T16:03:08Z</time>
      </trkpt>
      <trkpt lat="43.01556" lon="1.32259">
        <ele>501.8</ele>
        <time>2022-03-26T16:03:18Z</time>
      </trkpt>
      <trkpt lat="43.01544" lon="1.32263">
        <ele>506.4</ele>
        <time>2022-03-26T16:03:28Z</time>
      </trkpt>
      <trkpt lat="43.01533" lon="1.32262">
        <ele>509</ele>
        <time>2022-03-26T16:03:38Z</time>
      </trkpt>
      <trkpt lat="43.01523" lon="1.32258">
        <ele>508.8</ele>
        <time>2022-03-26T16:03:48Z</time>
      </trkpt>
      <trkpt lat="43.01522" lon="1.32256">
        <ele>509.2</ele>
        <time>2022-03-26T16:03:51Z</time>
      </trkpt>
      <trkpt lat="43.01519" lon="1.32254">
        <ele>509.4</ele>
        <time>2022-03-26T16:03:54Z</time>
      </trkpt>
      <trkpt lat="43.01517" lon="1.32251">
        <ele>511</ele>
        <time>2022-03-26T16:03:56Z</time>
      </trkpt>
      <trkpt lat="43.01514" lon="1.32249">
        <ele>511.6</ele>
        <time>2022-03-26T16:03:58Z</time>
      </trkpt>
      <trkpt lat="43.01503" lon="1.32245">
        <ele>514.8</ele>
        <time>2022-03-26T16:04:08Z</time>
      </trkpt>
      <trkpt lat="43.01493" lon="1.32241">
        <ele>519</ele>
        <time>2022-03-26T16:04:18Z</time>
      </trkpt>
      <trkpt lat="43.01491" lon="1.3224">
        <ele>519.8</ele>
        <time>2022-03-26T16:04:20Z</time>
      </trkpt>
      <trkpt lat="43.01483" lon="1.32235">
        <ele>522.2</ele>
        <time>2022-03-26T16:04:28Z</time>
      </trkpt>
      <trkpt lat="43.01473" lon="1.32226">
        <ele>525.6</ele>
        <time>2022-03-26T16:04:38Z</time>
      </trkpt>
      <trkpt lat="43.01463" lon="1.3222">
        <ele>525.8</ele>
        <time>2022-03-26T16:04:48Z</time>
      </trkpt>
      <trkpt lat="43.01451" lon="1.32213">
        <ele>527.8</ele>
        <time>2022-03-26T16:04:58Z</time>
      </trkpt>
      <trkpt lat="43.01435" lon="1.32205">
        <ele>528.4</ele>
        <time>2022-03-26T16:05:08Z</time>
      </trkpt>
      <trkpt lat="43.01418" lon="1.32204">
        <ele>528.8</ele>
        <time>2022-03-26T16:05:18Z</time>
      </trkpt>
      <trkpt lat="43.01403" lon="1.32206">
        <ele>530.2</ele>
        <time>2022-03-26T16:05:28Z</time>
      </trkpt>
      <trkpt lat="43.01401" lon="1.32206">
        <ele>530.4</ele>
        <time>2022-03-26T16:05:29Z</time>
      </trkpt>
      <trkpt lat="43.0139" lon="1.32207">
        <ele>531</ele>
        <time>2022-03-26T16:05:38Z</time>
      </trkpt>
      <trkpt lat="43.01379" lon="1.32208">
        <ele>534.6</ele>
        <time>2022-03-26T16:05:48Z</time>
      </trkpt>
      <trkpt lat="43.01367" lon="1.32206">
        <ele>534.2</ele>
        <time>2022-03-26T16:05:58Z</time>
      </trkpt>
      <trkpt lat="43.01354" lon="1.32199">
        <ele>532.8</ele>
        <time>2022-03-26T16:06:08Z</time>
      </trkpt>
      <trkpt lat="43.01339" lon="1.32192">
        <ele>533.6</ele>
        <time>2022-03-26T16:06:18Z</time>
      </trkpt>
      <trkpt lat="43.01322" lon="1.32192">
        <ele>539.6</ele>
        <time>2022-03-26T16:06:28Z</time>
      </trkpt>
      <trkpt lat="43.01304" lon="1.3219">
        <ele>541.8</ele>
        <time>2022-03-26T16:06:38Z</time>
      </trkpt>
      <trkpt lat="43.01285" lon="1.32186">
        <ele>539</ele>
        <time>2022-03-26T16:06:46Z</time>
      </trkpt>
      <trkpt lat="43.01281" lon="1.32185">
        <ele>538</ele>
        <time>2022-03-26T16:06:48Z</time>
      </trkpt>
      <trkpt lat="43.01262" lon="1.32179">
        <ele>535.4</ele>
        <time>2022-03-26T16:06:58Z</time>
      </trkpt>
      <trkpt lat="43.01244" lon="1.32172">
        <ele>537.6</ele>
        <time>2022-03-26T16:07:06Z</time>
      </trkpt>
      <trkpt lat="43.01239" lon="1.32171">
        <ele>537.6</ele>
        <time>2022-03-26T16:07:08Z</time>
      </trkpt>
      <trkpt lat="43.01219" lon="1.32171">
        <ele>537.8</ele>
        <time>2022-03-26T16:07:17Z</time>
      </trkpt>
      <trkpt lat="43.01216" lon="1.3217">
        <ele>537.8</ele>
        <time>2022-03-26T16:07:18Z</time>
      </trkpt>
      <trkpt lat="43.01197" lon="1.32167">
        <ele>536</ele>
        <time>2022-03-26T16:07:26Z</time>
      </trkpt>
      <trkpt lat="43.01192" lon="1.32167">
        <ele>535.2</ele>
        <time>2022-03-26T16:07:28Z</time>
      </trkpt>
      <trkpt lat="43.01173" lon="1.32168">
        <ele>533.4</ele>
        <time>2022-03-26T16:07:36Z</time>
      </trkpt>
      <trkpt lat="43.01169" lon="1.32169">
        <ele>532.2</ele>
        <time>2022-03-26T16:07:38Z</time>
      </trkpt>
      <trkpt lat="43.0115" lon="1.32174">
        <ele>530.8</ele>
        <time>2022-03-26T16:07:47Z</time>
      </trkpt>
      <trkpt lat="43.01148" lon="1.32175">
        <ele>531</ele>
        <time>2022-03-26T16:07:48Z</time>
      </trkpt>
      <trkpt lat="43.0113" lon="1.32181">
        <ele>527.2</ele>
        <time>2022-03-26T16:07:56Z</time>
      </trkpt>
      <trkpt lat="43.01128" lon="1.32184">
        <ele>527</ele>
        <time>2022-03-26T16:07:57Z</time>
      </trkpt>
      <trkpt lat="43.01128" lon="1.32187">
        <ele>526.6</ele>
        <time>2022-03-26T16:07:58Z</time>
      </trkpt>
      <trkpt lat="43.01126" lon="1.32214">
        <ele>521.8</ele>
        <time>2022-03-26T16:08:07Z</time>
      </trkpt>
      <trkpt lat="43.01125" lon="1.32218">
        <ele>521.8</ele>
        <time>2022-03-26T16:08:08Z</time>
      </trkpt>
      <trkpt lat="43.01116" lon="1.32239">
        <ele>519.6</ele>
        <time>2022-03-26T16:08:15Z</time>
      </trkpt>
      <trkpt lat="43.01113" lon="1.32251">
        <ele>521.6</ele>
        <time>2022-03-26T16:08:18Z</time>
      </trkpt>
      <trkpt lat="43.01112" lon="1.32279">
        <ele>523.8</ele>
        <time>2022-03-26T16:08:25Z</time>
      </trkpt>
      <trkpt lat="43.01113" lon="1.3229">
        <ele>523.6</ele>
        <time>2022-03-26T16:08:28Z</time>
      </trkpt>
      <trkpt lat="43.01112" lon="1.32317">
        <ele>521.8</ele>
        <time>2022-03-26T16:08:37Z</time>
      </trkpt>
      <trkpt lat="43.01112" lon="1.3232">
        <ele>521.4</ele>
        <time>2022-03-26T16:08:38Z</time>
      </trkpt>
      <trkpt lat="43.01113" lon="1.32345">
        <ele>514.2</ele>
        <time>2022-03-26T16:08:47Z</time>
      </trkpt>
      <trkpt lat="43.01114" lon="1.32348">
        <ele>513.6</ele>
        <time>2022-03-26T16:08:48Z</time>
      </trkpt>
      <trkpt lat="43.01121" lon="1.32372">
        <ele>506.8</ele>
        <time>2022-03-26T16:08:57Z</time>
      </trkpt>
      <trkpt lat="43.01121" lon="1.32375">
        <ele>506.6</ele>
        <time>2022-03-26T16:08:58Z</time>
      </trkpt>
      <trkpt lat="43.01119" lon="1.32387">
        <ele>504.8</ele>
        <time>2022-03-26T16:09:02Z</time>
      </trkpt>
      <trkpt lat="43.01123" lon="1.32402">
        <ele>500</ele>
        <time>2022-03-26T16:09:08Z</time>
      </trkpt>
      <trkpt lat="43.01127" lon="1.32425">
        <ele>493.4</ele>
        <time>2022-03-26T16:09:18Z</time>
      </trkpt>
      <trkpt lat="43.01132" lon="1.32451">
        <ele>485.6</ele>
        <time>2022-03-26T16:09:26Z</time>
      </trkpt>
      <trkpt lat="43.01135" lon="1.32459">
        <ele>484.6</ele>
        <time>2022-03-26T16:09:28Z</time>
      </trkpt>
      <trkpt lat="43.01144" lon="1.32481">
        <ele>482.8</ele>
        <time>2022-03-26T16:09:34Z</time>
      </trkpt>
      <trkpt lat="43.01151" lon="1.32496">
        <ele>481.4</ele>
        <time>2022-03-26T16:09:38Z</time>
      </trkpt>
      <trkpt lat="43.01162" lon="1.32518">
        <ele>481.8</ele>
        <time>2022-03-26T16:09:44Z</time>
      </trkpt>
      <trkpt lat="43.01169" lon="1.32532">
        <ele>480.8</ele>
        <time>2022-03-26T16:09:48Z</time>
      </trkpt>
      <trkpt lat="43.0118" lon="1.32552">
        <ele>477.6</ele>
        <time>2022-03-26T16:09:54Z</time>
      </trkpt>
      <trkpt lat="43.01187" lon="1.32565">
        <ele>476.2</ele>
        <time>2022-03-26T16:09:58Z</time>
      </trkpt>
      <trkpt lat="43.01198" lon="1.32586">
        <ele>473.6</ele>
        <time>2022-03-26T16:10:04Z</time>
      </trkpt>
      <trkpt lat="43.01205" lon="1.32598">
        <ele>472.4</ele>
        <time>2022-03-26T16:10:08Z</time>
      </trkpt>
      <trkpt lat="43.01215" lon="1.32619">
        <ele>473.8</ele>
        <time>2022-03-26T16:10:15Z</time>
      </trkpt>
      <trkpt lat="43.0122" lon="1.32627">
        <ele>474.6</ele>
        <time>2022-03-26T16:10:18Z</time>
      </trkpt>
      <trkpt lat="43.01231" lon="1.32649">
        <ele>474.6</ele>
        <time>2022-03-26T16:10:26Z</time>
      </trkpt>
      <trkpt lat="43.01233" lon="1.32655">
        <ele>474.6</ele>
        <time>2022-03-26T16:10:28Z</time>
      </trkpt>
      <trkpt lat="43.01237" lon="1.32682">
        <ele>476.2</ele>
        <time>2022-03-26T16:10:36Z</time>
      </trkpt>
      <trkpt lat="43.01235" lon="1.32688">
        <ele>476.6</ele>
        <time>2022-03-26T16:10:38Z</time>
      </trkpt>
      <trkpt lat="43.01228" lon="1.32705">
        <ele>476.8</ele>
        <time>2022-03-26T16:10:48Z</time>
      </trkpt>
      <trkpt lat="43.01223" lon="1.32718">
        <ele>477</ele>
        <time>2022-03-26T16:10:58Z</time>
      </trkpt>
      <trkpt lat="43.0122" lon="1.32731">
        <ele>476.4</ele>
        <time>2022-03-26T16:11:08Z</time>
      </trkpt>
      <trkpt lat="43.01219" lon="1.32744">
        <ele>481.4</ele>
        <time>2022-03-26T16:11:18Z</time>
      </trkpt>
      <trkpt lat="43.01226" lon="1.32756">
        <ele>485.2</ele>
        <time>2022-03-26T16:11:28Z</time>
      </trkpt>
      <trkpt lat="43.01233" lon="1.32766">
        <ele>489.2</ele>
        <time>2022-03-26T16:11:38Z</time>
      </trkpt>
      <trkpt lat="43.01237" lon="1.32779">
        <ele>492</ele>
        <time>2022-03-26T16:11:48Z</time>
      </trkpt>
      <trkpt lat="43.01242" lon="1.32796">
        <ele>492.6</ele>
        <time>2022-03-26T16:11:58Z</time>
      </trkpt>
      <trkpt lat="43.01251" lon="1.32815">
        <ele>491.6</ele>
        <time>2022-03-26T16:12:08Z</time>
      </trkpt>
      <trkpt lat="43.01257" lon="1.32826">
        <ele>491.2</ele>
        <time>2022-03-26T16:12:14Z</time>
      </trkpt>
      <trkpt lat="43.01261" lon="1.32833">
        <ele>490</ele>
        <time>2022-03-26T16:12:18Z</time>
      </trkpt>
      <trkpt lat="43.01272" lon="1.3285">
        <ele>490</ele>
        <time>2022-03-26T16:12:28Z</time>
      </trkpt>
      <trkpt lat="43.01282" lon="1.3287">
        <ele>489.4</ele>
        <time>2022-03-26T16:12:37Z</time>
      </trkpt>
      <trkpt lat="43.01284" lon="1.32872">
        <ele>489.2</ele>
        <time>2022-03-26T16:12:38Z</time>
      </trkpt>
      <trkpt lat="43.01297" lon="1.32889">
        <ele>487.4</ele>
        <time>2022-03-26T16:12:46Z</time>
      </trkpt>
      <trkpt lat="43.013" lon="1.32895">
        <ele>487</ele>
        <time>2022-03-26T16:12:48Z</time>
      </trkpt>
      <trkpt lat="43.01309" lon="1.3292">
        <ele>490.6</ele>
        <time>2022-03-26T16:12:56Z</time>
      </trkpt>
      <trkpt lat="43.01312" lon="1.32926">
        <ele>492</ele>
        <time>2022-03-26T16:12:58Z</time>
      </trkpt>
      <trkpt lat="43.01323" lon="1.32949">
        <ele>494.8</ele>
        <time>2022-03-26T16:13:06Z</time>
      </trkpt>
      <trkpt lat="43.01326" lon="1.32954">
        <ele>494.6</ele>
        <time>2022-03-26T16:13:08Z</time>
      </trkpt>
      <trkpt lat="43.01338" lon="1.32973">
        <ele>491.2</ele>
        <time>2022-03-26T16:13:16Z</time>
      </trkpt>
      <trkpt lat="43.01342" lon="1.32977">
        <ele>490.6</ele>
        <time>2022-03-26T16:13:18Z</time>
      </trkpt>
      <trkpt lat="43.01361" lon="1.32983">
        <ele>489.4</ele>
        <time>2022-03-26T16:13:26Z</time>
      </trkpt>
      <trkpt lat="43.01367" lon="1.32984">
        <ele>489.2</ele>
        <time>2022-03-26T16:13:28Z</time>
      </trkpt>
      <trkpt lat="43.01385" lon="1.3299">
        <ele>488.2</ele>
        <time>2022-03-26T16:13:35Z</time>
      </trkpt>
      <trkpt lat="43.01392" lon="1.32994">
        <ele>487.2</ele>
        <time>2022-03-26T16:13:38Z</time>
      </trkpt>
      <trkpt lat="43.01407" lon="1.33012">
        <ele>484.8</ele>
        <time>2022-03-26T16:13:46Z</time>
      </trkpt>
      <trkpt lat="43.01411" lon="1.33017">
        <ele>484.8</ele>
        <time>2022-03-26T16:13:48Z</time>
      </trkpt>
      <trkpt lat="43.01427" lon="1.33032">
        <ele>482.6</ele>
        <time>2022-03-26T16:13:56Z</time>
      </trkpt>
      <trkpt lat="43.0143" lon="1.33037">
        <ele>481.8</ele>
        <time>2022-03-26T16:13:58Z</time>
      </trkpt>
      <trkpt lat="43.01441" lon="1.33061">
        <ele>478</ele>
        <time>2022-03-26T16:14:06Z</time>
      </trkpt>
      <trkpt lat="43.01444" lon="1.33068">
        <ele>477.8</ele>
        <time>2022-03-26T16:14:08Z</time>
      </trkpt>
      <trkpt lat="43.01454" lon="1.33091">
        <ele>477.8</ele>
        <time>2022-03-26T16:14:15Z</time>
      </trkpt>
      <trkpt lat="43.01458" lon="1.33102">
        <ele>478.4</ele>
        <time>2022-03-26T16:14:18Z</time>
      </trkpt>
      <trkpt lat="43.01465" lon="1.33127">
        <ele>479.6</ele>
        <time>2022-03-26T16:14:25Z</time>
      </trkpt>
      <trkpt lat="43.01468" lon="1.33137">
        <ele>480</ele>
        <time>2022-03-26T16:14:28Z</time>
      </trkpt>
      <trkpt lat="43.01474" lon="1.33161">
        <ele>479.6</ele>
        <time>2022-03-26T16:14:35Z</time>
      </trkpt>
      <trkpt lat="43.01474" lon="1.3317">
        <ele>478.6</ele>
        <time>2022-03-26T16:14:38Z</time>
      </trkpt>
      <trkpt lat="43.01461" lon="1.33187">
        <ele>476.8</ele>
        <time>2022-03-26T16:14:45Z</time>
      </trkpt>
      <trkpt lat="43.01454" lon="1.33193">
        <ele>474.8</ele>
        <time>2022-03-26T16:14:48Z</time>
      </trkpt>
      <trkpt lat="43.01437" lon="1.33208">
        <ele>465.2</ele>
        <time>2022-03-26T16:14:57Z</time>
      </trkpt>
      <trkpt lat="43.01435" lon="1.3321">
        <ele>464.6</ele>
        <time>2022-03-26T16:14:58Z</time>
      </trkpt>
      <trkpt lat="43.01421" lon="1.33225">
        <ele>456.6</ele>
        <time>2022-03-26T16:15:06Z</time>
      </trkpt>
      <trkpt lat="43.01418" lon="1.33229">
        <ele>454.4</ele>
        <time>2022-03-26T16:15:08Z</time>
      </trkpt>
      <trkpt lat="43.01405" lon="1.33249">
        <ele>446.2</ele>
        <time>2022-03-26T16:15:18Z</time>
      </trkpt>
      <trkpt lat="43.01401" lon="1.3325">
        <ele>443.6</ele>
        <time>2022-03-26T16:15:23Z</time>
      </trkpt>
      <trkpt lat="43.01398" lon="1.33248">
        <ele>439</ele>
        <time>2022-03-26T16:15:27Z</time>
      </trkpt>
      <trkpt lat="43.01397" lon="1.33248">
        <ele>438.2</ele>
        <time>2022-03-26T16:15:28Z</time>
      </trkpt>
      <trkpt lat="43.01377" lon="1.33241">
        <ele>434</ele>
        <time>2022-03-26T16:15:37Z</time>
      </trkpt>
      <trkpt lat="43.01375" lon="1.3324">
        <ele>434</ele>
        <time>2022-03-26T16:15:38Z</time>
      </trkpt>
      <trkpt lat="43.0137" lon="1.33239">
        <ele>433.4</ele>
        <time>2022-03-26T16:15:41Z</time>
      </trkpt>
      <trkpt lat="43.01369" lon="1.33246">
        <ele>433.2</ele>
        <time>2022-03-26T16:15:44Z</time>
      </trkpt>
      <trkpt lat="43.01373" lon="1.3326">
        <ele>433.8</ele>
        <time>2022-03-26T16:15:48Z</time>
      </trkpt>
      <trkpt lat="43.01374" lon="1.3327">
        <ele>433.8</ele>
        <time>2022-03-26T16:15:51Z</time>
      </trkpt>
      <trkpt lat="43.01366" lon="1.3329">
        <ele>431.8</ele>
        <time>2022-03-26T16:15:58Z</time>
      </trkpt>
      <trkpt lat="43.01356" lon="1.33311">
        <ele>428.8</ele>
        <time>2022-03-26T16:16:05Z</time>
      </trkpt>
      <trkpt lat="43.01353" lon="1.33321">
        <ele>428.4</ele>
        <time>2022-03-26T16:16:08Z</time>
      </trkpt>
      <trkpt lat="43.01348" lon="1.33347">
        <ele>427.2</ele>
        <time>2022-03-26T16:16:15Z</time>
      </trkpt>
      <trkpt lat="43.01343" lon="1.33356">
        <ele>426.6</ele>
        <time>2022-03-26T16:16:18Z</time>
      </trkpt>
      <trkpt lat="43.01331" lon="1.33378">
        <ele>426.8</ele>
        <time>2022-03-26T16:16:25Z</time>
      </trkpt>
      <trkpt lat="43.01324" lon="1.33387">
        <ele>426.8</ele>
        <time>2022-03-26T16:16:28Z</time>
      </trkpt>
      <trkpt lat="43.01308" lon="1.33398">
        <ele>425.2</ele>
        <time>2022-03-26T16:16:35Z</time>
      </trkpt>
      <trkpt lat="43.013" lon="1.33402">
        <ele>424</ele>
        <time>2022-03-26T16:16:38Z</time>
      </trkpt>
      <trkpt lat="43.01284" lon="1.33417">
        <ele>419.2</ele>
        <time>2022-03-26T16:16:46Z</time>
      </trkpt>
      <trkpt lat="43.01281" lon="1.33423">
        <ele>417.2</ele>
        <time>2022-03-26T16:16:48Z</time>
      </trkpt>
      <trkpt lat="43.01272" lon="1.33444">
        <ele>407.6</ele>
        <time>2022-03-26T16:16:56Z</time>
      </trkpt>
      <trkpt lat="43.0127" lon="1.3345">
        <ele>405.2</ele>
        <time>2022-03-26T16:16:58Z</time>
      </trkpt>
      <trkpt lat="43.01263" lon="1.33473">
        <ele>401.4</ele>
        <time>2022-03-26T16:17:05Z</time>
      </trkpt>
      <trkpt lat="43.0126" lon="1.33483">
        <ele>400.4</ele>
        <time>2022-03-26T16:17:08Z</time>
      </trkpt>
      <trkpt lat="43.01252" lon="1.33508">
        <ele>400.6</ele>
        <time>2022-03-26T16:17:15Z</time>
      </trkpt>
      <trkpt lat="43.01247" lon="1.33517">
        <ele>400</ele>
        <time>2022-03-26T16:17:18Z</time>
      </trkpt>
      <trkpt lat="43.01235" lon="1.33537">
        <ele>401</ele>
        <time>2022-03-26T16:17:25Z</time>
      </trkpt>
      <trkpt lat="43.01229" lon="1.33544">
        <ele>401</ele>
        <time>2022-03-26T16:17:28Z</time>
      </trkpt>
      <trkpt lat="43.01214" lon="1.3356">
        <ele>399.4</ele>
        <time>2022-03-26T16:17:35Z</time>
      </trkpt>
      <trkpt lat="43.01207" lon="1.33561">
        <ele>397.8</ele>
        <time>2022-03-26T16:17:38Z</time>
      </trkpt>
      <trkpt lat="43.01188" lon="1.33566">
        <ele>396.4</ele>
        <time>2022-03-26T16:17:45Z</time>
      </trkpt>
      <trkpt lat="43.01181" lon="1.33572">
        <ele>395</ele>
        <time>2022-03-26T16:17:48Z</time>
      </trkpt>
      <trkpt lat="43.0117" lon="1.33591">
        <ele>391.8</ele>
        <time>2022-03-26T16:17:55Z</time>
      </trkpt>
      <trkpt lat="43.01167" lon="1.336">
        <ele>392.2</ele>
        <time>2022-03-26T16:17:58Z</time>
      </trkpt>
      <trkpt lat="43.01159" lon="1.33625">
        <ele>393.6</ele>
        <time>2022-03-26T16:18:06Z</time>
      </trkpt>
      <trkpt lat="43.01158" lon="1.33632">
        <ele>394.4</ele>
        <time>2022-03-26T16:18:08Z</time>
      </trkpt>
      <trkpt lat="43.01154" lon="1.33659">
        <ele>396.4</ele>
        <time>2022-03-26T16:18:16Z</time>
      </trkpt>
      <trkpt lat="43.01154" lon="1.33665">
        <ele>397.6</ele>
        <time>2022-03-26T16:18:18Z</time>
      </trkpt>
      <trkpt lat="43.01153" lon="1.33675">
        <ele>398.2</ele>
        <time>2022-03-26T16:18:21Z</time>
      </trkpt>
      <trkpt lat="43.01149" lon="1.33698">
        <ele>398.4</ele>
        <time>2022-03-26T16:18:28Z</time>
      </trkpt>
      <trkpt lat="43.01145" lon="1.33721">
        <ele>398</ele>
        <time>2022-03-26T16:18:36Z</time>
      </trkpt>
      <trkpt lat="43.01146" lon="1.33727">
        <ele>398.2</ele>
        <time>2022-03-26T16:18:38Z</time>
      </trkpt>
      <trkpt lat="43.01155" lon="1.3375">
        <ele>397.4</ele>
        <time>2022-03-26T16:18:46Z</time>
      </trkpt>
      <trkpt lat="43.01157" lon="1.33755">
        <ele>396.4</ele>
        <time>2022-03-26T16:18:48Z</time>
      </trkpt>
      <trkpt lat="43.01168" lon="1.33776">
        <ele>392</ele>
        <time>2022-03-26T16:18:57Z</time>
      </trkpt>
      <trkpt lat="43.01169" lon="1.33778">
        <ele>391.6</ele>
        <time>2022-03-26T16:18:58Z</time>
      </trkpt>
      <trkpt lat="43.01178" lon="1.33795">
        <ele>387</ele>
        <time>2022-03-26T16:19:08Z</time>
      </trkpt>
      <trkpt lat="43.01176" lon="1.33804">
        <ele>385</ele>
        <time>2022-03-26T16:19:16Z</time>
      </trkpt>
      <trkpt lat="43.01177" lon="1.33805">
        <ele>384.8</ele>
        <time>2022-03-26T16:19:18Z</time>
      </trkpt>
      <trkpt lat="43.01179" lon="1.33813">
        <ele>385</ele>
        <time>2022-03-26T16:19:28Z</time>
      </trkpt>
      <trkpt lat="43.0118" lon="1.33822">
        <ele>387</ele>
        <time>2022-03-26T16:19:38Z</time>
      </trkpt>
      <trkpt lat="43.01182" lon="1.3383">
        <ele>389.4</ele>
        <time>2022-03-26T16:19:48Z</time>
      </trkpt>
      <trkpt lat="43.01185" lon="1.3384">
        <ele>391</ele>
        <time>2022-03-26T16:19:58Z</time>
      </trkpt>
      <trkpt lat="43.01188" lon="1.33849">
        <ele>395.8</ele>
        <time>2022-03-26T16:20:08Z</time>
      </trkpt>
      <trkpt lat="43.01189" lon="1.33858">
        <ele>398.2</ele>
        <time>2022-03-26T16:20:18Z</time>
      </trkpt>
      <trkpt lat="43.01191" lon="1.33865">
        <ele>401.2</ele>
        <time>2022-03-26T16:20:28Z</time>
      </trkpt>
      <trkpt lat="43.01194" lon="1.33873">
        <ele>403.8</ele>
        <time>2022-03-26T16:20:38Z</time>
      </trkpt>
      <trkpt lat="43.01196" lon="1.33884">
        <ele>405</ele>
        <time>2022-03-26T16:20:48Z</time>
      </trkpt>
      <trkpt lat="43.01198" lon="1.33892">
        <ele>408.2</ele>
        <time>2022-03-26T16:20:58Z</time>
      </trkpt>
      <trkpt lat="43.01198" lon="1.339">
        <ele>408.2</ele>
        <time>2022-03-26T16:21:08Z</time>
      </trkpt>
      <trkpt lat="43.01197" lon="1.33908">
        <ele>409.8</ele>
        <time>2022-03-26T16:21:18Z</time>
      </trkpt>
      <trkpt lat="43.01198" lon="1.33917">
        <ele>410.8</ele>
        <time>2022-03-26T16:21:28Z</time>
      </trkpt>
      <trkpt lat="43.01198" lon="1.33926">
        <ele>412.6</ele>
        <time>2022-03-26T16:21:38Z</time>
      </trkpt>
      <trkpt lat="43.01198" lon="1.33935">
        <ele>413.4</ele>
        <time>2022-03-26T16:21:48Z</time>
      </trkpt>
      <trkpt lat="43.01197" lon="1.33944">
        <ele>414.4</ele>
        <time>2022-03-26T16:21:58Z</time>
      </trkpt>
      <trkpt lat="43.01199" lon="1.33953">
        <ele>417</ele>
        <time>2022-03-26T16:22:08Z</time>
      </trkpt>
      <trkpt lat="43.012" lon="1.33962">
        <ele>419.4</ele>
        <time>2022-03-26T16:22:18Z</time>
      </trkpt>
      <trkpt lat="43.012" lon="1.33972">
        <ele>420</ele>
        <time>2022-03-26T16:22:28Z</time>
      </trkpt>
      <trkpt lat="43.01201" lon="1.33982">
        <ele>421.4</ele>
        <time>2022-03-26T16:22:38Z</time>
      </trkpt>
      <trkpt lat="43.01202" lon="1.33994">
        <ele>423</ele>
        <time>2022-03-26T16:22:48Z</time>
      </trkpt>
      <trkpt lat="43.01201" lon="1.33996">
        <ele>422.8</ele>
        <time>2022-03-26T16:22:49Z</time>
      </trkpt>
      <trkpt lat="43.01204" lon="1.34007">
        <ele>423.6</ele>
        <time>2022-03-26T16:22:58Z</time>
      </trkpt>
      <trkpt lat="43.01208" lon="1.34019">
        <ele>424.6</ele>
        <time>2022-03-26T16:23:08Z</time>
      </trkpt>
      <trkpt lat="43.01209" lon="1.34023">
        <ele>424.8</ele>
        <time>2022-03-26T16:23:11Z</time>
      </trkpt>
      <trkpt lat="43.01208" lon="1.34033">
        <ele>425.6</ele>
        <time>2022-03-26T16:23:18Z</time>
      </trkpt>
      <trkpt lat="43.01208" lon="1.34047">
        <ele>427.2</ele>
        <time>2022-03-26T16:23:28Z</time>
      </trkpt>
      <trkpt lat="43.0121" lon="1.34065">
        <ele>430</ele>
        <time>2022-03-26T16:23:38Z</time>
      </trkpt>
      <trkpt lat="43.01217" lon="1.34088">
        <ele>431.4</ele>
        <time>2022-03-26T16:23:47Z</time>
      </trkpt>
      <trkpt lat="43.01218" lon="1.3409">
        <ele>431</ele>
        <time>2022-03-26T16:23:48Z</time>
      </trkpt>
      <trkpt lat="43.01226" lon="1.34114">
        <ele>433</ele>
        <time>2022-03-26T16:23:57Z</time>
      </trkpt>
      <trkpt lat="43.01227" lon="1.34117">
        <ele>433.2</ele>
        <time>2022-03-26T16:23:58Z</time>
      </trkpt>
      <trkpt lat="43.01232" lon="1.34143">
        <ele>434.8</ele>
        <time>2022-03-26T16:24:07Z</time>
      </trkpt>
      <trkpt lat="43.01232" lon="1.34146">
        <ele>435.2</ele>
        <time>2022-03-26T16:24:08Z</time>
      </trkpt>
      <trkpt lat="43.01231" lon="1.34172">
        <ele>432.6</ele>
        <time>2022-03-26T16:24:17Z</time>
      </trkpt>
      <trkpt lat="43.01231" lon="1.34175">
        <ele>432.4</ele>
        <time>2022-03-26T16:24:18Z</time>
      </trkpt>
      <trkpt lat="43.0123" lon="1.342">
        <ele>430.6</ele>
        <time>2022-03-26T16:24:26Z</time>
      </trkpt>
      <trkpt lat="43.0123" lon="1.34206">
        <ele>429.6</ele>
        <time>2022-03-26T16:24:28Z</time>
      </trkpt>
      <trkpt lat="43.01228" lon="1.34233">
        <ele>429.8</ele>
        <time>2022-03-26T16:24:36Z</time>
      </trkpt>
      <trkpt lat="43.01228" lon="1.34239">
        <ele>429.6</ele>
        <time>2022-03-26T16:24:38Z</time>
      </trkpt>
      <trkpt lat="43.01226" lon="1.34265">
        <ele>429.4</ele>
        <time>2022-03-26T16:24:46Z</time>
      </trkpt>
      <trkpt lat="43.01226" lon="1.34272">
        <ele>428.8</ele>
        <time>2022-03-26T16:24:48Z</time>
      </trkpt>
      <trkpt lat="43.01226" lon="1.343">
        <ele>431.4</ele>
        <time>2022-03-26T16:24:56Z</time>
      </trkpt>
      <trkpt lat="43.01225" lon="1.34306">
        <ele>431.8</ele>
        <time>2022-03-26T16:24:58Z</time>
      </trkpt>
      <trkpt lat="43.01224" lon="1.34332">
        <ele>433</ele>
        <time>2022-03-26T16:25:07Z</time>
      </trkpt>
      <trkpt lat="43.01224" lon="1.34335">
        <ele>433.2</ele>
        <time>2022-03-26T16:25:08Z</time>
      </trkpt>
      <trkpt lat="43.01214" lon="1.3435">
        <ele>437</ele>
        <time>2022-03-26T16:25:17Z</time>
      </trkpt>
      <trkpt lat="43.01213" lon="1.34351">
        <ele>437.4</ele>
        <time>2022-03-26T16:25:18Z</time>
      </trkpt>
      <trkpt lat="43.01197" lon="1.34358">
        <ele>440.8</ele>
        <time>2022-03-26T16:25:28Z</time>
      </trkpt>
      <trkpt lat="43.0119" lon="1.3436">
        <ele>441.8</ele>
        <time>2022-03-26T16:25:33Z</time>
      </trkpt>
      <trkpt lat="43.01182" lon="1.34364">
        <ele>441</ele>
        <time>2022-03-26T16:25:38Z</time>
      </trkpt>
      <trkpt lat="43.01166" lon="1.34373">
        <ele>440.6</ele>
        <time>2022-03-26T16:25:48Z</time>
      </trkpt>
      <trkpt lat="43.01149" lon="1.34379">
        <ele>440.6</ele>
        <time>2022-03-26T16:25:58Z</time>
      </trkpt>
      <trkpt lat="43.01131" lon="1.34379">
        <ele>438.2</ele>
        <time>2022-03-26T16:26:07Z</time>
      </trkpt>
      <trkpt lat="43.01129" lon="1.34379">
        <ele>438</ele>
        <time>2022-03-26T16:26:08Z</time>
      </trkpt>
      <trkpt lat="43.0111" lon="1.3438">
        <ele>437.4</ele>
        <time>2022-03-26T16:26:17Z</time>
      </trkpt>
      <trkpt lat="43.01108" lon="1.34379">
        <ele>437.2</ele>
        <time>2022-03-26T16:26:18Z</time>
      </trkpt>
      <trkpt lat="43.0109" lon="1.34373">
        <ele>438</ele>
        <time>2022-03-26T16:26:27Z</time>
      </trkpt>
      <trkpt lat="43.01088" lon="1.34371">
        <ele>438.6</ele>
        <time>2022-03-26T16:26:28Z</time>
      </trkpt>
      <trkpt lat="43.01072" lon="1.3436">
        <ele>441.8</ele>
        <time>2022-03-26T16:26:38Z</time>
      </trkpt>
      <trkpt lat="43.01055" lon="1.34346">
        <ele>444.6</ele>
        <time>2022-03-26T16:26:48Z</time>
      </trkpt>
      <trkpt lat="43.01039" lon="1.34333">
        <ele>445.2</ele>
        <time>2022-03-26T16:26:57Z</time>
      </trkpt>
      <trkpt lat="43.01038" lon="1.34332">
        <ele>445</ele>
        <time>2022-03-26T16:26:58Z</time>
      </trkpt>
      <trkpt lat="43.01021" lon="1.34322">
        <ele>443</ele>
        <time>2022-03-26T16:27:07Z</time>
      </trkpt>
      <trkpt lat="43.01019" lon="1.34321">
        <ele>442.8</ele>
        <time>2022-03-26T16:27:08Z</time>
      </trkpt>
      <trkpt lat="43.01002" lon="1.34312">
        <ele>444.4</ele>
        <time>2022-03-26T16:27:17Z</time>
      </trkpt>
      <trkpt lat="43.01" lon="1.34311">
        <ele>444.8</ele>
        <time>2022-03-26T16:27:18Z</time>
      </trkpt>
      <trkpt lat="43.00983" lon="1.343">
        <ele>446.2</ele>
        <time>2022-03-26T16:27:27Z</time>
      </trkpt>
      <trkpt lat="43.00981" lon="1.34299">
        <ele>446.6</ele>
        <time>2022-03-26T16:27:28Z</time>
      </trkpt>
      <trkpt lat="43.00963" lon="1.34289">
        <ele>449.6</ele>
        <time>2022-03-26T16:27:38Z</time>
      </trkpt>
      <trkpt lat="43.00946" lon="1.34278">
        <ele>450.2</ele>
        <time>2022-03-26T16:27:47Z</time>
      </trkpt>
      <trkpt lat="43.00944" lon="1.34277">
        <ele>449.4</ele>
        <time>2022-03-26T16:27:48Z</time>
      </trkpt>
      <trkpt lat="43.00927" lon="1.34265">
        <ele>445</ele>
        <time>2022-03-26T16:27:57Z</time>
      </trkpt>
      <trkpt lat="43.00925" lon="1.34264">
        <ele>444.4</ele>
        <time>2022-03-26T16:27:58Z</time>
      </trkpt>
      <trkpt lat="43.00909" lon="1.34252">
        <ele>443.2</ele>
        <time>2022-03-26T16:28:07Z</time>
      </trkpt>
      <trkpt lat="43.00907" lon="1.3425">
        <ele>442.8</ele>
        <time>2022-03-26T16:28:08Z</time>
      </trkpt>
      <trkpt lat="43.00889" lon="1.34236">
        <ele>444.4</ele>
        <time>2022-03-26T16:28:16Z</time>
      </trkpt>
      <trkpt lat="43.00885" lon="1.34233">
        <ele>444.2</ele>
        <time>2022-03-26T16:28:18Z</time>
      </trkpt>
      <trkpt lat="43.00869" lon="1.3422">
        <ele>445.4</ele>
        <time>2022-03-26T16:28:27Z</time>
      </trkpt>
      <trkpt lat="43.00867" lon="1.34219">
        <ele>445.4</ele>
        <time>2022-03-26T16:28:28Z</time>
      </trkpt>
      <trkpt lat="43.00848" lon="1.34211">
        <ele>445.4</ele>
        <time>2022-03-26T16:28:37Z</time>
      </trkpt>
      <trkpt lat="43.00846" lon="1.34211">
        <ele>445.2</ele>
        <time>2022-03-26T16:28:38Z</time>
      </trkpt>
      <trkpt lat="43.00827" lon="1.3421">
        <ele>441.8</ele>
        <time>2022-03-26T16:28:47Z</time>
      </trkpt>
      <trkpt lat="43.00825" lon="1.3421">
        <ele>441.4</ele>
        <time>2022-03-26T16:28:48Z</time>
      </trkpt>
      <trkpt lat="43.00824" lon="1.34209">
        <ele>440.8</ele>
        <time>2022-03-26T16:28:49Z</time>
      </trkpt>
      <trkpt lat="43.00822" lon="1.34206">
        <ele>439</ele>
        <time>2022-03-26T16:28:52Z</time>
      </trkpt>
      <trkpt lat="43.0082" lon="1.34203">
        <ele>438.2</ele>
        <time>2022-03-26T16:28:54Z</time>
      </trkpt>
      <trkpt lat="43.00819" lon="1.342">
        <ele>436.8</ele>
        <time>2022-03-26T16:28:56Z</time>
      </trkpt>
      <trkpt lat="43.0082" lon="1.34194">
        <ele>435.6</ele>
        <time>2022-03-26T16:28:58Z</time>
      </trkpt>
      <trkpt lat="43.00832" lon="1.34174">
        <ele>431.4</ele>
        <time>2022-03-26T16:29:06Z</time>
      </trkpt>
      <trkpt lat="43.00835" lon="1.34169">
        <ele>430.6</ele>
        <time>2022-03-26T16:29:08Z</time>
      </trkpt>
      <trkpt lat="43.00848" lon="1.3415">
        <ele>425.4</ele>
        <time>2022-03-26T16:29:18Z</time>
      </trkpt>
      <trkpt lat="43.00834" lon="1.34132">
        <ele>422.8</ele>
        <time>2022-03-26T16:29:27Z</time>
      </trkpt>
      <trkpt lat="43.00832" lon="1.34131">
        <ele>422</ele>
        <time>2022-03-26T16:29:28Z</time>
      </trkpt>
      <trkpt lat="43.00815" lon="1.34118">
        <ele>416.2</ele>
        <time>2022-03-26T16:29:38Z</time>
      </trkpt>
      <trkpt lat="43.00805" lon="1.34097">
        <ele>413.2</ele>
        <time>2022-03-26T16:29:47Z</time>
      </trkpt>
      <trkpt lat="43.00804" lon="1.34094">
        <ele>412.6</ele>
        <time>2022-03-26T16:29:48Z</time>
      </trkpt>
      <trkpt lat="43.00794" lon="1.34072">
        <ele>410.4</ele>
        <time>2022-03-26T16:29:56Z</time>
      </trkpt>
      <trkpt lat="43.00792" lon="1.34066">
        <ele>409.8</ele>
        <time>2022-03-26T16:29:58Z</time>
      </trkpt>
      <trkpt lat="43.00784" lon="1.34043">
        <ele>407.8</ele>
        <time>2022-03-26T16:30:05Z</time>
      </trkpt>
      <trkpt lat="43.0078" lon="1.34034">
        <ele>407</ele>
        <time>2022-03-26T16:30:08Z</time>
      </trkpt>
      <trkpt lat="43.00773" lon="1.34012">
        <ele>404.4</ele>
        <time>2022-03-26T16:30:15Z</time>
      </trkpt>
      <trkpt lat="43.00769" lon="1.34002">
        <ele>404</ele>
        <time>2022-03-26T16:30:18Z</time>
      </trkpt>
      <trkpt lat="43.00762" lon="1.33982">
        <ele>400.2</ele>
        <time>2022-03-26T16:30:27Z</time>
      </trkpt>
      <trkpt lat="43.00762" lon="1.33984">
        <ele>400.2</ele>
        <time>2022-03-26T16:30:28Z</time>
      </trkpt>
      <trkpt lat="43.00756" lon="1.34005">
        <ele>401</ele>
        <time>2022-03-26T16:30:38Z</time>
      </trkpt>
      <trkpt lat="43.00751" lon="1.34021">
        <ele>405.6</ele>
        <time>2022-03-26T16:30:48Z</time>
      </trkpt>
      <trkpt lat="43.00744" lon="1.3403">
        <ele>409.8</ele>
        <time>2022-03-26T16:30:58Z</time>
      </trkpt>
      <trkpt lat="43.00731" lon="1.34038">
        <ele>410.4</ele>
        <time>2022-03-26T16:31:08Z</time>
      </trkpt>
      <trkpt lat="43.00719" lon="1.34045">
        <ele>410.6</ele>
        <time>2022-03-26T16:31:18Z</time>
      </trkpt>
      <trkpt lat="43.00708" lon="1.3405">
        <ele>412.2</ele>
        <time>2022-03-26T16:31:28Z</time>
      </trkpt>
      <trkpt lat="43.00697" lon="1.34057">
        <ele>413.2</ele>
        <time>2022-03-26T16:31:38Z</time>
      </trkpt>
      <trkpt lat="43.00687" lon="1.34069">
        <ele>413.8</ele>
        <time>2022-03-26T16:31:48Z</time>
      </trkpt>
      <trkpt lat="43.00678" lon="1.34081">
        <ele>413.8</ele>
        <time>2022-03-26T16:31:58Z</time>
      </trkpt>
      <trkpt lat="43.00668" lon="1.34098">
        <ele>416</ele>
        <time>2022-03-26T16:32:08Z</time>
      </trkpt>
      <trkpt lat="43.00655" lon="1.34111">
        <ele>417.4</ele>
        <time>2022-03-26T16:32:18Z</time>
      </trkpt>
      <trkpt lat="43.00643" lon="1.34124">
        <ele>418.8</ele>
        <time>2022-03-26T16:32:28Z</time>
      </trkpt>
      <trkpt lat="43.00631" lon="1.34137">
        <ele>420.4</ele>
        <time>2022-03-26T16:32:38Z</time>
      </trkpt>
      <trkpt lat="43.00619" lon="1.34152">
        <ele>423.8</ele>
        <time>2022-03-26T16:32:48Z</time>
      </trkpt>
      <trkpt lat="43.00608" lon="1.34169">
        <ele>427.6</ele>
        <time>2022-03-26T16:32:58Z</time>
      </trkpt>
      <trkpt lat="43.006" lon="1.34183">
        <ele>429.2</ele>
        <time>2022-03-26T16:33:08Z</time>
      </trkpt>
      <trkpt lat="43.00595" lon="1.34198">
        <ele>429</ele>
        <time>2022-03-26T16:33:18Z</time>
      </trkpt>
      <trkpt lat="43.00591" lon="1.34213">
        <ele>429.6</ele>
        <time>2022-03-26T16:33:28Z</time>
      </trkpt>
      <trkpt lat="43.00586" lon="1.34229">
        <ele>428.8</ele>
        <time>2022-03-26T16:33:38Z</time>
      </trkpt>
      <trkpt lat="43.00585" lon="1.34235">
        <ele>429.6</ele>
        <time>2022-03-26T16:33:42Z</time>
      </trkpt>
      <trkpt lat="43.00582" lon="1.34245">
        <ele>430</ele>
        <time>2022-03-26T16:33:48Z</time>
      </trkpt>
      <trkpt lat="43.00575" lon="1.34263">
        <ele>432.4</ele>
        <time>2022-03-26T16:33:58Z</time>
      </trkpt>
      <trkpt lat="43.00567" lon="1.34281">
        <ele>434.2</ele>
        <time>2022-03-26T16:34:08Z</time>
      </trkpt>
      <trkpt lat="43.00558" lon="1.34298">
        <ele>437.2</ele>
        <time>2022-03-26T16:34:18Z</time>
      </trkpt>
      <trkpt lat="43.00551" lon="1.34313">
        <ele>437.4</ele>
        <time>2022-03-26T16:34:28Z</time>
      </trkpt>
      <trkpt lat="43.00545" lon="1.34329">
        <ele>437.4</ele>
        <time>2022-03-26T16:34:38Z</time>
      </trkpt>
      <trkpt lat="43.00539" lon="1.34344">
        <ele>438.2</ele>
        <time>2022-03-26T16:34:48Z</time>
      </trkpt>
      <trkpt lat="43.00533" lon="1.34359">
        <ele>439.6</ele>
        <time>2022-03-26T16:34:58Z</time>
      </trkpt>
      <trkpt lat="43.00526" lon="1.34372">
        <ele>441.6</ele>
        <time>2022-03-26T16:35:08Z</time>
      </trkpt>
      <trkpt lat="43.0052" lon="1.34383">
        <ele>442.4</ele>
        <time>2022-03-26T16:35:18Z</time>
      </trkpt>
      <trkpt lat="43.00512" lon="1.34394">
        <ele>445.6</ele>
        <time>2022-03-26T16:35:28Z</time>
      </trkpt>
      <trkpt lat="43.005" lon="1.34404">
        <ele>447.6</ele>
        <time>2022-03-26T16:35:38Z</time>
      </trkpt>
      <trkpt lat="43.00484" lon="1.34388">
        <ele>447.6</ele>
        <time>2022-03-26T16:35:47Z</time>
      </trkpt>
      <trkpt lat="43.00482" lon="1.34386">
        <ele>447.8</ele>
        <time>2022-03-26T16:35:48Z</time>
      </trkpt>
      <trkpt lat="43.00466" lon="1.34368">
        <ele>448</ele>
        <time>2022-03-26T16:35:56Z</time>
      </trkpt>
      <trkpt lat="43.00463" lon="1.34363">
        <ele>448.6</ele>
        <time>2022-03-26T16:35:58Z</time>
      </trkpt>
      <trkpt lat="43.0045" lon="1.34346">
        <ele>447.8</ele>
        <time>2022-03-26T16:36:05Z</time>
      </trkpt>
      <trkpt lat="43.00444" lon="1.34338">
        <ele>446.6</ele>
        <time>2022-03-26T16:36:08Z</time>
      </trkpt>
      <trkpt lat="43.00433" lon="1.34317">
        <ele>445.8</ele>
        <time>2022-03-26T16:36:15Z</time>
      </trkpt>
      <trkpt lat="43.00428" lon="1.34307">
        <ele>445.6</ele>
        <time>2022-03-26T16:36:18Z</time>
      </trkpt>
      <trkpt lat="43.00419" lon="1.34284">
        <ele>443.8</ele>
        <time>2022-03-26T16:36:26Z</time>
      </trkpt>
      <trkpt lat="43.00417" lon="1.34278">
        <ele>443.2</ele>
        <time>2022-03-26T16:36:28Z</time>
      </trkpt>
      <trkpt lat="43.00409" lon="1.34252">
        <ele>438.2</ele>
        <time>2022-03-26T16:36:36Z</time>
      </trkpt>
      <trkpt lat="43.00407" lon="1.34245">
        <ele>437.4</ele>
        <time>2022-03-26T16:36:38Z</time>
      </trkpt>
      <trkpt lat="43.00398" lon="1.34223">
        <ele>434</ele>
        <time>2022-03-26T16:36:45Z</time>
      </trkpt>
      <trkpt lat="43.00394" lon="1.34212">
        <ele>433.4</ele>
        <time>2022-03-26T16:36:48Z</time>
      </trkpt>
      <trkpt lat="43.00388" lon="1.34187">
        <ele>429.4</ele>
        <time>2022-03-26T16:36:55Z</time>
      </trkpt>
      <trkpt lat="43.00386" lon="1.34176">
        <ele>426.6</ele>
        <time>2022-03-26T16:36:58Z</time>
      </trkpt>
      <trkpt lat="43.00384" lon="1.34162">
        <ele>422.2</ele>
        <time>2022-03-26T16:37:03Z</time>
      </trkpt>
      <trkpt lat="43.00382" lon="1.34163">
        <ele>421</ele>
        <time>2022-03-26T16:37:04Z</time>
      </trkpt>
      <trkpt lat="43.0038" lon="1.34175">
        <ele>416.4</ele>
        <time>2022-03-26T16:37:08Z</time>
      </trkpt>
      <trkpt lat="43.00378" lon="1.34201">
        <ele>407.4</ele>
        <time>2022-03-26T16:37:16Z</time>
      </trkpt>
      <trkpt lat="43.00377" lon="1.34208">
        <ele>404.8</ele>
        <time>2022-03-26T16:37:18Z</time>
      </trkpt>
      <trkpt lat="43.00374" lon="1.34234">
        <ele>399</ele>
        <time>2022-03-26T16:37:25Z</time>
      </trkpt>
      <trkpt lat="43.00372" lon="1.34248">
        <ele>397.2</ele>
        <time>2022-03-26T16:37:28Z</time>
      </trkpt>
      <trkpt lat="43.00361" lon="1.34269">
        <ele>400</ele>
        <time>2022-03-26T16:37:34Z</time>
      </trkpt>
      <trkpt lat="43.0035" lon="1.34274">
        <ele>401.6</ele>
        <time>2022-03-26T16:37:38Z</time>
      </trkpt>
      <trkpt lat="43.0033" lon="1.34279">
        <ele>404.2</ele>
        <time>2022-03-26T16:37:45Z</time>
      </trkpt>
      <trkpt lat="43.00322" lon="1.3428">
        <ele>403.8</ele>
        <time>2022-03-26T16:37:48Z</time>
      </trkpt>
      <trkpt lat="43.00302" lon="1.34284">
        <ele>404.6</ele>
        <time>2022-03-26T16:37:55Z</time>
      </trkpt>
      <trkpt lat="43.00293" lon="1.34285">
        <ele>405.2</ele>
        <time>2022-03-26T16:37:58Z</time>
      </trkpt>
      <trkpt lat="43.00275" lon="1.34277">
        <ele>406.2</ele>
        <time>2022-03-26T16:38:05Z</time>
      </trkpt>
      <trkpt lat="43.00268" lon="1.34272">
        <ele>407.2</ele>
        <time>2022-03-26T16:38:08Z</time>
      </trkpt>
      <trkpt lat="43.00253" lon="1.34257">
        <ele>410.2</ele>
        <time>2022-03-26T16:38:15Z</time>
      </trkpt>
      <trkpt lat="43.00247" lon="1.3425">
        <ele>410.6</ele>
        <time>2022-03-26T16:38:18Z</time>
      </trkpt>
      <trkpt lat="43.00233" lon="1.34233">
        <ele>409</ele>
        <time>2022-03-26T16:38:25Z</time>
      </trkpt>
      <trkpt lat="43.00227" lon="1.34226">
        <ele>409.2</ele>
        <time>2022-03-26T16:38:28Z</time>
      </trkpt>
      <trkpt lat="43.00211" lon="1.34214">
        <ele>409</ele>
        <time>2022-03-26T16:38:35Z</time>
      </trkpt>
      <trkpt lat="43.00204" lon="1.34209">
        <ele>408.2</ele>
        <time>2022-03-26T16:38:38Z</time>
      </trkpt>
      <trkpt lat="43.00185" lon="1.34202">
        <ele>407.6</ele>
        <time>2022-03-26T16:38:46Z</time>
      </trkpt>
      <trkpt lat="43.0018" lon="1.342">
        <ele>407.4</ele>
        <time>2022-03-26T16:38:48Z</time>
      </trkpt>
      <trkpt lat="43.0016" lon="1.34194">
        <ele>406.2</ele>
        <time>2022-03-26T16:38:56Z</time>
      </trkpt>
      <trkpt lat="43.00155" lon="1.34193">
        <ele>405.4</ele>
        <time>2022-03-26T16:38:58Z</time>
      </trkpt>
      <trkpt lat="43.00136" lon="1.34188">
        <ele>405.6</ele>
        <time>2022-03-26T16:39:06Z</time>
      </trkpt>
      <trkpt lat="43.00131" lon="1.34188">
        <ele>405.2</ele>
        <time>2022-03-26T16:39:08Z</time>
      </trkpt>
      <trkpt lat="43.00111" lon="1.34187">
        <ele>403</ele>
        <time>2022-03-26T16:39:17Z</time>
      </trkpt>
      <trkpt lat="43.00109" lon="1.34187">
        <ele>402.8</ele>
        <time>2022-03-26T16:39:18Z</time>
      </trkpt>
      <trkpt lat="43.00091" lon="1.34184">
        <ele>401</ele>
        <time>2022-03-26T16:39:27Z</time>
      </trkpt>
      <trkpt lat="43.00089" lon="1.34181">
        <ele>401</ele>
        <time>2022-03-26T16:39:28Z</time>
      </trkpt>
      <trkpt lat="43.00082" lon="1.34157">
        <ele>403.8</ele>
        <time>2022-03-26T16:39:35Z</time>
      </trkpt>
      <trkpt lat="43.00081" lon="1.34148">
        <ele>404.4</ele>
        <time>2022-03-26T16:39:38Z</time>
      </trkpt>
      <trkpt lat="43.0008" lon="1.34121">
        <ele>405</ele>
        <time>2022-03-26T16:39:46Z</time>
      </trkpt>
      <trkpt lat="43.00079" lon="1.34115">
        <ele>404.6</ele>
        <time>2022-03-26T16:39:48Z</time>
      </trkpt>
      <trkpt lat="43.00078" lon="1.34088">
        <ele>401.4</ele>
        <time>2022-03-26T16:39:56Z</time>
      </trkpt>
      <trkpt lat="43.00077" lon="1.34082">
        <ele>400.2</ele>
        <time>2022-03-26T16:39:58Z</time>
      </trkpt>
      <trkpt lat="43.00073" lon="1.34055">
        <ele>396.6</ele>
        <time>2022-03-26T16:40:06Z</time>
      </trkpt>
      <trkpt lat="43.00073" lon="1.34048">
        <ele>394.8</ele>
        <time>2022-03-26T16:40:08Z</time>
      </trkpt>
      <trkpt lat="43.00071" lon="1.34021">
        <ele>395.2</ele>
        <time>2022-03-26T16:40:16Z</time>
      </trkpt>
      <trkpt lat="43.00069" lon="1.34014">
        <ele>395.4</ele>
        <time>2022-03-26T16:40:18Z</time>
      </trkpt>
      <trkpt lat="43.00063" lon="1.33996">
        <ele>397.6</ele>
        <time>2022-03-26T16:40:24Z</time>
      </trkpt>
      <trkpt lat="43.0006" lon="1.33992">
        <ele>402.4</ele>
        <time>2022-03-26T16:40:28Z</time>
      </trkpt>
      <trkpt lat="43.00044" lon="1.33985">
        <ele>406.2</ele>
        <time>2022-03-26T16:40:38Z</time>
      </trkpt>
      <trkpt lat="43.0004" lon="1.3398">
        <ele>406.8</ele>
        <time>2022-03-26T16:40:48Z</time>
      </trkpt>
      <trkpt lat="43.0004" lon="1.33975">
        <ele>405.4</ele>
        <time>2022-03-26T16:40:58Z</time>
      </trkpt>
      <trkpt lat="43.00041" lon="1.33975">
        <ele>405.4</ele>
        <time>2022-03-26T16:41:02Z</time>
      </trkpt>
    </trkseg>
  </trk>
</gpx>